Darstellungsparameter: Aktuell verwendete Einstellungen:
Skalierung der Graphiken ... ?
xyx+y,   Skalierungsfaktor:      Skalierung: Modus: x, Faktor: 1
Darstellungszeitraum ... ?
Vom - - bis: - -   Zeitraum: 20.05.2014 - 09.06.2014
Min/Max/Avg-Anzeige ... ?
Zeige MMA aktuell
Zeige MMA Monat
Zeige MMA alles
Zeige --A aktuell
Zeige --A Monat
Zeige --A alles
Keine MMA-Anzeige
MMA:
Keine MMA-Graphiken
MMA-Basis: 20.05.2014 - 09.06.2014
Quicknavigation für Darstellung... ?
Tage:      1T, 2T, 3T, 5T -1T -2T -3T -5T +1T +2T +3T +5T
Wochen: 1W, 2W, 3W -1W -2W -3W +1W +2W +3W
Monate: 1M, 3M, 6M -1M -3M -6M +1M +3M +6M
Jahre:    1J, 3J, 5J, 10J -1J -3J -5J -10J +1J +3J +5J +10J
Nutze für die Darstellung ... ?
Originaldaten oder Mittelwerte auf ...
Stundenbasis Tagesbasis Wochenbasis
Monatsbasis Jahresbasis      Datenbasis: Original-Daten
Darstellen als:
Statistik (Auto) Statistik J:M      Darstellung:
Zur Graphik,    zurück zur Übersicht aller Sensoren.
 
Tabellarische Datenbersicht: ?
 
Sensor: Nr:Datum:Temp:Abs-Feuchte:Windchill:Wind:
Aussen-T/F 1 20-05-2014 00:00:00 14.4 C 10.38 g/m*3 14.4 C 0 km/h
2 20-05-2014 00:05:00 14.3 C 10.44 g/m*3 14.3 C 0 km/h
3 20-05-2014 00:10:00 14.3 C 10.44 g/m*3 14.3 C 0 km/h
4 20-05-2014 00:15:00 14.2 C 10.38 g/m*3 14.2 C 0 km/h
5 20-05-2014 00:20:00 14.1 C 10.32 g/m*3 14.1 C 0 km/h
6 20-05-2014 00:25:00 13.9 C 10.19 g/m*3 13.9 C 1.6 km/h
7 20-05-2014 00:30:00 13.9 C 10.19 g/m*3 13.9 C 0 km/h
8 20-05-2014 00:35:00 13.8 C 10.25 g/m*3 13.8 C 0 km/h
9 20-05-2014 00:40:00 13.7 C 10.18 g/m*3 13.7 C 0 km/h
10 20-05-2014 00:45:00 13.6 C 10.24 g/m*3 13.6 C 0 km/h
11 20-05-2014 00:50:00 13.5 C 10.18 g/m*3 13.5 C 0 km/h
12 20-05-2014 00:55:00 13.4 C 10.11 g/m*3 13.4 C 0 km/h
13 20-05-2014 01:00:00 13.3 C 10.17 g/m*3 13.3 C 0 km/h
14 20-05-2014 01:05:00 13.2 C 10.1 g/m*3 13.2 C 0 km/h
15 20-05-2014 01:10:00 13.1 C 10.04 g/m*3 13.1 C 0 km/h
16 20-05-2014 01:15:00 13.1 C 10.04 g/m*3 13.1 C 0 km/h
17 20-05-2014 01:20:00 13 C 10.09 g/m*3 13 C 0 km/h
18 20-05-2014 01:25:00 12.9 C 10.03 g/m*3 12.9 C 0 km/h
19 20-05-2014 01:30:00 12.8 C 9.97 g/m*3 12.8 C 0 km/h
20 20-05-2014 01:35:00 12.7 C 9.91 g/m*3 12.7 C 0 km/h
21 20-05-2014 01:40:00 12.7 C 9.91 g/m*3 12.7 C 0 km/h
22 20-05-2014 01:45:00 12.7 C 9.91 g/m*3 12.7 C 0 km/h
23 20-05-2014 01:50:00 12.6 C 9.85 g/m*3 12.6 C 0 km/h
24 20-05-2014 01:55:00 12.6 C 9.85 g/m*3 12.6 C 0 km/h
25 20-05-2014 02:00:00 12.6 C 9.96 g/m*3 12.6 C 0 km/h
Sensor: Nr:Datum:Temp:Abs-Feuchte:Windchill:Wind:
Aussen-T/F 26 20-05-2014 02:05:00 12.7 C 10.02 g/m*3 12.7 C 0 km/h
27 20-05-2014 02:10:00 12.7 C 10.02 g/m*3 12.7 C 0 km/h
28 20-05-2014 02:15:00 12.8 C 10.19 g/m*3 12.8 C 0 km/h
29 20-05-2014 02:20:00 12.9 C 10.26 g/m*3 12.9 C 0 km/h
30 20-05-2014 02:25:00 13 C 10.32 g/m*3 13 C 0 km/h
31 20-05-2014 02:30:00 13 C 10.32 g/m*3 13 C 0 km/h
32 20-05-2014 02:35:00 13.1 C 10.38 g/m*3 13.1 C 0 km/h
33 20-05-2014 02:40:00 13.1 C 10.38 g/m*3 13.1 C 0 km/h
34 20-05-2014 02:45:00 13 C 10.21 g/m*3 13 C 0 km/h
35 20-05-2014 02:50:00 12.9 C 10.14 g/m*3 12.9 C 0 km/h
36 20-05-2014 02:55:00 12.8 C 10.08 g/m*3 12.8 C 0 km/h
37 20-05-2014 03:00:00 12.7 C 10.13 g/m*3 12.7 C 0 km/h
38 20-05-2014 03:05:00 12.6 C 10.07 g/m*3 12.6 C 0 km/h
39 20-05-2014 03:10:00 12.5 C 10 g/m*3 12.5 C 0 km/h
40 20-05-2014 03:15:00 12.5 C 10 g/m*3 12.5 C 0 km/h
41 20-05-2014 03:20:00 12.6 C 10.07 g/m*3 12.6 C 0 km/h
42 20-05-2014 03:25:00 12.6 C 10.07 g/m*3 12.6 C 0 km/h
43 20-05-2014 03:30:00 12.6 C 10.07 g/m*3 12.6 C 0 km/h
44 20-05-2014 03:35:00 12.7 C 10.13 g/m*3 12.7 C 0 km/h
45 20-05-2014 03:40:00 12.6 C 10.07 g/m*3 12.6 C 0 km/h
46 20-05-2014 03:45:00 12.6 C 10.07 g/m*3 12.6 C 0 km/h
47 20-05-2014 03:50:00 12.4 C 9.94 g/m*3 12.4 C 0 km/h
48 20-05-2014 03:55:00 12.3 C 9.88 g/m*3 12.3 C 0 km/h
49 20-05-2014 04:00:00 12.3 C 9.88 g/m*3 12.3 C 0 km/h
50 20-05-2014 04:05:00 12.2 C 9.82 g/m*3 12.2 C 0 km/h
Sensor: Nr:Datum:Temp:Abs-Feuchte:Windchill:Wind:
Aussen-T/F 51 20-05-2014 04:10:00 12 C 9.8 g/m*3 12 C 0 km/h
52 20-05-2014 04:15:00 11.9 C 9.74 g/m*3 11.9 C 0 km/h
53 20-05-2014 04:20:00 11.9 C 9.74 g/m*3 11.9 C 0 km/h
54 20-05-2014 04:25:00 11.8 C 9.68 g/m*3 11.8 C 0 km/h
55 20-05-2014 04:30:00 11.7 C 9.62 g/m*3 11.7 C 0 km/h
56 20-05-2014 04:35:00 11.7 C 9.73 g/m*3 11.7 C 0 km/h
57 20-05-2014 04:40:00 11.7 C 9.73 g/m*3 11.7 C 0 km/h
58 20-05-2014 04:45:00 11.7 C 9.73 g/m*3 11.7 C 0 km/h
59 20-05-2014 04:50:00 11.8 C 9.79 g/m*3 11.8 C 0 km/h
60 20-05-2014 04:55:00 11.8 C 9.79 g/m*3 11.8 C 0 km/h
61 20-05-2014 05:00:00 11.8 C 9.79 g/m*3 11.8 C 0 km/h
62 20-05-2014 05:05:00 11.8 C 9.79 g/m*3 11.8 C 0 km/h
63 20-05-2014 05:10:00 11.8 C 9.79 g/m*3 11.8 C 0 km/h
64 20-05-2014 05:15:00 11.7 C 9.73 g/m*3 11.7 C 0 km/h
65 20-05-2014 05:20:00 11.7 C 9.73 g/m*3 11.7 C 0 km/h
66 20-05-2014 05:25:00 11.7 C 9.73 g/m*3 11.7 C 0 km/h
67 20-05-2014 05:30:00 11.7 C 9.83 g/m*3 11.7 C 0 km/h
68 20-05-2014 05:35:00 11.6 C 9.77 g/m*3 11.6 C 0 km/h
69 20-05-2014 05:40:00 11.6 C 9.77 g/m*3 11.6 C 0 km/h
70 20-05-2014 05:45:00 11.6 C 9.77 g/m*3 11.6 C 0 km/h
71 20-05-2014 05:50:00 11.6 C 9.77 g/m*3 11.6 C 0 km/h
72 20-05-2014 05:55:00 11.7 C 9.83 g/m*3 11.7 C 0 km/h
73 20-05-2014 06:00:00 11.7 C 9.83 g/m*3 11.7 C 0 km/h
74 20-05-2014 06:05:00 11.8 C 9.89 g/m*3 11.8 C 0 km/h
75 20-05-2014 06:10:00 11.9 C 9.96 g/m*3 11.9 C 0 km/h
Sensor: Nr:Datum:Temp:Abs-Feuchte:Windchill:Wind:
Aussen-T/F 76 20-05-2014 06:15:00 11.9 C 9.96 g/m*3 11.9 C 1.6 km/h
77 20-05-2014 06:20:00 12 C 10.02 g/m*3 12 C 6.4 km/h
78 20-05-2014 06:25:00 12.1 C 10.08 g/m*3 12.1 C 0 km/h
79 20-05-2014 06:30:00 12.2 C 10.14 g/m*3 12.2 C 0 km/h
80 20-05-2014 06:35:00 12.3 C 10.21 g/m*3 12.3 C 1.6 km/h
81 20-05-2014 06:40:00 12.3 C 10.1 g/m*3 12.3 C 0 km/h
82 20-05-2014 06:45:00 12.4 C 10.16 g/m*3 12.4 C 0 km/h
83 20-05-2014 06:50:00 12.6 C 10.29 g/m*3 12.6 C 0 km/h
84 20-05-2014 06:55:00 12.6 C 10.29 g/m*3 12.6 C 1.6 km/h
85 20-05-2014 07:00:00 12.7 C 10.24 g/m*3 12.7 C 0 km/h
86 20-05-2014 07:05:00 12.8 C 10.3 g/m*3 12.8 C 0 km/h
87 20-05-2014 07:10:00 12.9 C 10.37 g/m*3 12.9 C 0 km/h
88 20-05-2014 07:15:00 13 C 10.43 g/m*3 13 C 0 km/h
89 20-05-2014 07:20:00 13.1 C 10.38 g/m*3 13.1 C 0 km/h
90 20-05-2014 07:25:00 13.2 C 10.45 g/m*3 13.2 C 0 km/h
91 20-05-2014 07:30:00 13.2 C 10.45 g/m*3 13.2 C 3.2 km/h
92 20-05-2014 07:35:00 13.4 C 10.46 g/m*3 13.4 C 3.2 km/h
93 20-05-2014 07:40:00 13.4 C 10.35 g/m*3 13.4 C 0 km/h
94 20-05-2014 07:45:00 13.6 C 10.47 g/m*3 13.6 C 0 km/h
95 20-05-2014 07:50:00 13.8 C 10.6 g/m*3 13.8 C 0 km/h
96 20-05-2014 07:55:00 14 C 10.61 g/m*3 14 C 4.8 km/h
97 20-05-2014 08:00:00 14.2 C 10.75 g/m*3 14.2 C 3.2 km/h
98 20-05-2014 08:05:00 14.2 C 10.62 g/m*3 14.2 C 4.8 km/h
99 20-05-2014 08:10:00 14.3 C 10.81 g/m*3 14.3 C 0 km/h
100 20-05-2014 08:15:00 14.5 C 10.82 g/m*3 14.5 C 4.8 km/h
Sensor: Nr:Datum:Temp:Abs-Feuchte:Windchill:Wind:
Aussen-T/F 101 20-05-2014 08:20:00 14.6 C 10.89 g/m*3 14.6 C 3.2 km/h
102 20-05-2014 08:25:00 14.7 C 10.83 g/m*3 14.7 C 8.1 km/h
103 20-05-2014 08:30:00 14.9 C 10.96 g/m*3 14.9 C 4.8 km/h
104 20-05-2014 08:35:00 15.1 C 10.97 g/m*3 15.1 C 9.7 km/h
105 20-05-2014 08:40:00 15.2 C 11.03 g/m*3 15.2 C 6.4 km/h
106 20-05-2014 08:45:00 15.4 C 10.9 g/m*3 15.4 C 8.1 km/h
107 20-05-2014 08:50:00 15.5 C 10.97 g/m*3 15.5 C 4.8 km/h
108 20-05-2014 08:55:00 15.7 C 10.97 g/m*3 15.7 C 3.2 km/h
109 20-05-2014 09:00:00 15.9 C 11.1 g/m*3 15.9 C 3.2 km/h
110 20-05-2014 09:05:00 16.1 C 11.1 g/m*3 16.1 C 3.2 km/h
111 20-05-2014 09:10:00 16.3 C 11.1 g/m*3 16.3 C 3.2 km/h
112 20-05-2014 09:15:00 16.4 C 11.31 g/m*3 16.4 C 1.6 km/h
113 20-05-2014 09:20:00 16.6 C 11.3 g/m*3 16.6 C 6.4 km/h
114 20-05-2014 09:25:00 16.7 C 11.08 g/m*3 16.7 C 4.8 km/h
115 20-05-2014 09:30:00 16.9 C 11.22 g/m*3 16.9 C 4.8 km/h
116 20-05-2014 09:35:00 17.2 C 11.28 g/m*3 17.2 C 4.8 km/h
117 20-05-2014 09:40:00 17.5 C 11.33 g/m*3 17.5 C 3.2 km/h
118 20-05-2014 09:45:00 17.8 C 11.69 g/m*3 17.8 C 3.2 km/h
119 20-05-2014 09:50:00 18.1 C 11.43 g/m*3 18.1 C 1.6 km/h
120 20-05-2014 09:55:00 18.3 C 11.57 g/m*3 18.3 C 0 km/h
121 20-05-2014 10:00:00 18.5 C 11.71 g/m*3 18.5 C 3.2 km/h
122 20-05-2014 10:05:00 18.9 C 11.66 g/m*3 18.9 C 3.2 km/h
123 20-05-2014 10:10:00 19.3 C 11.78 g/m*3 19.3 C 3.2 km/h
124 20-05-2014 10:15:00 19.8 C 12.13 g/m*3 19.8 C 3.2 km/h
125 20-05-2014 10:20:00 20.2 C 12.24 g/m*3 20.2 C 3.2 km/h
Sensor: Nr:Datum:Temp:Abs-Feuchte:Windchill:Wind:
Aussen-T/F 126 20-05-2014 10:25:00 20.3 C 11.96 g/m*3 20.3 C 3.2 km/h
127 20-05-2014 10:30:00 20.5 C 12.1 g/m*3 20.5 C 3.2 km/h
128 20-05-2014 10:35:00 20.6 C 11.81 g/m*3 20.6 C 1.6 km/h
129 20-05-2014 10:40:00 20.6 C 12.17 g/m*3 20.6 C 4.8 km/h
130 20-05-2014 10:45:00 20.7 C 12.24 g/m*3 20.7 C 4.8 km/h
131 20-05-2014 10:50:00 20.9 C 12.57 g/m*3 20.9 C 3.2 km/h
132 20-05-2014 10:55:00 21.1 C 12.53 g/m*3 21.1 C 3.2 km/h
133 20-05-2014 11:00:00 21.3 C 11.74 g/m*3 21.3 C 4.8 km/h
134 20-05-2014 11:05:00 21.7 C 11.83 g/m*3 21.7 C 8.1 km/h
135 20-05-2014 11:10:00 22.1 C 11.71 g/m*3 22.1 C 9.7 km/h
136 20-05-2014 11:15:00 22.6 C 11.85 g/m*3 22.6 C 9.7 km/h
137 20-05-2014 11:20:00 22.8 C 11.18 g/m*3 22.8 C 8.1 km/h
138 20-05-2014 11:25:00 22.8 C 11.58 g/m*3 22.8 C 8.1 km/h
139 20-05-2014 11:30:00 22.9 C 11.85 g/m*3 22.9 C 8.1 km/h
140 20-05-2014 11:35:00 23.1 C 10.96 g/m*3 23.1 C 11.3 km/h
141 20-05-2014 11:40:00 23.1 C 11.16 g/m*3 23.1 C 11.3 km/h
142 20-05-2014 11:45:00 23.2 C 11.02 g/m*3 23.2 C 8.1 km/h
143 20-05-2014 11:50:00 23.4 C 10.93 g/m*3 23.4 C 9.7 km/h
144 20-05-2014 11:55:00 23.6 C 11.06 g/m*3 23.6 C 11.3 km/h
145 20-05-2014 12:00:00 23.8 C 10.97 g/m*3 23.8 C 8.1 km/h
146 20-05-2014 12:05:00 24 C 10.88 g/m*3 24 C 9.7 km/h
147 20-05-2014 12:10:00 24.1 C 10.94 g/m*3 24.1 C 12.9 km/h
148 20-05-2014 12:15:00 24.3 C 11.29 g/m*3 24.3 C 11.3 km/h
149 20-05-2014 12:20:00 24.3 C 10.84 g/m*3 24.3 C 8.1 km/h
150 20-05-2014 12:25:00 24.4 C 11.35 g/m*3 24.4 C 11.3 km/h
Sensor: Nr:Datum:Temp:Abs-Feuchte:Windchill:Wind:
Aussen-T/F 151 20-05-2014 12:30:00 24.4 C 10.9 g/m*3 24.4 C 12.9 km/h
152 20-05-2014 12:35:00 24.6 C 10.58 g/m*3 24.6 C 9.7 km/h
153 20-05-2014 12:40:00 24.8 C 10.47 g/m*3 24.8 C 9.7 km/h
154 20-05-2014 12:45:00 24.9 C 11.22 g/m*3 24.9 C 6.4 km/h
155 20-05-2014 12:50:00 25.1 C 10.42 g/m*3 25.1 C 9.7 km/h
156 20-05-2014 12:55:00 25.2 C 10.71 g/m*3 25.2 C 6.4 km/h
157 20-05-2014 13:00:00 25.3 C 10.07 g/m*3 25.3 C 9.7 km/h
158 20-05-2014 13:05:00 25.4 C 10.12 g/m*3 25.4 C 11.3 km/h
159 20-05-2014 13:10:00 25.3 C 10.07 g/m*3 25.3 C 9.7 km/h
160 20-05-2014 13:15:00 25.4 C 11.06 g/m*3 25.4 C 6.4 km/h
161 20-05-2014 13:20:00 25.8 C 11.07 g/m*3 25.8 C 8.1 km/h
162 20-05-2014 13:25:00 26.1 C 10.53 g/m*3 26.1 C 9.7 km/h
163 20-05-2014 13:30:00 26.2 C 10.59 g/m*3 26.2 C 14.5 km/h
164 20-05-2014 13:35:00 26.3 C 10.15 g/m*3 26.3 C 11.3 km/h
165 20-05-2014 13:40:00 26.3 C 10.4 g/m*3 26.3 C 8.1 km/h
166 20-05-2014 13:45:00 26.6 C 10.82 g/m*3 26.6 C 8.1 km/h
167 20-05-2014 13:50:00 26.6 C 10.57 g/m*3 26.6 C 8.1 km/h
168 20-05-2014 13:55:00 26.7 C 10.63 g/m*3 26.7 C 8.1 km/h
169 20-05-2014 14:00:00 26.8 C 10.69 g/m*3 26.8 C 8.1 km/h
170 20-05-2014 14:05:00 27.1 C 10.87 g/m*3 27.1 C 4.8 km/h
171 20-05-2014 14:10:00 27.4 C 10.52 g/m*3 27.4 C 6.4 km/h
172 20-05-2014 14:15:00 27.3 C 10.2 g/m*3 27.3 C 8.1 km/h
173 20-05-2014 14:20:00 27.4 C 10.79 g/m*3 27.4 C 8.1 km/h
174 20-05-2014 14:25:00 27.6 C 10.64 g/m*3 27.6 C 4.8 km/h
175 20-05-2014 14:30:00 27.8 C 11.03 g/m*3 27.8 C 8.1 km/h
Sensor: Nr:Datum:Temp:Abs-Feuchte:Windchill:Wind:
Aussen-T/F 176 20-05-2014 14:35:00 28 C 11.15 g/m*3 28 C 8.1 km/h
177 20-05-2014 14:40:00 28.3 C 11.06 g/m*3 28.3 C 8.1 km/h
178 20-05-2014 14:45:00 28.3 C 9.95 g/m*3 28.3 C 8.1 km/h
179 20-05-2014 14:50:00 28.4 C 10.28 g/m*3 28.4 C 6.4 km/h
180 20-05-2014 14:55:00 28.6 C 10.4 g/m*3 28.6 C 6.4 km/h
181 20-05-2014 15:00:00 28.6 C 10.4 g/m*3 28.6 C 8.1 km/h
182 20-05-2014 15:05:00 28.5 C 10.34 g/m*3 28.5 C 8.1 km/h
183 20-05-2014 15:10:00 28.8 C 9.66 g/m*3 28.8 C 6.4 km/h
184 20-05-2014 15:15:00 29.1 C 8.95 g/m*3 29.1 C 9.7 km/h
185 20-05-2014 15:20:00 29 C 8.9 g/m*3 29 C 9.7 km/h
186 20-05-2014 15:25:00 28.7 C 8.48 g/m*3 28.7 C 11.3 km/h
187 20-05-2014 15:30:00 28.6 C 8.43 g/m*3 28.6 C 8.1 km/h
188 20-05-2014 15:35:00 28.8 C 8.52 g/m*3 28.8 C 4.8 km/h
189 20-05-2014 15:40:00 29 C 8.62 g/m*3 29 C 6.4 km/h
190 20-05-2014 15:45:00 29.2 C 8.42 g/m*3 29.2 C 11.3 km/h
191 20-05-2014 15:50:00 29.2 C 9 g/m*3 29.2 C 4.8 km/h
192 20-05-2014 15:55:00 29.7 C 9.25 g/m*3 29.7 C 6.4 km/h
193 20-05-2014 16:00:00 30.1 C 8.84 g/m*3 30.1 C 6.4 km/h
194 20-05-2014 16:05:00 29.8 C 10.2 g/m*3 29.8 C 4.8 km/h
195 20-05-2014 16:10:00 29.3 C 9.34 g/m*3 29.3 C 8.1 km/h
196 20-05-2014 16:15:00 29.3 C 8.76 g/m*3 29.3 C 12.9 km/h
197 20-05-2014 16:20:00 29.1 C 9.82 g/m*3 29.1 C 6.4 km/h
198 20-05-2014 16:25:00 29.3 C 9.34 g/m*3 29.3 C 6.4 km/h
199 20-05-2014 16:30:00 29.2 C 10.16 g/m*3 29.2 C 6.4 km/h
200 20-05-2014 16:35:00 29.1 C 9.82 g/m*3 29.1 C 12.9 km/h
Sensor: Nr:Datum:Temp:Abs-Feuchte:Windchill:Wind:
Aussen-T/F 201 20-05-2014 16:40:00 29.1 C 9.53 g/m*3 29.1 C 4.8 km/h
202 20-05-2014 16:45:00 29.1 C 9.82 g/m*3 29.1 C 6.4 km/h
203 20-05-2014 16:50:00 28.9 C 9.71 g/m*3 28.9 C 9.7 km/h
204 20-05-2014 16:55:00 28.9 C 10 g/m*3 28.9 C 4.8 km/h
205 20-05-2014 17:00:00 28.7 C 9.61 g/m*3 28.7 C 8.1 km/h
206 20-05-2014 17:05:00 28.3 C 10.23 g/m*3 28.3 C 4.8 km/h
207 20-05-2014 17:10:00 27.9 C 10.28 g/m*3 27.9 C 4.8 km/h
208 20-05-2014 17:15:00 27.8 C 10.22 g/m*3 27.8 C 6.4 km/h
209 20-05-2014 17:20:00 27.7 C 10.43 g/m*3 27.7 C 8.1 km/h
210 20-05-2014 17:25:00 27.9 C 10.28 g/m*3 27.9 C 4.8 km/h
211 20-05-2014 17:30:00 28.3 C 10.51 g/m*3 28.3 C 6.4 km/h
212 20-05-2014 17:35:00 28.8 C 10.51 g/m*3 28.8 C 4.8 km/h
213 20-05-2014 17:40:00 29.1 C 10.11 g/m*3 29.1 C 6.4 km/h
214 20-05-2014 17:45:00 28.8 C 10.23 g/m*3 28.8 C 9.7 km/h
215 20-05-2014 17:50:00 29 C 10.34 g/m*3 29 C 4.8 km/h
216 20-05-2014 17:55:00 28.9 C 10.28 g/m*3 28.9 C 9.7 km/h
217 20-05-2014 18:00:00 28.7 C 10.74 g/m*3 28.7 C 4.8 km/h
218 20-05-2014 18:05:00 28.1 C 10.66 g/m*3 28.1 C 6.4 km/h
219 20-05-2014 18:10:00 27.7 C 10.97 g/m*3 27.7 C 1.6 km/h
220 20-05-2014 18:15:00 27.5 C 12.17 g/m*3 27.5 C 3.2 km/h
221 20-05-2014 18:20:00 27.3 C 10.99 g/m*3 27.3 C 3.2 km/h
222 20-05-2014 18:25:00 27.5 C 10.32 g/m*3 27.5 C 3.2 km/h
223 20-05-2014 18:30:00 27.6 C 10.64 g/m*3 27.6 C 3.2 km/h
224 20-05-2014 18:35:00 27.3 C 11.77 g/m*3 27.3 C 4.8 km/h
225 20-05-2014 18:40:00 26.8 C 11.96 g/m*3 26.8 C 1.6 km/h
Sensor: Nr:Datum:Temp:Abs-Feuchte:Windchill:Wind:
Aussen-T/F 226 20-05-2014 18:45:00 26.2 C 12.56 g/m*3 26.2 C 1.6 km/h
227 20-05-2014 18:50:00 25.7 C 12.69 g/m*3 25.7 C 1.6 km/h
228 20-05-2014 18:55:00 25.2 C 12.57 g/m*3 25.2 C 1.6 km/h
229 20-05-2014 19:00:00 24.7 C 12.9 g/m*3 24.7 C 0 km/h
230 20-05-2014 19:05:00 24.2 C 12.54 g/m*3 24.2 C 0 km/h
231 20-05-2014 19:10:00 23.7 C 12.83 g/m*3 23.7 C 1.6 km/h
232 20-05-2014 19:15:00 23.3 C 12.55 g/m*3 23.3 C 0 km/h
233 20-05-2014 19:20:00 23.1 C 12.61 g/m*3 23.1 C 0 km/h
234 20-05-2014 19:25:00 23.1 C 12.61 g/m*3 23.1 C 0 km/h
235 20-05-2014 19:30:00 23.1 C 12.61 g/m*3 23.1 C 0 km/h
236 20-05-2014 19:35:00 22.9 C 12.47 g/m*3 22.9 C 1.6 km/h
237 20-05-2014 19:40:00 22.8 C 12.4 g/m*3 22.8 C 0 km/h
238 20-05-2014 19:45:00 22.6 C 12.25 g/m*3 22.6 C 0 km/h
239 20-05-2014 19:50:00 22.4 C 12.11 g/m*3 22.4 C 0 km/h
240 20-05-2014 19:55:00 22.3 C 11.85 g/m*3 22.3 C 1.6 km/h
241 20-05-2014 20:00:00 22 C 11.84 g/m*3 22 C 1.6 km/h
242 20-05-2014 20:05:00 21.7 C 11.64 g/m*3 21.7 C 1.6 km/h
243 20-05-2014 20:10:00 21.3 C 11.56 g/m*3 21.3 C 1.6 km/h
244 20-05-2014 20:15:00 20.9 C 11.47 g/m*3 20.9 C 1.6 km/h
245 20-05-2014 20:20:00 20.7 C 11.16 g/m*3 20.7 C 1.6 km/h
246 20-05-2014 20:25:00 20.4 C 10.97 g/m*3 20.4 C 1.6 km/h
247 20-05-2014 20:30:00 20.3 C 10.73 g/m*3 20.3 C 1.6 km/h
248 20-05-2014 20:35:00 20.2 C 10.84 g/m*3 20.2 C 1.6 km/h
249 20-05-2014 20:40:00 20.1 C 10.95 g/m*3 20.1 C 1.6 km/h
250 20-05-2014 20:45:00 19.9 C 10.65 g/m*3 19.9 C 1.6 km/h
Sensor: Nr:Datum:Temp:Abs-Feuchte:Windchill:Wind:
Aussen-T/F 251 20-05-2014 20:50:00 19.8 C 10.93 g/m*3 19.8 C 1.6 km/h
252 20-05-2014 20:55:00 19.6 C 10.8 g/m*3 19.6 C 1.6 km/h
253 20-05-2014 21:00:00 19.5 C 10.74 g/m*3 19.5 C 1.6 km/h
254 20-05-2014 21:05:00 19.4 C 10.68 g/m*3 19.4 C 1.6 km/h
255 20-05-2014 21:10:00 19.3 C 10.78 g/m*3 19.3 C 1.6 km/h
256 20-05-2014 21:15:00 19.3 C 10.78 g/m*3 19.3 C 1.6 km/h
257 20-05-2014 21:20:00 19.2 C 10.72 g/m*3 19.2 C 1.6 km/h
258 20-05-2014 21:25:00 19.1 C 10.66 g/m*3 19.1 C 1.6 km/h
259 20-05-2014 21:30:00 18.9 C 10.53 g/m*3 18.9 C 1.6 km/h
260 20-05-2014 21:35:00 18.9 C 10.69 g/m*3 18.9 C 0 km/h
261 20-05-2014 21:40:00 18.8 C 10.63 g/m*3 18.8 C 1.6 km/h
262 20-05-2014 21:45:00 18.7 C 10.73 g/m*3 18.7 C 1.6 km/h
263 20-05-2014 21:50:00 18.7 C 10.57 g/m*3 18.7 C 1.6 km/h
264 20-05-2014 21:55:00 18.6 C 10.66 g/m*3 18.6 C 1.6 km/h
265 20-05-2014 22:00:00 18.5 C 10.6 g/m*3 18.5 C 1.6 km/h
266 20-05-2014 22:05:00 18.4 C 10.54 g/m*3 18.4 C 1.6 km/h
267 20-05-2014 22:10:00 18.4 C 10.7 g/m*3 18.4 C 1.6 km/h
268 20-05-2014 22:15:00 18.4 C 10.54 g/m*3 18.4 C 1.6 km/h
269 20-05-2014 22:20:00 18.4 C 10.54 g/m*3 18.4 C 1.6 km/h
270 20-05-2014 22:25:00 18.4 C 10.54 g/m*3 18.4 C 1.6 km/h
271 20-05-2014 22:30:00 18.4 C 10.54 g/m*3 18.4 C 1.6 km/h
272 20-05-2014 22:35:00 18.4 C 10.54 g/m*3 18.4 C 1.6 km/h
273 20-05-2014 22:40:00 18.4 C 10.7 g/m*3 18.4 C 1.6 km/h
274 20-05-2014 22:45:00 18.3 C 10.48 g/m*3 18.3 C 1.6 km/h
275 20-05-2014 22:50:00 18.3 C 10.48 g/m*3 18.3 C 1.6 km/h
Sensor: Nr:Datum:Temp:Abs-Feuchte:Windchill:Wind:
Aussen-T/F 276 20-05-2014 22:55:00 18.2 C 10.57 g/m*3 18.2 C 3.2 km/h
277 20-05-2014 23:00:00 18.2 C 10.57 g/m*3 18.2 C 3.2 km/h
278 20-05-2014 23:05:00 18.3 C 10.63 g/m*3 18.3 C 1.6 km/h
279 20-05-2014 23:10:00 18.3 C 10.63 g/m*3 18.3 C 1.6 km/h
280 20-05-2014 23:15:00 18.3 C 10.63 g/m*3 18.3 C 1.6 km/h
281 20-05-2014 23:20:00 18.2 C 10.57 g/m*3 18.2 C 1.6 km/h
282 20-05-2014 23:25:00 18.2 C 10.57 g/m*3 18.2 C 1.6 km/h
283 20-05-2014 23:30:00 18.2 C 10.72 g/m*3 18.2 C 1.6 km/h
284 20-05-2014 23:35:00 18.1 C 10.51 g/m*3 18.1 C 1.6 km/h
285 20-05-2014 23:40:00 18 C 10.6 g/m*3 18 C 0 km/h
286 20-05-2014 23:45:00 17.9 C 10.69 g/m*3 17.9 C 0 km/h
287 20-05-2014 23:50:00 17.8 C 10.78 g/m*3 17.8 C 0 km/h
288 20-05-2014 23:55:00 17.6 C 10.65 g/m*3 17.6 C 0 km/h
289 21-05-2014 00:00:00 17.4 C 10.67 g/m*3 17.4 C 0 km/h
290 21-05-2014 00:05:00 17.2 C 10.54 g/m*3 17.2 C 0 km/h
291 21-05-2014 00:10:00 16.9 C 10.36 g/m*3 16.9 C 0 km/h
292 21-05-2014 00:15:00 16.9 C 10.64 g/m*3 16.9 C 0 km/h
293 21-05-2014 00:20:00 16.8 C 10.58 g/m*3 16.8 C 1.6 km/h
294 21-05-2014 00:25:00 16.9 C 10.5 g/m*3 16.9 C 1.6 km/h
295 21-05-2014 00:30:00 17.1 C 10.48 g/m*3 17.1 C 0 km/h
296 21-05-2014 00:35:00 17.3 C 10.46 g/m*3 17.3 C 1.6 km/h
297 21-05-2014 00:40:00 17.4 C 10.52 g/m*3 17.4 C 0 km/h
298 21-05-2014 00:45:00 17.7 C 10.56 g/m*3 17.7 C 1.6 km/h
299 21-05-2014 00:50:00 17.8 C 10.62 g/m*3 17.8 C 0 km/h
300 21-05-2014 00:55:00 17.7 C 10.71 g/m*3 17.7 C 3.2 km/h
Sensor: Nr:Datum:Temp:Abs-Feuchte:Windchill:Wind:
Aussen-T/F 301 21-05-2014 01:00:00 17.5 C 10.73 g/m*3 17.5 C 3.2 km/h
302 21-05-2014 01:05:00 17.4 C 10.82 g/m*3 17.4 C 1.6 km/h
303 21-05-2014 01:10:00 17.3 C 10.75 g/m*3 17.3 C 0 km/h
304 21-05-2014 01:15:00 17.3 C 10.75 g/m*3 17.3 C 0 km/h
305 21-05-2014 01:20:00 17.2 C 10.69 g/m*3 17.2 C 0 km/h
306 21-05-2014 01:25:00 17.2 C 10.84 g/m*3 17.2 C 0 km/h
307 21-05-2014 01:30:00 17.1 C 10.77 g/m*3 17.1 C 0 km/h
308 21-05-2014 01:35:00 16.9 C 10.64 g/m*3 16.9 C 0 km/h
309 21-05-2014 01:40:00 16.6 C 10.74 g/m*3 16.6 C 0 km/h
310 21-05-2014 01:45:00 16.3 C 10.68 g/m*3 16.3 C 0 km/h
311 21-05-2014 01:50:00 16.1 C 10.55 g/m*3 16.1 C 0 km/h
312 21-05-2014 01:55:00 15.9 C 10.56 g/m*3 15.9 C 0 km/h
313 21-05-2014 02:00:00 15.8 C 10.5 g/m*3 15.8 C 0 km/h
314 21-05-2014 02:05:00 15.8 C 10.5 g/m*3 15.8 C 0 km/h
315 21-05-2014 02:10:00 15.6 C 10.37 g/m*3 15.6 C 0 km/h
316 21-05-2014 02:15:00 15.5 C 10.44 g/m*3 15.5 C 0 km/h
317 21-05-2014 02:20:00 15.4 C 10.51 g/m*3 15.4 C 0 km/h
318 21-05-2014 02:25:00 15.3 C 10.45 g/m*3 15.3 C 0 km/h
319 21-05-2014 02:30:00 15.2 C 10.51 g/m*3 15.2 C 0 km/h
320 21-05-2014 02:35:00 15.3 C 10.58 g/m*3 15.3 C 0 km/h
321 21-05-2014 02:40:00 15.2 C 10.51 g/m*3 15.2 C 0 km/h
322 21-05-2014 02:45:00 15.2 C 10.51 g/m*3 15.2 C 0 km/h
323 21-05-2014 02:50:00 15.1 C 10.58 g/m*3 15.1 C 0 km/h
324 21-05-2014 02:55:00 15.1 C 10.58 g/m*3 15.1 C 0 km/h
325 21-05-2014 03:00:00 15.1 C 10.58 g/m*3 15.1 C 0 km/h
Sensor: Nr:Datum:Temp:Abs-Feuchte:Windchill:Wind:
Aussen-T/F 326 21-05-2014 03:05:00 15.1 C 10.58 g/m*3 15.1 C 0 km/h
327 21-05-2014 03:10:00 14.9 C 10.58 g/m*3 14.9 C 0 km/h
328 21-05-2014 03:15:00 14.9 C 10.58 g/m*3 14.9 C 0 km/h
329 21-05-2014 03:20:00 14.8 C 10.64 g/m*3 14.8 C 0 km/h
330 21-05-2014 03:25:00 14.7 C 10.58 g/m*3 14.7 C 0 km/h
331 21-05-2014 03:30:00 14.7 C 10.7 g/m*3 14.7 C 0 km/h
332 21-05-2014 03:35:00 14.7 C 10.7 g/m*3 14.7 C 0 km/h
333 21-05-2014 03:40:00 14.7 C 10.7 g/m*3 14.7 C 0 km/h
334 21-05-2014 03:45:00 14.6 C 10.76 g/m*3 14.6 C 0 km/h
335 21-05-2014 03:50:00 14.6 C 10.76 g/m*3 14.6 C 0 km/h
336 21-05-2014 03:55:00 14.5 C 10.7 g/m*3 14.5 C 0 km/h
337 21-05-2014 04:00:00 14.4 C 10.51 g/m*3 14.4 C 0 km/h
338 21-05-2014 04:05:00 14.3 C 10.44 g/m*3 14.3 C 0 km/h
339 21-05-2014 04:10:00 14.2 C 10.5 g/m*3 14.2 C 0 km/h
340 21-05-2014 04:15:00 14.1 C 10.56 g/m*3 14.1 C 0 km/h
341 21-05-2014 04:20:00 14.1 C 10.56 g/m*3 14.1 C 0 km/h
342 21-05-2014 04:25:00 13.9 C 10.55 g/m*3 13.9 C 0 km/h
343 21-05-2014 04:30:00 13.9 C 10.55 g/m*3 13.9 C 0 km/h
344 21-05-2014 04:35:00 13.9 C 10.55 g/m*3 13.9 C 0 km/h
345 21-05-2014 04:40:00 13.9 C 10.55 g/m*3 13.9 C 0 km/h
346 21-05-2014 04:45:00 13.8 C 10.48 g/m*3 13.8 C 0 km/h
347 21-05-2014 04:50:00 13.8 C 10.37 g/m*3 13.8 C 0 km/h
348 21-05-2014 04:55:00 13.7 C 10.3 g/m*3 13.7 C 0 km/h
349 21-05-2014 05:00:00 13.7 C 10.3 g/m*3 13.7 C 0 km/h
350 21-05-2014 05:05:00 13.7 C 10.3 g/m*3 13.7 C 0 km/h
Sensor: Nr:Datum:Temp:Abs-Feuchte:Windchill:Wind:
Aussen-T/F 351 21-05-2014 05:10:00 13.7 C 10.42 g/m*3 13.7 C 0 km/h
352 21-05-2014 05:15:00 13.6 C 10.36 g/m*3 13.6 C 0 km/h
353 21-05-2014 05:20:00 13.6 C 10.36 g/m*3 13.6 C 0 km/h
354 21-05-2014 05:25:00 13.7 C 10.42 g/m*3 13.7 C 0 km/h
355 21-05-2014 05:30:00 13.7 C 10.42 g/m*3 13.7 C 0 km/h
356 21-05-2014 05:35:00 13.7 C 10.42 g/m*3 13.7 C 0 km/h
357 21-05-2014 05:40:00 13.8 C 10.48 g/m*3 13.8 C 0 km/h
358 21-05-2014 05:45:00 13.8 C 10.48 g/m*3 13.8 C 0 km/h
359 21-05-2014 05:50:00 13.8 C 10.48 g/m*3 13.8 C 0 km/h
360 21-05-2014 05:55:00 13.8 C 10.48 g/m*3 13.8 C 0 km/h
361 21-05-2014 06:00:00 13.9 C 10.55 g/m*3 13.9 C 0 km/h
362 21-05-2014 06:05:00 14 C 10.61 g/m*3 14 C 0 km/h
363 21-05-2014 06:10:00 14.1 C 10.68 g/m*3 14.1 C 0 km/h
364 21-05-2014 06:15:00 14.2 C 10.75 g/m*3 14.2 C 0 km/h
365 21-05-2014 06:20:00 14.2 C 10.75 g/m*3 14.2 C 0 km/h
366 21-05-2014 06:25:00 14.3 C 10.81 g/m*3 14.3 C 3.2 km/h
367 21-05-2014 06:30:00 14.3 C 10.81 g/m*3 14.3 C 1.6 km/h
368 21-05-2014 06:35:00 14.4 C 10.75 g/m*3 14.4 C 0 km/h
369 21-05-2014 06:40:00 14.5 C 10.82 g/m*3 14.5 C 0 km/h
370 21-05-2014 06:45:00 14.6 C 10.89 g/m*3 14.6 C 0 km/h
371 21-05-2014 06:50:00 14.6 C 10.89 g/m*3 14.6 C 0 km/h
372 21-05-2014 06:55:00 14.7 C 10.95 g/m*3 14.7 C 0 km/h
373 21-05-2014 07:00:00 14.7 C 11.08 g/m*3 14.7 C 0 km/h
374 21-05-2014 07:05:00 14.7 C 11.08 g/m*3 14.7 C 0 km/h
375 21-05-2014 07:10:00 14.8 C 11.02 g/m*3 14.8 C 1.6 km/h
Sensor: Nr:Datum:Temp:Abs-Feuchte:Windchill:Wind:
Aussen-T/F 376 21-05-2014 07:15:00 14.9 C 11.22 g/m*3 14.9 C 1.6 km/h
377 21-05-2014 07:20:00 15.1 C 11.22 g/m*3 15.1 C 3.2 km/h
378 21-05-2014 07:25:00 15.2 C 11.29 g/m*3 15.2 C 1.6 km/h
379 21-05-2014 07:30:00 15.3 C 11.23 g/m*3 15.3 C 0 km/h
380 21-05-2014 07:35:00 15.4 C 11.3 g/m*3 15.4 C 0 km/h
381 21-05-2014 07:40:00 15.6 C 11.44 g/m*3 15.6 C 0 km/h
382 21-05-2014 07:45:00 15.7 C 11.51 g/m*3 15.7 C 0 km/h
383 21-05-2014 07:50:00 15.8 C 11.31 g/m*3 15.8 C 0 km/h
384 21-05-2014 07:55:00 15.9 C 11.24 g/m*3 15.9 C 1.6 km/h
385 21-05-2014 08:00:00 16.1 C 11.38 g/m*3 16.1 C 1.6 km/h
386 21-05-2014 08:05:00 16.2 C 11.45 g/m*3 16.2 C 1.6 km/h
387 21-05-2014 08:10:00 16.3 C 11.38 g/m*3 16.3 C 0 km/h
388 21-05-2014 08:15:00 16.4 C 11.45 g/m*3 16.4 C 0 km/h
389 21-05-2014 08:20:00 16.6 C 11.58 g/m*3 16.6 C 0 km/h
390 21-05-2014 08:25:00 16.7 C 11.51 g/m*3 16.7 C 0 km/h
391 21-05-2014 08:30:00 16.9 C 11.65 g/m*3 16.9 C 3.2 km/h
392 21-05-2014 08:35:00 17 C 11.72 g/m*3 17 C 0 km/h
393 21-05-2014 08:40:00 17.1 C 11.65 g/m*3 17.1 C 0 km/h
394 21-05-2014 08:45:00 17.3 C 11.93 g/m*3 17.3 C 0 km/h
395 21-05-2014 08:50:00 17.4 C 11.86 g/m*3 17.4 C 0 km/h
396 21-05-2014 08:55:00 17.6 C 12 g/m*3 17.6 C 0 km/h
397 21-05-2014 09:00:00 17.7 C 11.62 g/m*3 17.7 C 0 km/h
398 21-05-2014 09:05:00 17.8 C 11.84 g/m*3 17.8 C 0 km/h
399 21-05-2014 09:10:00 17.9 C 12.06 g/m*3 17.9 C 0 km/h
400 21-05-2014 09:15:00 18.1 C 12.21 g/m*3 18.1 C 0 km/h
Sensor: Nr:Datum:Temp:Abs-Feuchte:Windchill:Wind:
Aussen-T/F 401 21-05-2014 09:20:00 18 C 12.29 g/m*3 18 C 0 km/h
402 21-05-2014 09:25:00 18 C 12.29 g/m*3 18 C 0 km/h
403 21-05-2014 09:30:00 18.1 C 12.36 g/m*3 18.1 C 0 km/h
404 21-05-2014 09:35:00 18.2 C 12.59 g/m*3 18.2 C 0 km/h
405 21-05-2014 09:40:00 18.2 C 12.43 g/m*3 18.2 C 0 km/h
406 21-05-2014 09:45:00 18.3 C 12.51 g/m*3 18.3 C 0 km/h
407 21-05-2014 09:50:00 18.4 C 12.58 g/m*3 18.4 C 0 km/h
408 21-05-2014 09:55:00 18.6 C 13.05 g/m*3 18.6 C 0 km/h
409 21-05-2014 10:00:00 18.8 C 12.88 g/m*3 18.8 C 0 km/h
410 21-05-2014 10:05:00 19.3 C 13.27 g/m*3 19.3 C 0 km/h
411 21-05-2014 10:10:00 19.7 C 13.25 g/m*3 19.7 C 0 km/h
412 21-05-2014 10:15:00 20.1 C 13.39 g/m*3 20.1 C 1.6 km/h
413 21-05-2014 10:20:00 20.4 C 13.44 g/m*3 20.4 C 3.2 km/h
414 21-05-2014 10:25:00 20.7 C 13.5 g/m*3 20.7 C 1.6 km/h
415 21-05-2014 10:30:00 21.3 C 11.56 g/m*3 21.3 C 6.4 km/h
416 21-05-2014 10:35:00 22 C 11.45 g/m*3 22 C 6.4 km/h
417 21-05-2014 10:40:00 21.9 C 13.31 g/m*3 21.9 C 0 km/h
418 21-05-2014 10:45:00 21.7 C 13.54 g/m*3 21.7 C 1.6 km/h
419 21-05-2014 10:50:00 21.6 C 12.9 g/m*3 21.6 C 1.6 km/h
420 21-05-2014 10:55:00 21.4 C 13.31 g/m*3 21.4 C 0 km/h
421 21-05-2014 11:00:00 21.2 C 13.16 g/m*3 21.2 C 1.6 km/h
422 21-05-2014 11:05:00 21.3 C 13.05 g/m*3 21.3 C 1.6 km/h
423 21-05-2014 11:10:00 21.4 C 12.19 g/m*3 21.4 C 4.8 km/h
424 21-05-2014 11:15:00 21.8 C 12.09 g/m*3 21.8 C 1.6 km/h
425 21-05-2014 11:20:00 21.7 C 12.97 g/m*3 21.7 C 0 km/h
Sensor: Nr:Datum:Temp:Abs-Feuchte:Windchill:Wind:
Aussen-T/F 426 21-05-2014 11:25:00 21.4 C 13.12 g/m*3 21.4 C 0 km/h
427 21-05-2014 11:30:00 21.3 C 13.05 g/m*3 21.3 C 0 km/h
428 21-05-2014 11:35:00 21.7 C 13.16 g/m*3 21.7 C 0 km/h
429 21-05-2014 11:40:00 22 C 11.65 g/m*3 22 C 4.8 km/h
430 21-05-2014 11:45:00 22.6 C 11.05 g/m*3 22.6 C 4.8 km/h
431 21-05-2014 11:50:00 23.3 C 11.29 g/m*3 23.3 C 6.4 km/h
432 21-05-2014 11:55:00 23.7 C 10.69 g/m*3 23.7 C 4.8 km/h
433 21-05-2014 12:00:00 23.9 C 11.03 g/m*3 23.9 C 3.2 km/h
434 21-05-2014 12:05:00 24.1 C 11.6 g/m*3 24.1 C 11.3 km/h
435 21-05-2014 12:10:00 24.2 C 10.78 g/m*3 24.2 C 6.4 km/h
436 21-05-2014 12:15:00 24.3 C 12.61 g/m*3 24.3 C 4.8 km/h
437 21-05-2014 12:20:00 24.2 C 12.1 g/m*3 24.2 C 3.2 km/h
438 21-05-2014 12:25:00 24 C 12.4 g/m*3 24 C 3.2 km/h
439 21-05-2014 12:30:00 24.1 C 11.6 g/m*3 24.1 C 4.8 km/h
440 21-05-2014 12:35:00 24.2 C 11.44 g/m*3 24.2 C 4.8 km/h
441 21-05-2014 12:40:00 24.4 C 10.9 g/m*3 24.4 C 3.2 km/h
442 21-05-2014 12:45:00 24.4 C 10.9 g/m*3 24.4 C 4.8 km/h
443 21-05-2014 12:50:00 24.6 C 11.93 g/m*3 24.6 C 3.2 km/h
444 21-05-2014 12:55:00 24.4 C 11.35 g/m*3 24.4 C 8.1 km/h
445 21-05-2014 13:00:00 24.6 C 11.03 g/m*3 24.6 C 4.8 km/h
446 21-05-2014 13:05:00 24.8 C 11.38 g/m*3 24.8 C 8.1 km/h
447 21-05-2014 13:10:00 25.1 C 11.11 g/m*3 25.1 C 11.3 km/h
448 21-05-2014 13:15:00 25.2 C 10.94 g/m*3 25.2 C 8.1 km/h
449 21-05-2014 13:20:00 25.4 C 10.83 g/m*3 25.4 C 8.1 km/h
450 21-05-2014 13:25:00 25.4 C 11.06 g/m*3 25.4 C 6.4 km/h
Sensor: Nr:Datum:Temp:Abs-Feuchte:Windchill:Wind:
Aussen-T/F 451 21-05-2014 13:30:00 25.5 C 11.36 g/m*3 25.5 C 8.1 km/h
452 21-05-2014 13:35:00 25.6 C 11.43 g/m*3 25.6 C 4.8 km/h
453 21-05-2014 13:40:00 25.7 C 11.49 g/m*3 25.7 C 8.1 km/h
454 21-05-2014 13:45:00 25.8 C 10.83 g/m*3 25.8 C 11.3 km/h
455 21-05-2014 13:50:00 26.2 C 11.08 g/m*3 26.2 C 8.1 km/h
456 21-05-2014 13:55:00 26.3 C 11.14 g/m*3 26.3 C 9.7 km/h
457 21-05-2014 14:00:00 26.3 C 10.89 g/m*3 26.3 C 6.4 km/h
458 21-05-2014 14:05:00 26.4 C 10.21 g/m*3 26.4 C 6.4 km/h
459 21-05-2014 14:10:00 26.3 C 10.64 g/m*3 26.3 C 11.3 km/h
460 21-05-2014 14:15:00 26.1 C 10.28 g/m*3 26.1 C 4.8 km/h
461 21-05-2014 14:20:00 26 C 11.2 g/m*3 26 C 4.8 km/h
462 21-05-2014 14:25:00 26.1 C 11.02 g/m*3 26.1 C 8.1 km/h
463 21-05-2014 14:30:00 26.4 C 11.2 g/m*3 26.4 C 9.7 km/h
464 21-05-2014 14:35:00 26.8 C 11.96 g/m*3 26.8 C 8.1 km/h
465 21-05-2014 14:40:00 26.8 C 11.45 g/m*3 26.8 C 9.7 km/h
466 21-05-2014 14:45:00 26.9 C 11.26 g/m*3 26.9 C 9.7 km/h
467 21-05-2014 14:50:00 27.1 C 11.65 g/m*3 27.1 C 6.4 km/h
468 21-05-2014 14:55:00 27.2 C 11.97 g/m*3 27.2 C 9.7 km/h
469 21-05-2014 15:00:00 27 C 11.84 g/m*3 27 C 8.1 km/h
470 21-05-2014 15:05:00 27 C 11.58 g/m*3 27 C 9.7 km/h
471 21-05-2014 15:10:00 27.3 C 12.04 g/m*3 27.3 C 11.3 km/h
472 21-05-2014 15:15:00 27.6 C 11.44 g/m*3 27.6 C 9.7 km/h
473 21-05-2014 15:20:00 27.6 C 11.17 g/m*3 27.6 C 9.7 km/h
474 21-05-2014 15:25:00 27.7 C 12.57 g/m*3 27.7 C 6.4 km/h
475 21-05-2014 15:30:00 28 C 11.69 g/m*3 28 C 6.4 km/h
Sensor: Nr:Datum:Temp:Abs-Feuchte:Windchill:Wind:
Aussen-T/F 476 21-05-2014 15:35:00 28.2 C 11.55 g/m*3 28.2 C 9.7 km/h
477 21-05-2014 15:40:00 28.2 C 11.82 g/m*3 28.2 C 9.7 km/h
478 21-05-2014 15:45:00 28.3 C 11.89 g/m*3 28.3 C 9.7 km/h
479 21-05-2014 15:50:00 28 C 12.24 g/m*3 28 C 6.4 km/h
480 21-05-2014 15:55:00 28 C 12.78 g/m*3 28 C 3.2 km/h
481 21-05-2014 16:00:00 28 C 10.61 g/m*3 28 C 6.4 km/h
482 21-05-2014 16:05:00 28.2 C 10.45 g/m*3 28.2 C 6.4 km/h
483 21-05-2014 16:10:00 28.3 C 10.51 g/m*3 28.3 C 6.4 km/h
484 21-05-2014 16:15:00 28.4 C 11.12 g/m*3 28.4 C 6.4 km/h
485 21-05-2014 16:20:00 28.3 C 12.16 g/m*3 28.3 C 6.4 km/h
486 21-05-2014 16:25:00 28.2 C 10.72 g/m*3 28.2 C 1.6 km/h
487 21-05-2014 16:30:00 27.7 C 11.5 g/m*3 27.7 C 4.8 km/h
488 21-05-2014 16:35:00 26.9 C 13.31 g/m*3 26.9 C 1.6 km/h
489 21-05-2014 16:40:00 26.3 C 12.87 g/m*3 26.3 C 1.6 km/h
490 21-05-2014 16:45:00 26.1 C 13.46 g/m*3 26.1 C 1.6 km/h
491 21-05-2014 16:50:00 25.7 C 12.93 g/m*3 25.7 C 1.6 km/h
492 21-05-2014 16:55:00 25.7 C 11.01 g/m*3 25.7 C 3.2 km/h
493 21-05-2014 17:00:00 25.4 C 13.89 g/m*3 25.4 C 1.6 km/h
494 21-05-2014 17:05:00 25.1 C 13.66 g/m*3 25.1 C 1.6 km/h
495 21-05-2014 17:10:00 24.7 C 14.26 g/m*3 24.7 C 0 km/h
496 21-05-2014 17:15:00 24.4 C 14.24 g/m*3 24.4 C 0 km/h
497 21-05-2014 17:20:00 24.3 C 14.16 g/m*3 24.3 C 0 km/h
498 21-05-2014 17:25:00 24.3 C 14.61 g/m*3 24.3 C 0 km/h
499 21-05-2014 17:30:00 24.2 C 13.64 g/m*3 24.2 C 0 km/h
500 21-05-2014 17:35:00 24.1 C 14 g/m*3 24.1 C 0 km/h
Sensor: Nr:Datum:Temp:Abs-Feuchte:Windchill:Wind:
Aussen-T/F 501 21-05-2014 17:40:00 23.8 C 13.98 g/m*3 23.8 C 0 km/h
502 21-05-2014 17:45:00 23.8 C 14.2 g/m*3 23.8 C 0 km/h
503 21-05-2014 17:50:00 23.7 C 13.9 g/m*3 23.7 C 0 km/h
504 21-05-2014 17:55:00 23.7 C 13.9 g/m*3 23.7 C 1.6 km/h
505 21-05-2014 18:00:00 23.6 C 14.25 g/m*3 23.6 C 0 km/h
506 21-05-2014 18:05:00 23.5 C 13.96 g/m*3 23.5 C 0 km/h
507 21-05-2014 18:10:00 23.4 C 13.88 g/m*3 23.4 C 0 km/h
508 21-05-2014 18:15:00 23.4 C 14.09 g/m*3 23.4 C 1.6 km/h
509 21-05-2014 18:20:00 23.4 C 14.72 g/m*3 23.4 C 1.6 km/h
510 21-05-2014 18:25:00 23.3 C 14.43 g/m*3 23.3 C 0 km/h
511 21-05-2014 18:30:00 23.2 C 14.34 g/m*3 23.2 C 1.6 km/h
512 21-05-2014 18:35:00 23.1 C 14.47 g/m*3 23.1 C 1.6 km/h
513 21-05-2014 18:40:00 22.9 C 14.31 g/m*3 22.9 C 0 km/h
514 21-05-2014 18:45:00 23.1 C 14.26 g/m*3 23.1 C 1.6 km/h
515 21-05-2014 18:50:00 23.3 C 14.43 g/m*3 23.3 C 1.6 km/h
516 21-05-2014 18:55:00 23.5 C 14.17 g/m*3 23.5 C 0 km/h
517 21-05-2014 19:00:00 23.7 C 14.33 g/m*3 23.7 C 0 km/h
518 21-05-2014 19:05:00 24 C 12.62 g/m*3 24 C 3.2 km/h
519 21-05-2014 19:10:00 24.6 C 13.73 g/m*3 24.6 C 1.6 km/h
520 21-05-2014 19:15:00 24.9 C 12.82 g/m*3 24.9 C 3.2 km/h
521 21-05-2014 19:20:00 25.4 C 12.71 g/m*3 25.4 C 4.8 km/h
522 21-05-2014 19:25:00 25.6 C 13.33 g/m*3 25.6 C 3.2 km/h
523 21-05-2014 19:30:00 25.8 C 11.8 g/m*3 25.8 C 8.1 km/h
524 21-05-2014 19:35:00 26 C 12.42 g/m*3 26 C 6.4 km/h
525 21-05-2014 19:40:00 26.1 C 12.24 g/m*3 26.1 C 4.8 km/h
Sensor: Nr:Datum:Temp:Abs-Feuchte:Windchill:Wind:
Aussen-T/F 526 21-05-2014 19:45:00 26.3 C 11.14 g/m*3 26.3 C 4.8 km/h
527 21-05-2014 19:50:00 26.4 C 11.7 g/m*3 26.4 C 3.2 km/h
528 21-05-2014 19:55:00 26.3 C 11.39 g/m*3 26.3 C 4.8 km/h
529 21-05-2014 20:00:00 26.1 C 12 g/m*3 26.1 C 3.2 km/h
530 21-05-2014 20:05:00 25.8 C 13 g/m*3 25.8 C 4.8 km/h
531 21-05-2014 20:10:00 25.4 C 12.71 g/m*3 25.4 C 0 km/h
532 21-05-2014 20:15:00 24.9 C 12.82 g/m*3 24.9 C 1.6 km/h
533 21-05-2014 20:20:00 24.4 C 12.91 g/m*3 24.4 C 0 km/h
534 21-05-2014 20:25:00 23.9 C 12.98 g/m*3 23.9 C 1.6 km/h
535 21-05-2014 20:30:00 23.4 C 12.62 g/m*3 23.4 C 1.6 km/h
536 21-05-2014 20:35:00 23.1 C 12.61 g/m*3 23.1 C 1.6 km/h
537 21-05-2014 20:40:00 22.7 C 12.53 g/m*3 22.7 C 0 km/h
538 21-05-2014 20:45:00 22.3 C 12.44 g/m*3 22.3 C 0 km/h
539 21-05-2014 20:50:00 21.9 C 12.35 g/m*3 21.9 C 1.6 km/h
540 21-05-2014 20:55:00 21.6 C 12.14 g/m*3 21.6 C 0 km/h
541 21-05-2014 21:00:00 21.3 C 11.93 g/m*3 21.3 C 1.6 km/h
542 21-05-2014 21:05:00 21.2 C 11.86 g/m*3 21.2 C 0 km/h
543 21-05-2014 21:10:00 21 C 11.91 g/m*3 21 C 1.6 km/h
544 21-05-2014 21:15:00 20.8 C 11.77 g/m*3 20.8 C 1.6 km/h
545 21-05-2014 21:20:00 20.6 C 11.63 g/m*3 20.6 C 1.6 km/h
546 21-05-2014 21:25:00 20.4 C 11.5 g/m*3 20.4 C 1.6 km/h
547 21-05-2014 21:30:00 20.2 C 11.54 g/m*3 20.2 C 1.6 km/h
548 21-05-2014 21:35:00 20.1 C 11.65 g/m*3 20.1 C 1.6 km/h
549 21-05-2014 21:40:00 20 C 11.58 g/m*3 20 C 0 km/h
550 21-05-2014 21:45:00 19.9 C 11.51 g/m*3 19.9 C 1.6 km/h
Sensor: Nr:Datum:Temp:Abs-Feuchte:Windchill:Wind:
Aussen-T/F 551 21-05-2014 21:50:00 19.9 C 11.68 g/m*3 19.9 C 1.6 km/h
552 21-05-2014 21:55:00 20 C 11.75 g/m*3 20 C 1.6 km/h
553 21-05-2014 22:00:00 20 C 11.75 g/m*3 20 C 3.2 km/h
554 21-05-2014 22:05:00 20.1 C 11.82 g/m*3 20.1 C 1.6 km/h
555 21-05-2014 22:10:00 20 C 11.92 g/m*3 20 C 1.6 km/h
556 21-05-2014 22:15:00 19.9 C 11.85 g/m*3 19.9 C 3.2 km/h
557 21-05-2014 22:20:00 19.8 C 11.79 g/m*3 19.8 C 0 km/h
558 21-05-2014 22:25:00 19.8 C 11.79 g/m*3 19.8 C 1.6 km/h
559 21-05-2014 22:30:00 19.8 C 11.79 g/m*3 19.8 C 1.6 km/h
560 21-05-2014 22:35:00 19.7 C 11.72 g/m*3 19.7 C 1.6 km/h
561 21-05-2014 22:40:00 19.7 C 11.72 g/m*3 19.7 C 3.2 km/h
562 21-05-2014 22:45:00 19.6 C 11.48 g/m*3 19.6 C 1.6 km/h
563 21-05-2014 22:50:00 19.6 C 11.65 g/m*3 19.6 C 1.6 km/h
564 21-05-2014 22:55:00 19.6 C 11.31 g/m*3 19.6 C 1.6 km/h
565 21-05-2014 23:00:00 19.7 C 11.38 g/m*3 19.7 C 1.6 km/h
566 21-05-2014 23:05:00 19.7 C 11.55 g/m*3 19.7 C 1.6 km/h
567 21-05-2014 23:10:00 19.7 C 11.38 g/m*3 19.7 C 1.6 km/h
568 21-05-2014 23:15:00 19.7 C 11.21 g/m*3 19.7 C 3.2 km/h
569 21-05-2014 23:20:00 19.7 C 11.21 g/m*3 19.7 C 1.6 km/h
570 21-05-2014 23:25:00 19.7 C 11.21 g/m*3 19.7 C 1.6 km/h
571 21-05-2014 23:30:00 19.7 C 11.21 g/m*3 19.7 C 1.6 km/h
572 21-05-2014 23:35:00 19.5 C 11.24 g/m*3 19.5 C 3.2 km/h
573 21-05-2014 23:40:00 19.4 C 11.01 g/m*3 19.4 C 3.2 km/h
574 21-05-2014 23:45:00 19.5 C 11.41 g/m*3 19.5 C 3.2 km/h
575 21-05-2014 23:50:00 19.4 C 11.35 g/m*3 19.4 C 1.6 km/h
Sensor: Nr:Datum:Temp:Abs-Feuchte:Windchill:Wind:
Aussen-T/F 576 21-05-2014 23:55:00 19.4 C 11.18 g/m*3 19.4 C 0 km/h
577 22-05-2014 00:00:00 19.4 C 11.35 g/m*3 19.4 C 1.6 km/h
578 22-05-2014 00:05:00 19.4 C 11.35 g/m*3 19.4 C 1.6 km/h
579 22-05-2014 00:10:00 19.4 C 11.18 g/m*3 19.4 C 1.6 km/h
580 22-05-2014 00:15:00 19.6 C 11.31 g/m*3 19.6 C 1.6 km/h
581 22-05-2014 00:20:00 19.5 C 11.24 g/m*3 19.5 C 3.2 km/h
582 22-05-2014 00:25:00 19.4 C 10.68 g/m*3 19.4 C 1.6 km/h
583 22-05-2014 00:30:00 19.4 C 11.18 g/m*3 19.4 C 0 km/h
584 22-05-2014 00:35:00 19.4 C 11.18 g/m*3 19.4 C 1.6 km/h
585 22-05-2014 00:40:00 19.3 C 10.95 g/m*3 19.3 C 1.6 km/h
586 22-05-2014 00:45:00 19.3 C 11.11 g/m*3 19.3 C 1.6 km/h
587 22-05-2014 00:50:00 19.3 C 10.95 g/m*3 19.3 C 1.6 km/h
588 22-05-2014 00:55:00 19.3 C 11.11 g/m*3 19.3 C 0 km/h
589 22-05-2014 01:00:00 19.3 C 10.95 g/m*3 19.3 C 0 km/h
590 22-05-2014 01:05:00 19.2 C 10.88 g/m*3 19.2 C 0 km/h
591 22-05-2014 01:10:00 19.1 C 10.82 g/m*3 19.1 C 4.8 km/h
592 22-05-2014 01:15:00 19.1 C 10.98 g/m*3 19.1 C 4.8 km/h
593 22-05-2014 01:20:00 19 C 10.92 g/m*3 19 C 1.6 km/h
594 22-05-2014 01:25:00 19.1 C 11.15 g/m*3 19.1 C 3.2 km/h
595 22-05-2014 01:30:00 19 C 10.92 g/m*3 19 C 1.6 km/h
596 22-05-2014 01:35:00 18.8 C 10.79 g/m*3 18.8 C 1.6 km/h
597 22-05-2014 01:40:00 18.8 C 10.79 g/m*3 18.8 C 0 km/h
598 22-05-2014 01:45:00 18.8 C 10.79 g/m*3 18.8 C 8.1 km/h
599 22-05-2014 01:50:00 18.9 C 10.69 g/m*3 18.9 C 4.8 km/h
600 22-05-2014 01:55:00 19.1 C 10.66 g/m*3 19.1 C 4.8 km/h
Sensor: Nr:Datum:Temp:Abs-Feuchte:Windchill:Wind:
Aussen-T/F 601 22-05-2014 02:00:00 20.3 C 10.55 g/m*3 20.3 C 17.7 km/h
602 22-05-2014 02:05:00 21.5 C 10.56 g/m*3 21.5 C 8.1 km/h
603 22-05-2014 02:10:00 21.7 C 10.68 g/m*3 21.7 C 4.8 km/h
604 22-05-2014 02:15:00 22.1 C 10.74 g/m*3 22.1 C 9.7 km/h
605 22-05-2014 02:20:00 22.3 C 11.06 g/m*3 22.3 C 1.6 km/h
606 22-05-2014 02:25:00 22.1 C 11.32 g/m*3 22.1 C 1.6 km/h
607 22-05-2014 02:30:00 21.5 C 11.31 g/m*3 21.5 C 0 km/h
608 22-05-2014 02:35:00 20.9 C 11.29 g/m*3 20.9 C 0 km/h
609 22-05-2014 02:40:00 20.6 C 11.28 g/m*3 20.6 C 1.6 km/h
610 22-05-2014 02:45:00 20.3 C 11.43 g/m*3 20.3 C 0 km/h
611 22-05-2014 02:50:00 20.2 C 11.19 g/m*3 20.2 C 0 km/h
612 22-05-2014 02:55:00 20.1 C 11.3 g/m*3 20.1 C 1.6 km/h
613 22-05-2014 03:00:00 20.1 C 11.3 g/m*3 20.1 C 1.6 km/h
614 22-05-2014 03:05:00 20 C 11.06 g/m*3 20 C 3.2 km/h
615 22-05-2014 03:10:00 20.2 C 11.54 g/m*3 20.2 C 1.6 km/h
616 22-05-2014 03:15:00 20.2 C 11.37 g/m*3 20.2 C 3.2 km/h
617 22-05-2014 03:20:00 20.4 C 11.5 g/m*3 20.4 C 3.2 km/h
618 22-05-2014 03:25:00 20.4 C 11.5 g/m*3 20.4 C 1.6 km/h
619 22-05-2014 03:30:00 20.6 C 11.63 g/m*3 20.6 C 4.8 km/h
620 22-05-2014 03:35:00 20.8 C 11.77 g/m*3 20.8 C 9.7 km/h
621 22-05-2014 03:40:00 20.8 C 11.77 g/m*3 20.8 C 8.1 km/h
622 22-05-2014 03:45:00 20.7 C 11.88 g/m*3 20.7 C 12.9 km/h
623 22-05-2014 03:50:00 20.6 C 11.99 g/m*3 20.6 C 16.1 km/h
624 22-05-2014 03:55:00 20.4 C 12.03 g/m*3 20.4 C 9.7 km/h
625 22-05-2014 04:00:00 20.2 C 12.06 g/m*3 20.2 C 4.8 km/h
Sensor: Nr:Datum:Temp:Abs-Feuchte:Windchill:Wind:
Aussen-T/F 626 22-05-2014 04:05:00 20.1 C 12.17 g/m*3 20.1 C 6.4 km/h
627 22-05-2014 04:10:00 19.9 C 12.03 g/m*3 19.9 C 4.8 km/h
628 22-05-2014 04:15:00 19.7 C 12.23 g/m*3 19.7 C 0 km/h
629 22-05-2014 04:20:00 19.5 C 12.08 g/m*3 19.5 C 1.6 km/h
630 22-05-2014 04:25:00 19.3 C 12.27 g/m*3 19.3 C 1.6 km/h
631 22-05-2014 04:30:00 19.1 C 12.13 g/m*3 19.1 C 3.2 km/h
632 22-05-2014 04:35:00 18.9 C 12.15 g/m*3 18.9 C 0 km/h
633 22-05-2014 04:40:00 18.7 C 12.17 g/m*3 18.7 C 1.6 km/h
634 22-05-2014 04:45:00 18.6 C 12.26 g/m*3 18.6 C 4.8 km/h
635 22-05-2014 04:50:00 18.4 C 12.27 g/m*3 18.4 C 1.6 km/h
636 22-05-2014 04:55:00 18.2 C 12.12 g/m*3 18.2 C 1.6 km/h
637 22-05-2014 05:00:00 18.1 C 12.05 g/m*3 18.1 C 1.6 km/h
638 22-05-2014 05:05:00 18 C 12.13 g/m*3 18 C 1.6 km/h
639 22-05-2014 05:10:00 17.9 C 12.06 g/m*3 17.9 C 0 km/h
640 22-05-2014 05:15:00 17.8 C 11.84 g/m*3 17.8 C 0 km/h
641 22-05-2014 05:20:00 17.7 C 11.77 g/m*3 17.7 C 1.6 km/h
642 22-05-2014 05:25:00 17.6 C 11.85 g/m*3 17.6 C 0 km/h
643 22-05-2014 05:30:00 17.4 C 11.86 g/m*3 17.4 C 0 km/h
644 22-05-2014 05:35:00 17.3 C 11.79 g/m*3 17.3 C 1.6 km/h
645 22-05-2014 05:40:00 17.1 C 11.79 g/m*3 17.1 C 0 km/h
646 22-05-2014 05:45:00 16.9 C 11.65 g/m*3 16.9 C 0 km/h
647 22-05-2014 05:50:00 16.8 C 11.72 g/m*3 16.8 C 0 km/h
648 22-05-2014 05:55:00 16.6 C 11.72 g/m*3 16.6 C 0 km/h
649 22-05-2014 06:00:00 16.5 C 11.65 g/m*3 16.5 C 0 km/h
650 22-05-2014 06:05:00 16.4 C 11.58 g/m*3 16.4 C 0 km/h
Sensor: Nr:Datum:Temp:Abs-Feuchte:Windchill:Wind:
Aussen-T/F 651 22-05-2014 06:10:00 16.4 C 11.58 g/m*3 16.4 C 0 km/h
652 22-05-2014 06:15:00 16.4 C 11.72 g/m*3 16.4 C 0 km/h
653 22-05-2014 06:20:00 16.4 C 11.72 g/m*3 16.4 C 0 km/h
654 22-05-2014 06:25:00 16.5 C 11.8 g/m*3 16.5 C 0 km/h
655 22-05-2014 06:30:00 16.6 C 11.72 g/m*3 16.6 C 0 km/h
656 22-05-2014 06:35:00 16.7 C 11.8 g/m*3 16.7 C 1.6 km/h
657 22-05-2014 06:40:00 16.8 C 11.58 g/m*3 16.8 C 3.2 km/h
658 22-05-2014 06:45:00 17.1 C 11.65 g/m*3 17.1 C 1.6 km/h
659 22-05-2014 06:50:00 17.2 C 11.42 g/m*3 17.2 C 1.6 km/h
660 22-05-2014 06:55:00 17.3 C 11.49 g/m*3 17.3 C 1.6 km/h
661 22-05-2014 07:00:00 17.4 C 11.56 g/m*3 17.4 C 1.6 km/h
662 22-05-2014 07:05:00 17.4 C 11.56 g/m*3 17.4 C 3.2 km/h
663 22-05-2014 07:10:00 17.4 C 11.71 g/m*3 17.4 C 0 km/h
664 22-05-2014 07:15:00 17.3 C 11.79 g/m*3 17.3 C 0 km/h
665 22-05-2014 07:20:00 17.3 C 11.93 g/m*3 17.3 C 0 km/h
666 22-05-2014 07:25:00 17.2 C 11.72 g/m*3 17.2 C 0 km/h
667 22-05-2014 07:30:00 17.2 C 11.42 g/m*3 17.2 C 3.2 km/h
668 22-05-2014 07:35:00 17.3 C 11.93 g/m*3 17.3 C 0 km/h
669 22-05-2014 07:40:00 17.2 C 12.01 g/m*3 17.2 C 0 km/h
670 22-05-2014 07:45:00 17.1 C 11.94 g/m*3 17.1 C 0 km/h
671 22-05-2014 07:50:00 17.1 C 11.5 g/m*3 17.1 C 0 km/h
672 22-05-2014 07:55:00 17.1 C 11.79 g/m*3 17.1 C 0 km/h
673 22-05-2014 08:00:00 17 C 11.87 g/m*3 17 C 0 km/h
674 22-05-2014 08:05:00 16.9 C 11.94 g/m*3 16.9 C 0 km/h
675 22-05-2014 08:10:00 16.9 C 11.94 g/m*3 16.9 C 0 km/h
Sensor: Nr:Datum:Temp:Abs-Feuchte:Windchill:Wind:
Aussen-T/F 676 22-05-2014 08:15:00 16.9 C 11.94 g/m*3 16.9 C 0 km/h
677 22-05-2014 08:20:00 17 C 12.01 g/m*3 17 C 0 km/h
678 22-05-2014 08:25:00 17.1 C 12.08 g/m*3 17.1 C 0 km/h
679 22-05-2014 08:30:00 17.2 C 12.15 g/m*3 17.2 C 0 km/h
680 22-05-2014 08:35:00 17.3 C 11.34 g/m*3 17.3 C 4.8 km/h
681 22-05-2014 08:40:00 17.7 C 11.47 g/m*3 17.7 C 3.2 km/h
682 22-05-2014 08:45:00 18 C 11.37 g/m*3 18 C 6.4 km/h
683 22-05-2014 08:50:00 18.2 C 11.04 g/m*3 18.2 C 8.1 km/h
684 22-05-2014 08:55:00 18.4 C 11.17 g/m*3 18.4 C 0 km/h
685 22-05-2014 09:00:00 18.6 C 10.82 g/m*3 18.6 C 4.8 km/h
686 22-05-2014 09:05:00 18.8 C 10.47 g/m*3 18.8 C 12.9 km/h
687 22-05-2014 09:10:00 18.8 C 10.15 g/m*3 18.8 C 11.3 km/h
688 22-05-2014 09:15:00 18.9 C 9.88 g/m*3 18.9 C 9.7 km/h
689 22-05-2014 09:20:00 19 C 9.94 g/m*3 19 C 11.3 km/h
690 22-05-2014 09:25:00 19.1 C 10 g/m*3 19.1 C 4.8 km/h
691 22-05-2014 09:30:00 19.3 C 9.79 g/m*3 19.3 C 9.7 km/h
692 22-05-2014 09:35:00 19.4 C 9.84 g/m*3 19.4 C 9.7 km/h
693 22-05-2014 09:40:00 19.7 C 9.85 g/m*3 19.7 C 9.7 km/h
694 22-05-2014 09:45:00 19.9 C 9.62 g/m*3 19.9 C 11.3 km/h
695 22-05-2014 09:50:00 20.1 C 9.56 g/m*3 20.1 C 11.3 km/h
696 22-05-2014 09:55:00 20.2 C 9.44 g/m*3 20.2 C 9.7 km/h
697 22-05-2014 10:00:00 20.4 C 9.55 g/m*3 20.4 C 6.4 km/h
698 22-05-2014 10:05:00 20.6 C 9.31 g/m*3 20.6 C 12.9 km/h
699 22-05-2014 10:10:00 20.8 C 9.23 g/m*3 20.8 C 8.1 km/h
700 22-05-2014 10:15:00 20.9 C 9.29 g/m*3 20.9 C 9.7 km/h
Sensor: Nr:Datum:Temp:Abs-Feuchte:Windchill:Wind:
Aussen-T/F 701 22-05-2014 10:20:00 21 C 8.98 g/m*3 21 C 9.7 km/h
702 22-05-2014 10:25:00 21.1 C 9.21 g/m*3 21.1 C 9.7 km/h
703 22-05-2014 10:30:00 21.3 C 9.69 g/m*3 21.3 C 8.1 km/h
704 22-05-2014 10:35:00 21.5 C 9.62 g/m*3 21.5 C 9.7 km/h
705 22-05-2014 10:40:00 21.7 C 9.16 g/m*3 21.7 C 4.8 km/h
706 22-05-2014 10:45:00 21.8 C 9.21 g/m*3 21.8 C 6.4 km/h
707 22-05-2014 10:50:00 21.9 C 9.07 g/m*3 21.9 C 6.4 km/h
708 22-05-2014 10:55:00 22.2 C 10.21 g/m*3 22.2 C 3.2 km/h
709 22-05-2014 11:00:00 22.4 C 9.73 g/m*3 22.4 C 4.8 km/h
710 22-05-2014 11:05:00 22.6 C 9.64 g/m*3 22.6 C 6.4 km/h
711 22-05-2014 11:10:00 22.9 C 8.99 g/m*3 22.9 C 8.1 km/h
712 22-05-2014 11:15:00 23.1 C 9.3 g/m*3 23.1 C 9.7 km/h
713 22-05-2014 11:20:00 23.3 C 9.2 g/m*3 23.3 C 6.4 km/h
714 22-05-2014 11:25:00 23.5 C 9.31 g/m*3 23.5 C 11.3 km/h
715 22-05-2014 11:30:00 23.3 C 9.2 g/m*3 23.3 C 8.1 km/h
716 22-05-2014 11:35:00 23.3 C 8.78 g/m*3 23.3 C 4.8 km/h
717 22-05-2014 11:40:00 23.2 C 8.94 g/m*3 23.2 C 6.4 km/h
718 22-05-2014 11:45:00 23.3 C 8.99 g/m*3 23.3 C 8.1 km/h
719 22-05-2014 11:50:00 23.4 C 9.46 g/m*3 23.4 C 8.1 km/h
720 22-05-2014 11:55:00 23.7 C 9.2 g/m*3 23.7 C 6.4 km/h
721 22-05-2014 12:00:00 24.1 C 8.75 g/m*3 24.1 C 6.4 km/h
722 22-05-2014 12:05:00 24.3 C 8.85 g/m*3 24.3 C 6.4 km/h
723 22-05-2014 12:10:00 24.3 C 8.85 g/m*3 24.3 C 3.2 km/h
724 22-05-2014 12:15:00 24.6 C 9 g/m*3 24.6 C 6.4 km/h
725 22-05-2014 12:20:00 24.8 C 9.33 g/m*3 24.8 C 6.4 km/h
Sensor: Nr:Datum:Temp:Abs-Feuchte:Windchill:Wind:
Aussen-T/F 726 22-05-2014 12:25:00 24.8 C 8.65 g/m*3 24.8 C 3.2 km/h
727 22-05-2014 12:30:00 24.9 C 9.39 g/m*3 24.9 C 6.4 km/h
728 22-05-2014 12:35:00 25.2 C 8.85 g/m*3 25.2 C 6.4 km/h
729 22-05-2014 12:40:00 25.2 C 9.08 g/m*3 25.2 C 8.1 km/h
730 22-05-2014 12:45:00 25.2 C 9.31 g/m*3 25.2 C 8.1 km/h
731 22-05-2014 12:50:00 25.2 C 9.54 g/m*3 25.2 C 4.8 km/h
732 22-05-2014 12:55:00 25.3 C 10.07 g/m*3 25.3 C 6.4 km/h
733 22-05-2014 13:00:00 25.4 C 10.36 g/m*3 25.4 C 9.7 km/h
734 22-05-2014 13:05:00 25.6 C 10.48 g/m*3 25.6 C 3.2 km/h
735 22-05-2014 13:10:00 25.8 C 10.35 g/m*3 25.8 C 4.8 km/h
736 22-05-2014 13:15:00 26.1 C 10.28 g/m*3 26.1 C 8.1 km/h
737 22-05-2014 13:20:00 26 C 10.47 g/m*3 26 C 4.8 km/h
738 22-05-2014 13:25:00 26.2 C 10.34 g/m*3 26.2 C 4.8 km/h
739 22-05-2014 13:30:00 26.3 C 11.39 g/m*3 26.3 C 3.2 km/h
740 22-05-2014 13:35:00 26.2 C 10.09 g/m*3 26.2 C 6.4 km/h
741 22-05-2014 13:40:00 26.2 C 10.59 g/m*3 26.2 C 1.6 km/h
742 22-05-2014 13:45:00 26.3 C 10.64 g/m*3 26.3 C 4.8 km/h
743 22-05-2014 13:50:00 26.4 C 10.46 g/m*3 26.4 C 4.8 km/h
744 22-05-2014 13:55:00 26.7 C 10.88 g/m*3 26.7 C 6.4 km/h
745 22-05-2014 14:00:00 26.8 C 10.94 g/m*3 26.8 C 4.8 km/h
746 22-05-2014 14:05:00 26.7 C 10.12 g/m*3 26.7 C 11.3 km/h
747 22-05-2014 14:10:00 26.6 C 10.07 g/m*3 26.6 C 6.4 km/h
748 22-05-2014 14:15:00 26.7 C 10.38 g/m*3 26.7 C 4.8 km/h
749 22-05-2014 14:20:00 26.7 C 10.12 g/m*3 26.7 C 6.4 km/h
750 22-05-2014 14:25:00 26.6 C 9.82 g/m*3 26.6 C 17.7 km/h
Sensor: Nr:Datum:Temp:Abs-Feuchte:Windchill:Wind:
Aussen-T/F 751 22-05-2014 14:30:00 26.4 C 10.7 g/m*3 26.4 C 16.1 km/h
752 22-05-2014 14:35:00 26.5 C 10.01 g/m*3 26.5 C 8.1 km/h
753 22-05-2014 14:40:00 26.8 C 10.94 g/m*3 26.8 C 11.3 km/h
754 22-05-2014 14:45:00 27.1 C 10.35 g/m*3 27.1 C 9.7 km/h
755 22-05-2014 14:50:00 27.1 C 10.35 g/m*3 27.1 C 9.7 km/h
756 22-05-2014 14:55:00 27.2 C 10.15 g/m*3 27.2 C 4.8 km/h
757 22-05-2014 15:00:00 27.3 C 9.94 g/m*3 27.3 C 9.7 km/h
758 22-05-2014 15:05:00 27.2 C 10.93 g/m*3 27.2 C 8.1 km/h
759 22-05-2014 15:10:00 27.4 C 10 g/m*3 27.4 C 14.5 km/h
760 22-05-2014 15:15:00 27.4 C 10.52 g/m*3 27.4 C 14.5 km/h
761 22-05-2014 15:20:00 27.1 C 9.83 g/m*3 27.1 C 11.3 km/h
762 22-05-2014 15:25:00 27 C 10.04 g/m*3 27 C 11.3 km/h
763 22-05-2014 15:30:00 27.3 C 10.2 g/m*3 27.3 C 11.3 km/h
764 22-05-2014 15:35:00 27.3 C 10.2 g/m*3 27.3 C 9.7 km/h
765 22-05-2014 15:40:00 27.2 C 10.15 g/m*3 27.2 C 11.3 km/h
766 22-05-2014 15:45:00 27 C 10.29 g/m*3 27 C 8.1 km/h
767 22-05-2014 15:50:00 27.2 C 9.89 g/m*3 27.2 C 9.7 km/h
768 22-05-2014 15:55:00 27.7 C 10.43 g/m*3 27.7 C 8.1 km/h
769 22-05-2014 16:00:00 27.8 C 10.49 g/m*3 27.8 C 9.7 km/h
770 22-05-2014 16:05:00 27.8 C 9.95 g/m*3 27.8 C 8.1 km/h
771 22-05-2014 16:10:00 27.8 C 9.95 g/m*3 27.8 C 8.1 km/h
772 22-05-2014 16:15:00 28.1 C 10.66 g/m*3 28.1 C 8.1 km/h
773 22-05-2014 16:20:00 28.4 C 10.56 g/m*3 28.4 C 8.1 km/h
774 22-05-2014 16:25:00 28.2 C 9.62 g/m*3 28.2 C 12.9 km/h
775 22-05-2014 16:30:00 27.9 C 10.28 g/m*3 27.9 C 11.3 km/h
Sensor: Nr:Datum:Temp:Abs-Feuchte:Windchill:Wind:
Aussen-T/F 776 22-05-2014 16:35:00 28 C 10.06 g/m*3 28 C 11.3 km/h
777 22-05-2014 16:40:00 27.8 C 10.22 g/m*3 27.8 C 4.8 km/h
778 22-05-2014 16:45:00 27.3 C 10.2 g/m*3 27.3 C 4.8 km/h
779 22-05-2014 16:50:00 27.1 C 10.35 g/m*3 27.1 C 3.2 km/h
780 22-05-2014 16:55:00 26.7 C 9.87 g/m*3 26.7 C 3.2 km/h
781 22-05-2014 17:00:00 26.2 C 11.08 g/m*3 26.2 C 0 km/h
782 22-05-2014 17:05:00 25.7 C 10.53 g/m*3 25.7 C 4.8 km/h
783 22-05-2014 17:10:00 25.4 C 10.36 g/m*3 25.4 C 6.4 km/h
784 22-05-2014 17:15:00 25.2 C 10.48 g/m*3 25.2 C 8.1 km/h
785 22-05-2014 17:20:00 25 C 9.9 g/m*3 25 C 16.1 km/h
786 22-05-2014 17:25:00 25.1 C 10.19 g/m*3 25.1 C 9.7 km/h
787 22-05-2014 17:30:00 25.3 C 10.07 g/m*3 25.3 C 9.7 km/h
788 22-05-2014 17:35:00 25.4 C 10.36 g/m*3 25.4 C 17.7 km/h
789 22-05-2014 17:40:00 25.1 C 10.42 g/m*3 25.1 C 9.7 km/h
790 22-05-2014 17:45:00 24.8 C 10.24 g/m*3 24.8 C 16.1 km/h
791 22-05-2014 17:50:00 24.5 C 10.74 g/m*3 24.5 C 8.1 km/h
792 22-05-2014 17:55:00 24.3 C 10.62 g/m*3 24.3 C 4.8 km/h
793 22-05-2014 18:00:00 24.2 C 10.12 g/m*3 24.2 C 8.1 km/h
794 22-05-2014 18:05:00 24 C 9.57 g/m*3 24 C 14.5 km/h
795 22-05-2014 18:10:00 23.8 C 9.46 g/m*3 23.8 C 12.9 km/h
796 22-05-2014 18:15:00 23.7 C 9.41 g/m*3 23.7 C 16.1 km/h
797 22-05-2014 18:20:00 23.6 C 9.57 g/m*3 23.6 C 17.7 km/h
798 22-05-2014 18:25:00 23.3 C 10.04 g/m*3 23.3 C 16.1 km/h
799 22-05-2014 18:30:00 22.6 C 11.05 g/m*3 22.6 C 16.1 km/h
800 22-05-2014 18:35:00 21.4 C 11.81 g/m*3 21.4 C 14.5 km/h
Sensor: Nr:Datum:Temp:Abs-Feuchte:Windchill:Wind:
Aussen-T/F 801 22-05-2014 18:40:00 20.4 C 12.56 g/m*3 20.4 C 1.6 km/h
802 22-05-2014 18:45:00 19.4 C 13.01 g/m*3 19.4 C 0 km/h
803 22-05-2014 18:50:00 18.8 C 12.88 g/m*3 18.8 C 0 km/h
804 22-05-2014 18:55:00 18.3 C 12.98 g/m*3 18.3 C 0 km/h
805 22-05-2014 19:00:00 17.9 C 13.13 g/m*3 17.9 C 1.6 km/h
806 22-05-2014 19:05:00 17.7 C 12.22 g/m*3 17.7 C 9.7 km/h
807 22-05-2014 19:10:00 17.6 C 12 g/m*3 17.6 C 11.3 km/h
808 22-05-2014 19:15:00 17.5 C 12.08 g/m*3 17.5 C 24.1 km/h
809 22-05-2014 19:20:00 17 C 11.87 g/m*3 17 C 17.7 km/h
810 22-05-2014 19:25:00 16.4 C 11.72 g/m*3 16.4 C 4.8 km/h
811 22-05-2014 19:30:00 16 C 11.72 g/m*3 16 C 3.2 km/h
812 22-05-2014 19:35:00 15.8 C 11.85 g/m*3 15.8 C 3.2 km/h
813 22-05-2014 19:40:00 15.6 C 11.84 g/m*3 15.6 C 1.6 km/h
814 22-05-2014 19:45:00 15.4 C 11.82 g/m*3 15.4 C 0 km/h
815 22-05-2014 19:50:00 15.4 C 12.09 g/m*3 15.4 C 0 km/h
816 22-05-2014 19:55:00 15.3 C 11.88 g/m*3 15.3 C 0 km/h
817 22-05-2014 20:00:00 15.2 C 11.94 g/m*3 15.2 C 0 km/h
818 22-05-2014 20:05:00 15.1 C 11.87 g/m*3 15.1 C 0 km/h
819 22-05-2014 20:10:00 15 C 11.93 g/m*3 15 C 0 km/h
820 22-05-2014 20:15:00 14.9 C 11.85 g/m*3 14.9 C 0 km/h
821 22-05-2014 20:20:00 14.9 C 11.85 g/m*3 14.9 C 0 km/h
822 22-05-2014 20:25:00 14.8 C 11.78 g/m*3 14.8 C 0 km/h
823 22-05-2014 20:30:00 14.8 C 11.91 g/m*3 14.8 C 0 km/h
824 22-05-2014 20:35:00 14.8 C 11.91 g/m*3 14.8 C 0 km/h
825 22-05-2014 20:40:00 14.8 C 11.91 g/m*3 14.8 C 0 km/h
Sensor: Nr:Datum:Temp:Abs-Feuchte:Windchill:Wind:
Aussen-T/F 826 22-05-2014 20:45:00 14.7 C 11.83 g/m*3 14.7 C 0 km/h
827 22-05-2014 20:50:00 14.7 C 11.83 g/m*3 14.7 C 0 km/h
828 22-05-2014 20:55:00 14.7 C 11.83 g/m*3 14.7 C 0 km/h
829 22-05-2014 21:00:00 14.7 C 11.83 g/m*3 14.7 C 0 km/h
830 22-05-2014 21:05:00 14.6 C 11.89 g/m*3 14.6 C 0 km/h
831 22-05-2014 21:10:00 14.6 C 11.89 g/m*3 14.6 C 0 km/h
832 22-05-2014 21:15:00 14.7 C 11.96 g/m*3 14.7 C 3.2 km/h
833 22-05-2014 21:20:00 14.7 C 11.96 g/m*3 14.7 C 1.6 km/h
834 22-05-2014 21:25:00 14.6 C 11.89 g/m*3 14.6 C 1.6 km/h
835 22-05-2014 21:30:00 14.6 C 11.89 g/m*3 14.6 C 1.6 km/h
836 22-05-2014 21:35:00 14.6 C 11.89 g/m*3 14.6 C 1.6 km/h
837 22-05-2014 21:40:00 14.4 C 11.74 g/m*3 14.4 C 1.6 km/h
838 22-05-2014 21:45:00 14.4 C 11.74 g/m*3 14.4 C 0 km/h
839 22-05-2014 21:50:00 14.4 C 11.74 g/m*3 14.4 C 1.6 km/h
840 22-05-2014 21:55:00 14.4 C 11.74 g/m*3 14.4 C 0 km/h
841 22-05-2014 22:00:00 14.3 C 11.67 g/m*3 14.3 C 0 km/h
842 22-05-2014 22:05:00 14.3 C 11.67 g/m*3 14.3 C 0 km/h
843 22-05-2014 22:10:00 14.2 C 11.6 g/m*3 14.2 C 0 km/h
844 22-05-2014 22:15:00 14.2 C 11.6 g/m*3 14.2 C 0 km/h
845 22-05-2014 22:20:00 14.2 C 11.6 g/m*3 14.2 C 1.6 km/h
846 22-05-2014 22:25:00 14.1 C 11.53 g/m*3 14.1 C 1.6 km/h
847 22-05-2014 22:30:00 14 C 11.46 g/m*3 14 C 1.6 km/h
848 22-05-2014 22:35:00 14 C 11.58 g/m*3 14 C 1.6 km/h
849 22-05-2014 22:40:00 13.9 C 11.51 g/m*3 13.9 C 0 km/h
850 22-05-2014 22:45:00 13.9 C 11.51 g/m*3 13.9 C 0 km/h
Sensor: Nr:Datum:Temp:Abs-Feuchte:Windchill:Wind:
Aussen-T/F 851 22-05-2014 22:50:00 13.9 C 11.51 g/m*3 13.9 C 0 km/h
852 22-05-2014 22:55:00 13.9 C 11.51 g/m*3 13.9 C 0 km/h
853 22-05-2014 23:00:00 13.8 C 11.44 g/m*3 13.8 C 0 km/h
854 22-05-2014 23:05:00 13.8 C 11.44 g/m*3 13.8 C 0 km/h
855 22-05-2014 23:10:00 13.8 C 11.44 g/m*3 13.8 C 0 km/h
856 22-05-2014 23:15:00 13.8 C 11.44 g/m*3 13.8 C 0 km/h
857 22-05-2014 23:20:00 13.8 C 11.44 g/m*3 13.8 C 0 km/h
858 22-05-2014 23:25:00 13.8 C 11.44 g/m*3 13.8 C 0 km/h
859 22-05-2014 23:30:00 13.8 C 11.44 g/m*3 13.8 C 0 km/h
860 22-05-2014 23:35:00 13.7 C 11.37 g/m*3 13.7 C 0 km/h
861 22-05-2014 23:40:00 13.7 C 11.37 g/m*3 13.7 C 0 km/h
862 22-05-2014 23:45:00 13.7 C 11.37 g/m*3 13.7 C 0 km/h
863 22-05-2014 23:50:00 13.7 C 11.37 g/m*3 13.7 C 0 km/h
864 22-05-2014 23:55:00 13.6 C 11.3 g/m*3 13.6 C 0 km/h
865 23-05-2014 00:00:00 13.6 C 11.3 g/m*3 13.6 C 0 km/h
866 23-05-2014 00:05:00 13.6 C 11.3 g/m*3 13.6 C 0 km/h
867 23-05-2014 00:10:00 13.6 C 11.3 g/m*3 13.6 C 0 km/h
868 23-05-2014 00:15:00 13.6 C 11.3 g/m*3 13.6 C 1.6 km/h
869 23-05-2014 00:20:00 13.6 C 11.42 g/m*3 13.6 C 0 km/h
870 23-05-2014 00:25:00 13.6 C 11.3 g/m*3 13.6 C 0 km/h
871 23-05-2014 00:30:00 13.6 C 11.3 g/m*3 13.6 C 1.6 km/h
872 23-05-2014 00:35:00 13.6 C 11.42 g/m*3 13.6 C 0 km/h
873 23-05-2014 00:40:00 13.6 C 11.42 g/m*3 13.6 C 1.6 km/h
874 23-05-2014 00:45:00 13.6 C 11.42 g/m*3 13.6 C 0 km/h
875 23-05-2014 00:50:00 13.6 C 11.3 g/m*3 13.6 C 0 km/h
Sensor: Nr:Datum:Temp:Abs-Feuchte:Windchill:Wind:
Aussen-T/F 876 23-05-2014 00:55:00 13.6 C 11.3 g/m*3 13.6 C 0 km/h
877 23-05-2014 01:00:00 13.6 C 11.3 g/m*3 13.6 C 0 km/h
878 23-05-2014 01:05:00 13.6 C 11.42 g/m*3 13.6 C 1.6 km/h
879 23-05-2014 01:10:00 13.5 C 11.35 g/m*3 13.5 C 0 km/h
880 23-05-2014 01:15:00 13.5 C 11.35 g/m*3 13.5 C 1.6 km/h
881 23-05-2014 01:20:00 13.4 C 11.16 g/m*3 13.4 C 3.2 km/h
882 23-05-2014 01:25:00 13.4 C 11.28 g/m*3 13.4 C 0 km/h
883 23-05-2014 01:30:00 13.4 C 11.28 g/m*3 13.4 C 0 km/h
884 23-05-2014 01:35:00 13.4 C 11.28 g/m*3 13.4 C 0 km/h
885 23-05-2014 01:40:00 13.4 C 11.28 g/m*3 13.4 C 0 km/h
886 23-05-2014 01:45:00 13.4 C 11.16 g/m*3 13.4 C 3.2 km/h
887 23-05-2014 01:50:00 13.4 C 11.16 g/m*3 13.4 C 0 km/h
888 23-05-2014 01:55:00 13.4 C 11.28 g/m*3 13.4 C 0 km/h
889 23-05-2014 02:00:00 13.4 C 11.28 g/m*3 13.4 C 0 km/h
890 23-05-2014 02:05:00 13.3 C 11.21 g/m*3 13.3 C 0 km/h
891 23-05-2014 02:10:00 13.3 C 11.21 g/m*3 13.3 C 0 km/h
892 23-05-2014 02:15:00 13.3 C 11.21 g/m*3 13.3 C 0 km/h
893 23-05-2014 02:20:00 13.3 C 11.21 g/m*3 13.3 C 0 km/h
894 23-05-2014 02:25:00 13.3 C 11.21 g/m*3 13.3 C 0 km/h
895 23-05-2014 02:30:00 13.3 C 11.21 g/m*3 13.3 C 0 km/h
896 23-05-2014 02:35:00 13.3 C 11.21 g/m*3 13.3 C 0 km/h
897 23-05-2014 02:40:00 13.3 C 11.21 g/m*3 13.3 C 0 km/h
898 23-05-2014 02:45:00 13.3 C 11.21 g/m*3 13.3 C 0 km/h
899 23-05-2014 02:50:00 13.3 C 11.21 g/m*3 13.3 C 0 km/h
900 23-05-2014 02:55:00 13.3 C 11.21 g/m*3 13.3 C 0 km/h
Sensor: Nr:Datum:Temp:Abs-Feuchte:Windchill:Wind:
Aussen-T/F 901 23-05-2014 03:00:00 13.3 C 11.21 g/m*3 13.3 C 0 km/h
902 23-05-2014 03:05:00 13.3 C 11.21 g/m*3 13.3 C 0 km/h
903 23-05-2014 03:10:00 13.3 C 11.21 g/m*3 13.3 C 0 km/h
904 23-05-2014 03:15:00 13.3 C 11.21 g/m*3 13.3 C 0 km/h
905 23-05-2014 03:20:00 13.2 C 11.14 g/m*3 13.2 C 0 km/h
906 23-05-2014 03:25:00 13.2 C 11.14 g/m*3 13.2 C 0 km/h
907 23-05-2014 03:30:00 13.2 C 11.14 g/m*3 13.2 C 0 km/h
908 23-05-2014 03:35:00 13.2 C 11.14 g/m*3 13.2 C 0 km/h
909 23-05-2014 03:40:00 13.2 C 11.14 g/m*3 13.2 C 0 km/h
910 23-05-2014 03:45:00 13.2 C 11.14 g/m*3 13.2 C 0 km/h
911 23-05-2014 03:50:00 13.2 C 11.14 g/m*3 13.2 C 0 km/h
912 23-05-2014 03:55:00 13.2 C 11.14 g/m*3 13.2 C 0 km/h
913 23-05-2014 04:00:00 13.1 C 11.07 g/m*3 13.1 C 0 km/h
914 23-05-2014 04:05:00 13.1 C 11.07 g/m*3 13.1 C 0 km/h
915 23-05-2014 04:10:00 13.1 C 11.07 g/m*3 13.1 C 0 km/h
916 23-05-2014 04:15:00 13.1 C 11.07 g/m*3 13.1 C 0 km/h
917 23-05-2014 04:20:00 13.1 C 11.07 g/m*3 13.1 C 0 km/h
918 23-05-2014 04:25:00 13 C 11 g/m*3 13 C 0 km/h
919 23-05-2014 04:30:00 12.9 C 10.93 g/m*3 12.9 C 0 km/h
920 23-05-2014 04:35:00 12.9 C 10.93 g/m*3 12.9 C 0 km/h
921 23-05-2014 04:40:00 12.9 C 10.93 g/m*3 12.9 C 0 km/h
922 23-05-2014 04:45:00 12.8 C 10.87 g/m*3 12.8 C 0 km/h
923 23-05-2014 04:50:00 12.8 C 10.87 g/m*3 12.8 C 0 km/h
924 23-05-2014 04:55:00 12.7 C 10.8 g/m*3 12.7 C 0 km/h
925 23-05-2014 05:00:00 12.7 C 10.8 g/m*3 12.7 C 0 km/h
Sensor: Nr:Datum:Temp:Abs-Feuchte:Windchill:Wind:
Aussen-T/F 926 23-05-2014 05:05:00 12.7 C 10.8 g/m*3 12.7 C 0 km/h
927 23-05-2014 05:10:00 12.7 C 10.8 g/m*3 12.7 C 0 km/h
928 23-05-2014 05:15:00 12.7 C 10.8 g/m*3 12.7 C 0 km/h
929 23-05-2014 05:20:00 12.7 C 10.8 g/m*3 12.7 C 0 km/h
930 23-05-2014 05:25:00 12.7 C 10.8 g/m*3 12.7 C 0 km/h
931 23-05-2014 05:30:00 12.7 C 10.8 g/m*3 12.7 C 0 km/h
932 23-05-2014 05:35:00 12.7 C 10.8 g/m*3 12.7 C 0 km/h
933 23-05-2014 05:40:00 12.7 C 10.8 g/m*3 12.7 C 0 km/h
934 23-05-2014 05:45:00 12.8 C 10.87 g/m*3 12.8 C 0 km/h
935 23-05-2014 05:50:00 12.8 C 10.87 g/m*3 12.8 C 0 km/h
936 23-05-2014 05:55:00 12.9 C 11.05 g/m*3 12.9 C 0 km/h
937 23-05-2014 06:00:00 12.9 C 11.05 g/m*3 12.9 C 0 km/h
938 23-05-2014 06:05:00 13.1 C 11.18 g/m*3 13.1 C 0 km/h
939 23-05-2014 06:10:00 13.1 C 11.07 g/m*3 13.1 C 0 km/h
940 23-05-2014 06:15:00 13.1 C 11.07 g/m*3 13.1 C 0 km/h
941 23-05-2014 06:20:00 13.1 C 11.07 g/m*3 13.1 C 0 km/h
942 23-05-2014 06:25:00 13.1 C 11.07 g/m*3 13.1 C 0 km/h
943 23-05-2014 06:30:00 13.1 C 11.07 g/m*3 13.1 C 0 km/h
944 23-05-2014 06:35:00 13.1 C 11.07 g/m*3 13.1 C 0 km/h
945 23-05-2014 06:40:00 13.1 C 11.07 g/m*3 13.1 C 0 km/h
946 23-05-2014 06:45:00 13.1 C 11.07 g/m*3 13.1 C 0 km/h
947 23-05-2014 06:50:00 13.1 C 11.07 g/m*3 13.1 C 0 km/h
948 23-05-2014 06:55:00 13.2 C 11.14 g/m*3 13.2 C 0 km/h
949 23-05-2014 07:00:00 13.2 C 11.14 g/m*3 13.2 C 0 km/h
950 23-05-2014 07:05:00 13.2 C 11.14 g/m*3 13.2 C 0 km/h
Sensor: Nr:Datum:Temp:Abs-Feuchte:Windchill:Wind:
Aussen-T/F 951 23-05-2014 07:10:00 13.2 C 11.14 g/m*3 13.2 C 0 km/h
952 23-05-2014 07:15:00 13.2 C 11.25 g/m*3 13.2 C 0 km/h
953 23-05-2014 07:20:00 13.3 C 11.32 g/m*3 13.3 C 0 km/h
954 23-05-2014 07:25:00 13.3 C 11.32 g/m*3 13.3 C 0 km/h
955 23-05-2014 07:30:00 13.3 C 11.32 g/m*3 13.3 C 0 km/h
956 23-05-2014 07:35:00 13.4 C 11.39 g/m*3 13.4 C 0 km/h
957 23-05-2014 07:40:00 13.6 C 11.53 g/m*3 13.6 C 0 km/h
958 23-05-2014 07:45:00 13.6 C 11.53 g/m*3 13.6 C 0 km/h
959 23-05-2014 07:50:00 13.7 C 11.6 g/m*3 13.7 C 0 km/h
960 23-05-2014 07:55:00 13.8 C 11.68 g/m*3 13.8 C 0 km/h
961 23-05-2014 08:00:00 13.8 C 11.68 g/m*3 13.8 C 0 km/h
962 23-05-2014 08:05:00 13.8 C 11.68 g/m*3 13.8 C 0 km/h
963 23-05-2014 08:10:00 13.8 C 11.68 g/m*3 13.8 C 0 km/h
964 23-05-2014 08:15:00 13.8 C 11.68 g/m*3 13.8 C 0 km/h
965 23-05-2014 08:20:00 13.9 C 11.75 g/m*3 13.9 C 0 km/h
966 23-05-2014 08:25:00 13.9 C 11.75 g/m*3 13.9 C 0 km/h
967 23-05-2014 08:30:00 13.9 C 11.75 g/m*3 13.9 C 0 km/h
968 23-05-2014 08:35:00 14 C 11.82 g/m*3 14 C 0 km/h
969 23-05-2014 08:40:00 13.9 C 11.75 g/m*3 13.9 C 0 km/h
970 23-05-2014 08:45:00 13.9 C 11.75 g/m*3 13.9 C 0 km/h
971 23-05-2014 08:50:00 14 C 11.82 g/m*3 14 C 0 km/h
972 23-05-2014 08:55:00 14 C 11.82 g/m*3 14 C 0 km/h
973 23-05-2014 09:00:00 14 C 11.82 g/m*3 14 C 0 km/h
974 23-05-2014 09:05:00 13.9 C 11.75 g/m*3 13.9 C 0 km/h
975 23-05-2014 09:10:00 13.9 C 11.75 g/m*3 13.9 C 0 km/h
Sensor: Nr:Datum:Temp:Abs-Feuchte:Windchill:Wind:
Aussen-T/F 976 23-05-2014 09:15:00 14 C 11.82 g/m*3 14 C 0 km/h
977 23-05-2014 09:20:00 14 C 11.82 g/m*3 14 C 0 km/h
978 23-05-2014 09:25:00 14 C 11.82 g/m*3 14 C 0 km/h
979 23-05-2014 09:30:00 14.1 C 11.89 g/m*3 14.1 C 3.2 km/h
980 23-05-2014 09:35:00 14 C 11.82 g/m*3 14 C 0 km/h
981 23-05-2014 09:40:00 13.9 C 11.75 g/m*3 13.9 C 1.6 km/h
982 23-05-2014 09:45:00 13.9 C 11.75 g/m*3 13.9 C 0 km/h
983 23-05-2014 09:50:00 13.9 C 11.75 g/m*3 13.9 C 0 km/h
984 23-05-2014 09:55:00 14 C 11.82 g/m*3 14 C 0 km/h
985 23-05-2014 10:00:00 14.1 C 11.89 g/m*3 14.1 C 0 km/h
986 23-05-2014 10:05:00 14.1 C 11.77 g/m*3 14.1 C 0 km/h
987 23-05-2014 10:10:00 14.3 C 12.04 g/m*3 14.3 C 0 km/h
988 23-05-2014 10:15:00 14.4 C 12.11 g/m*3 14.4 C 0 km/h
989 23-05-2014 10:20:00 14.5 C 12.19 g/m*3 14.5 C 0 km/h
990 23-05-2014 10:25:00 14.5 C 12.19 g/m*3 14.5 C 0 km/h
991 23-05-2014 10:30:00 14.5 C 12.06 g/m*3 14.5 C 1.6 km/h
992 23-05-2014 10:35:00 14.6 C 12.14 g/m*3 14.6 C 4.8 km/h
993 23-05-2014 10:40:00 14.6 C 12.14 g/m*3 14.6 C 4.8 km/h
994 23-05-2014 10:45:00 14.7 C 12.21 g/m*3 14.7 C 3.2 km/h
995 23-05-2014 10:50:00 14.8 C 12.16 g/m*3 14.8 C 4.8 km/h
996 23-05-2014 10:55:00 14.9 C 12.11 g/m*3 14.9 C 6.4 km/h
997 23-05-2014 11:00:00 15.1 C 12.26 g/m*3 15.1 C 3.2 km/h
998 23-05-2014 11:05:00 15.2 C 12.33 g/m*3 15.2 C 0 km/h
999 23-05-2014 11:10:00 15.2 C 12.33 g/m*3 15.2 C 0 km/h
1000 23-05-2014 11:15:00 15.2 C 12.33 g/m*3 15.2 C 3.2 km/h
Sensor: Nr:Datum:Temp:Abs-Feuchte:Windchill:Wind:
Aussen-T/F 1001 23-05-2014 11:20:00 15.1 C 12.13 g/m*3 15.1 C 0 km/h
1002 23-05-2014 11:25:00 15.1 C 12.26 g/m*3 15.1 C 0 km/h
1003 23-05-2014 11:30:00 15.1 C 12.13 g/m*3 15.1 C 0 km/h
1004 23-05-2014 11:35:00 15.2 C 12.33 g/m*3 15.2 C 0 km/h
1005 23-05-2014 11:40:00 15.2 C 12.2 g/m*3 15.2 C 1.6 km/h
1006 23-05-2014 11:45:00 15.2 C 12.2 g/m*3 15.2 C 1.6 km/h
1007 23-05-2014 11:50:00 15.3 C 12.41 g/m*3 15.3 C 0 km/h
1008 23-05-2014 11:55:00 15.5 C 12.56 g/m*3 15.5 C 0 km/h
1009 23-05-2014 12:00:00 15.6 C 12.5 g/m*3 15.6 C 3.2 km/h
1010 23-05-2014 12:05:00 15.7 C 12.31 g/m*3 15.7 C 4.8 km/h
1011 23-05-2014 12:10:00 15.8 C 12.25 g/m*3 15.8 C 3.2 km/h
1012 23-05-2014 12:15:00 15.9 C 12.19 g/m*3 15.9 C 8.1 km/h
1013 23-05-2014 12:20:00 15.9 C 12.05 g/m*3 15.9 C 6.4 km/h
1014 23-05-2014 12:25:00 16.1 C 12.34 g/m*3 16.1 C 1.6 km/h
1015 23-05-2014 12:30:00 16.1 C 12.34 g/m*3 16.1 C 3.2 km/h
1016 23-05-2014 12:35:00 16.3 C 12.35 g/m*3 16.3 C 4.8 km/h
1017 23-05-2014 12:40:00 16.4 C 12.28 g/m*3 16.4 C 4.8 km/h
1018 23-05-2014 12:45:00 16.5 C 12.08 g/m*3 16.5 C 6.4 km/h
1019 23-05-2014 12:50:00 16.7 C 12.36 g/m*3 16.7 C 4.8 km/h
1020 23-05-2014 12:55:00 17.1 C 12.52 g/m*3 17.1 C 4.8 km/h
1021 23-05-2014 13:00:00 17.4 C 12.15 g/m*3 17.4 C 6.4 km/h
1022 23-05-2014 13:05:00 17.8 C 12.29 g/m*3 17.8 C 8.1 km/h
1023 23-05-2014 13:10:00 17.8 C 11.99 g/m*3 17.8 C 9.7 km/h
1024 23-05-2014 13:15:00 17.8 C 12.29 g/m*3 17.8 C 6.4 km/h
1025 23-05-2014 13:20:00 17.6 C 12 g/m*3 17.6 C 6.4 km/h
Sensor: Nr:Datum:Temp:Abs-Feuchte:Windchill:Wind:
Aussen-T/F 1026 23-05-2014 13:25:00 17.4 C 12.3 g/m*3 17.4 C 3.2 km/h
1027 23-05-2014 13:30:00 17.2 C 12.01 g/m*3 17.2 C 4.8 km/h
1028 23-05-2014 13:35:00 17.1 C 12.66 g/m*3 17.1 C 1.6 km/h
1029 23-05-2014 13:40:00 17 C 12.59 g/m*3 17 C 0 km/h
1030 23-05-2014 13:45:00 16.7 C 11.94 g/m*3 16.7 C 1.6 km/h
1031 23-05-2014 13:50:00 16.6 C 11.87 g/m*3 16.6 C 1.6 km/h
1032 23-05-2014 13:55:00 16.2 C 11.72 g/m*3 16.2 C 1.6 km/h
1033 23-05-2014 14:00:00 15.9 C 11.51 g/m*3 15.9 C 1.6 km/h
1034 23-05-2014 14:05:00 15.8 C 12.11 g/m*3 15.8 C 1.6 km/h
1035 23-05-2014 14:10:00 16 C 12.53 g/m*3 16 C 0 km/h
1036 23-05-2014 14:15:00 16 C 12.53 g/m*3 16 C 0 km/h
1037 23-05-2014 14:20:00 16.1 C 12.75 g/m*3 16.1 C 0 km/h
1038 23-05-2014 14:25:00 16.2 C 12.82 g/m*3 16.2 C 1.6 km/h
1039 23-05-2014 14:30:00 16.3 C 12.76 g/m*3 16.3 C 0 km/h
1040 23-05-2014 14:35:00 16.7 C 12.79 g/m*3 16.7 C 0 km/h
1041 23-05-2014 14:40:00 17.3 C 12.82 g/m*3 17.3 C 3.2 km/h
1042 23-05-2014 14:45:00 17.8 C 11.84 g/m*3 17.8 C 4.8 km/h
1043 23-05-2014 14:50:00 18.1 C 12.36 g/m*3 18.1 C 4.8 km/h
1044 23-05-2014 14:55:00 18.3 C 12.35 g/m*3 18.3 C 3.2 km/h
1045 23-05-2014 15:00:00 18.6 C 12.57 g/m*3 18.6 C 3.2 km/h
1046 23-05-2014 15:05:00 18.9 C 12.64 g/m*3 18.9 C 6.4 km/h
1047 23-05-2014 15:10:00 19 C 12.71 g/m*3 19 C 6.4 km/h
1048 23-05-2014 15:15:00 18.9 C 12.8 g/m*3 18.9 C 1.6 km/h
1049 23-05-2014 15:20:00 18.8 C 13.53 g/m*3 18.8 C 3.2 km/h
1050 23-05-2014 15:25:00 18.7 C 13.29 g/m*3 18.7 C 3.2 km/h
Sensor: Nr:Datum:Temp:Abs-Feuchte:Windchill:Wind:
Aussen-T/F 1051 23-05-2014 15:30:00 19 C 13.69 g/m*3 19 C 8.1 km/h
1052 23-05-2014 15:35:00 19.2 C 12.86 g/m*3 19.2 C 4.8 km/h
1053 23-05-2014 15:40:00 19.2 C 13.03 g/m*3 19.2 C 6.4 km/h
1054 23-05-2014 15:45:00 19.2 C 13.19 g/m*3 19.2 C 6.4 km/h
1055 23-05-2014 15:50:00 19.3 C 12.94 g/m*3 19.3 C 8.1 km/h
1056 23-05-2014 15:55:00 19.4 C 13.01 g/m*3 19.4 C 9.7 km/h
1057 23-05-2014 16:00:00 19.3 C 12.77 g/m*3 19.3 C 4.8 km/h
1058 23-05-2014 16:05:00 19.1 C 12.79 g/m*3 19.1 C 6.4 km/h
1059 23-05-2014 16:10:00 19.3 C 12.44 g/m*3 19.3 C 8.1 km/h
1060 23-05-2014 16:15:00 19.6 C 13.34 g/m*3 19.6 C 9.7 km/h
1061 23-05-2014 16:20:00 19.7 C 12.23 g/m*3 19.7 C 8.1 km/h
1062 23-05-2014 16:25:00 20.1 C 12.86 g/m*3 20.1 C 9.7 km/h
1063 23-05-2014 16:30:00 20.7 C 12.96 g/m*3 20.7 C 8.1 km/h
1064 23-05-2014 16:35:00 21.1 C 13.08 g/m*3 21.1 C 8.1 km/h
1065 23-05-2014 16:40:00 21.1 C 12.53 g/m*3 21.1 C 6.4 km/h
1066 23-05-2014 16:45:00 21 C 12.27 g/m*3 21 C 3.2 km/h
1067 23-05-2014 16:50:00 20.6 C 12.71 g/m*3 20.6 C 0 km/h
1068 23-05-2014 16:55:00 20.8 C 12.67 g/m*3 20.8 C 4.8 km/h
1069 23-05-2014 17:00:00 21.1 C 12.71 g/m*3 21.1 C 6.4 km/h
1070 23-05-2014 17:05:00 21.1 C 12.53 g/m*3 21.1 C 8.1 km/h
1071 23-05-2014 17:10:00 20.7 C 13.68 g/m*3 20.7 C 3.2 km/h
1072 23-05-2014 17:15:00 19.7 C 13.25 g/m*3 19.7 C 0 km/h
1073 23-05-2014 17:20:00 19.2 C 12.7 g/m*3 19.2 C 4.8 km/h
1074 23-05-2014 17:25:00 19.1 C 12.79 g/m*3 19.1 C 4.8 km/h
1075 23-05-2014 17:30:00 19 C 13.36 g/m*3 19 C 0 km/h
Sensor: Nr:Datum:Temp:Abs-Feuchte:Windchill:Wind:
Aussen-T/F 1076 23-05-2014 17:35:00 18.7 C 13.13 g/m*3 18.7 C 0 km/h
1077 23-05-2014 17:40:00 18.5 C 13.45 g/m*3 18.5 C 0 km/h
1078 23-05-2014 17:45:00 18.2 C 13.37 g/m*3 18.2 C 0 km/h
1079 23-05-2014 17:50:00 17.8 C 13.36 g/m*3 17.8 C 0 km/h
1080 23-05-2014 17:55:00 17.7 C 13.43 g/m*3 17.7 C 0 km/h
1081 23-05-2014 18:00:00 17.6 C 13.35 g/m*3 17.6 C 0 km/h
1082 23-05-2014 18:05:00 17.5 C 12.08 g/m*3 17.5 C 0 km/h
1083 23-05-2014 18:10:00 18 C 13.36 g/m*3 18 C 1.6 km/h
1084 23-05-2014 18:15:00 18.3 C 12.35 g/m*3 18.3 C 3.2 km/h
1085 23-05-2014 18:20:00 19.1 C 11.97 g/m*3 19.1 C 8.1 km/h
1086 23-05-2014 18:25:00 19.9 C 12.2 g/m*3 19.9 C 8.1 km/h
1087 23-05-2014 18:30:00 20.6 C 12.35 g/m*3 20.6 C 6.4 km/h
1088 23-05-2014 18:35:00 20.8 C 11.59 g/m*3 20.8 C 9.7 km/h
1089 23-05-2014 18:40:00 20.8 C 11.77 g/m*3 20.8 C 8.1 km/h
1090 23-05-2014 18:45:00 21.2 C 12.42 g/m*3 21.2 C 9.7 km/h
1091 23-05-2014 18:50:00 21.3 C 11.74 g/m*3 21.3 C 8.1 km/h
1092 23-05-2014 18:55:00 21.3 C 11.74 g/m*3 21.3 C 6.4 km/h
1093 23-05-2014 19:00:00 21 C 11.91 g/m*3 21 C 9.7 km/h
1094 23-05-2014 19:05:00 20.9 C 11.66 g/m*3 20.9 C 8.1 km/h
1095 23-05-2014 19:10:00 20.7 C 11.88 g/m*3 20.7 C 6.4 km/h
1096 23-05-2014 19:15:00 20.5 C 11.92 g/m*3 20.5 C 1.6 km/h
1097 23-05-2014 19:20:00 20.3 C 11.96 g/m*3 20.3 C 4.8 km/h
1098 23-05-2014 19:25:00 20.3 C 11.78 g/m*3 20.3 C 6.4 km/h
1099 23-05-2014 19:30:00 20.4 C 11.68 g/m*3 20.4 C 9.7 km/h
1100 23-05-2014 19:35:00 20.3 C 11.61 g/m*3 20.3 C 4.8 km/h
Sensor: Nr:Datum:Temp:Abs-Feuchte:Windchill:Wind:
Aussen-T/F 1101 23-05-2014 19:40:00 20.2 C 12.94 g/m*3 20.2 C 1.6 km/h
1102 23-05-2014 19:45:00 19.9 C 11.68 g/m*3 19.9 C 3.2 km/h
1103 23-05-2014 19:50:00 19.8 C 11.61 g/m*3 19.8 C 6.4 km/h
1104 23-05-2014 19:55:00 19.8 C 12.13 g/m*3 19.8 C 4.8 km/h
1105 23-05-2014 20:00:00 19.7 C 13.25 g/m*3 19.7 C 1.6 km/h
1106 23-05-2014 20:05:00 19.3 C 11.61 g/m*3 19.3 C 1.6 km/h
1107 23-05-2014 20:10:00 19.2 C 11.71 g/m*3 19.2 C 0 km/h
1108 23-05-2014 20:15:00 19.1 C 13.28 g/m*3 19.1 C 0 km/h
1109 23-05-2014 20:20:00 18.6 C 12.73 g/m*3 18.6 C 3.2 km/h
1110 23-05-2014 20:25:00 18.3 C 12.98 g/m*3 18.3 C 1.6 km/h
1111 23-05-2014 20:30:00 17.9 C 12.83 g/m*3 17.9 C 0 km/h
1112 23-05-2014 20:35:00 17.6 C 12.75 g/m*3 17.6 C 0 km/h
1113 23-05-2014 20:40:00 17.3 C 12.52 g/m*3 17.3 C 0 km/h
1114 23-05-2014 20:45:00 17.2 C 12.45 g/m*3 17.2 C 1.6 km/h
1115 23-05-2014 20:50:00 17 C 12.44 g/m*3 17 C 0 km/h
1116 23-05-2014 20:55:00 16.7 C 12.36 g/m*3 16.7 C 0 km/h
1117 23-05-2014 21:00:00 16.3 C 12.07 g/m*3 16.3 C 1.6 km/h
1118 23-05-2014 21:05:00 16 C 11.99 g/m*3 16 C 0 km/h
1119 23-05-2014 21:10:00 15.7 C 11.91 g/m*3 15.7 C 0 km/h
1120 23-05-2014 21:15:00 15.4 C 11.69 g/m*3 15.4 C 1.6 km/h
1121 23-05-2014 21:20:00 15.3 C 11.62 g/m*3 15.3 C 1.6 km/h
1122 23-05-2014 21:25:00 15.2 C 11.55 g/m*3 15.2 C 1.6 km/h
1123 23-05-2014 21:30:00 15 C 11.54 g/m*3 15 C 0 km/h
1124 23-05-2014 21:35:00 14.9 C 11.47 g/m*3 14.9 C 0 km/h
1125 23-05-2014 21:40:00 14.7 C 11.33 g/m*3 14.7 C 1.6 km/h
Sensor: Nr:Datum:Temp:Abs-Feuchte:Windchill:Wind:
Aussen-T/F 1126 23-05-2014 21:45:00 14.6 C 11.26 g/m*3 14.6 C 3.2 km/h
1127 23-05-2014 21:50:00 14.6 C 11.39 g/m*3 14.6 C 1.6 km/h
1128 23-05-2014 21:55:00 14.4 C 11.25 g/m*3 14.4 C 1.6 km/h
1129 23-05-2014 22:00:00 14.3 C 11.18 g/m*3 14.3 C 0 km/h
1130 23-05-2014 22:05:00 14.3 C 11.18 g/m*3 14.3 C 0 km/h
1131 23-05-2014 22:10:00 14.2 C 11.23 g/m*3 14.2 C 0 km/h
1132 23-05-2014 22:15:00 14.2 C 11.23 g/m*3 14.2 C 0 km/h
1133 23-05-2014 22:20:00 14.1 C 11.17 g/m*3 14.1 C 1.6 km/h
1134 23-05-2014 22:25:00 14.1 C 11.17 g/m*3 14.1 C 0 km/h
1135 23-05-2014 22:30:00 13.9 C 11.03 g/m*3 13.9 C 0 km/h
1136 23-05-2014 22:35:00 13.9 C 11.03 g/m*3 13.9 C 0 km/h
1137 23-05-2014 22:40:00 13.8 C 10.96 g/m*3 13.8 C 1.6 km/h
1138 23-05-2014 22:45:00 13.8 C 10.96 g/m*3 13.8 C 0 km/h
1139 23-05-2014 22:50:00 13.7 C 11.01 g/m*3 13.7 C 0 km/h
1140 23-05-2014 22:55:00 13.7 C 11.01 g/m*3 13.7 C 1.6 km/h
1141 23-05-2014 23:00:00 13.6 C 10.95 g/m*3 13.6 C 0 km/h
1142 23-05-2014 23:05:00 13.6 C 10.95 g/m*3 13.6 C 0 km/h
1143 23-05-2014 23:10:00 13.6 C 10.95 g/m*3 13.6 C 0 km/h
1144 23-05-2014 23:15:00 13.5 C 10.88 g/m*3 13.5 C 0 km/h
1145 23-05-2014 23:20:00 13.4 C 10.81 g/m*3 13.4 C 1.6 km/h
1146 23-05-2014 23:25:00 13.4 C 10.81 g/m*3 13.4 C 0 km/h
1147 23-05-2014 23:30:00 13.3 C 10.74 g/m*3 13.3 C 0 km/h
1148 23-05-2014 23:35:00 13.3 C 10.74 g/m*3 13.3 C 0 km/h
1149 23-05-2014 23:40:00 13.3 C 10.74 g/m*3 13.3 C 0 km/h
1150 23-05-2014 23:45:00 13.2 C 10.68 g/m*3 13.2 C 0 km/h
Sensor: Nr:Datum:Temp:Abs-Feuchte:Windchill:Wind:
Aussen-T/F 1151 23-05-2014 23:50:00 13.2 C 10.68 g/m*3 13.2 C 0 km/h
1152 23-05-2014 23:55:00 13.1 C 10.73 g/m*3 13.1 C 0 km/h
1153 24-05-2014 00:00:00 13.1 C 10.73 g/m*3 13.1 C 0 km/h
1154 24-05-2014 00:05:00 13.1 C 10.73 g/m*3 13.1 C 0 km/h
1155 24-05-2014 00:10:00 12.9 C 10.59 g/m*3 12.9 C 0 km/h
1156 24-05-2014 00:15:00 12.9 C 10.59 g/m*3 12.9 C 0 km/h
1157 24-05-2014 00:20:00 12.9 C 10.59 g/m*3 12.9 C 1.6 km/h
1158 24-05-2014 00:25:00 12.9 C 10.59 g/m*3 12.9 C 0 km/h
1159 24-05-2014 00:30:00 12.8 C 10.64 g/m*3 12.8 C 0 km/h
1160 24-05-2014 00:35:00 12.8 C 10.64 g/m*3 12.8 C 0 km/h
1161 24-05-2014 00:40:00 12.7 C 10.58 g/m*3 12.7 C 0 km/h
1162 24-05-2014 00:45:00 12.7 C 10.46 g/m*3 12.7 C 0 km/h
1163 24-05-2014 00:50:00 12.7 C 10.58 g/m*3 12.7 C 0 km/h
1164 24-05-2014 00:55:00 12.7 C 10.58 g/m*3 12.7 C 0 km/h
1165 24-05-2014 01:00:00 12.6 C 10.51 g/m*3 12.6 C 0 km/h
1166 24-05-2014 01:05:00 12.5 C 10.44 g/m*3 12.5 C 0 km/h
1167 24-05-2014 01:10:00 12.4 C 10.38 g/m*3 12.4 C 0 km/h
1168 24-05-2014 01:15:00 12.4 C 10.38 g/m*3 12.4 C 0 km/h
1169 24-05-2014 01:20:00 12.4 C 10.38 g/m*3 12.4 C 0 km/h
1170 24-05-2014 01:25:00 12.4 C 10.38 g/m*3 12.4 C 0 km/h
1171 24-05-2014 01:30:00 12.4 C 10.38 g/m*3 12.4 C 1.6 km/h
1172 24-05-2014 01:35:00 12.3 C 10.32 g/m*3 12.3 C 0 km/h
1173 24-05-2014 01:40:00 12.2 C 10.25 g/m*3 12.2 C 0 km/h
1174 24-05-2014 01:45:00 12.2 C 10.25 g/m*3 12.2 C 0 km/h
1175 24-05-2014 01:50:00 12.1 C 10.19 g/m*3 12.1 C 0 km/h
Sensor: Nr:Datum:Temp:Abs-Feuchte:Windchill:Wind:
Aussen-T/F 1176 24-05-2014 01:55:00 11.9 C 10.06 g/m*3 11.9 C 0 km/h
1177 24-05-2014 02:00:00 11.8 C 10 g/m*3 11.8 C 0 km/h
1178 24-05-2014 02:05:00 11.7 C 9.94 g/m*3 11.7 C 0 km/h
1179 24-05-2014 02:10:00 11.7 C 9.94 g/m*3 11.7 C 0 km/h
1180 24-05-2014 02:15:00 11.7 C 10.04 g/m*3 11.7 C 0 km/h
1181 24-05-2014 02:20:00 11.7 C 10.04 g/m*3 11.7 C 0 km/h
1182 24-05-2014 02:25:00 11.8 C 10.1 g/m*3 11.8 C 0 km/h
1183 24-05-2014 02:30:00 11.8 C 10.1 g/m*3 11.8 C 0 km/h
1184 24-05-2014 02:35:00 11.8 C 10.1 g/m*3 11.8 C 0 km/h
1185 24-05-2014 02:40:00 11.8 C 10.1 g/m*3 11.8 C 0 km/h
1186 24-05-2014 02:45:00 12 C 10.23 g/m*3 12 C 4.8 km/h
1187 24-05-2014 02:50:00 12.3 C 10.53 g/m*3 12.3 C 14.5 km/h
1188 24-05-2014 02:55:00 12.6 C 10.62 g/m*3 12.6 C 3.2 km/h
1189 24-05-2014 03:00:00 12.8 C 10.75 g/m*3 12.8 C 1.6 km/h
1190 24-05-2014 03:05:00 12.9 C 10.71 g/m*3 12.9 C 4.8 km/h
1191 24-05-2014 03:10:00 13.1 C 10.61 g/m*3 13.1 C 9.7 km/h
1192 24-05-2014 03:15:00 13.6 C 10.36 g/m*3 13.6 C 8.1 km/h
1193 24-05-2014 03:20:00 13.9 C 10.31 g/m*3 13.9 C 11.3 km/h
1194 24-05-2014 03:25:00 14.1 C 10.32 g/m*3 14.1 C 4.8 km/h
1195 24-05-2014 03:30:00 14.1 C 10.32 g/m*3 14.1 C 6.4 km/h
1196 24-05-2014 03:35:00 14.1 C 10.44 g/m*3 14.1 C 3.2 km/h
1197 24-05-2014 03:40:00 14 C 10.25 g/m*3 14 C 4.8 km/h
1198 24-05-2014 03:45:00 14.1 C 10.19 g/m*3 14.1 C 6.4 km/h
1199 24-05-2014 03:50:00 14.1 C 10.19 g/m*3 14.1 C 12.9 km/h
1200 24-05-2014 03:55:00 14.2 C 10.26 g/m*3 14.2 C 12.9 km/h
Sensor: Nr:Datum:Temp:Abs-Feuchte:Windchill:Wind:
Aussen-T/F 1201 24-05-2014 04:00:00 14.2 C 10.14 g/m*3 14.2 C 6.4 km/h
1202 24-05-2014 04:05:00 14.2 C 10.26 g/m*3 14.2 C 4.8 km/h
1203 24-05-2014 04:10:00 14.1 C 10.07 g/m*3 14.1 C 8.1 km/h
1204 24-05-2014 04:15:00 14.1 C 9.95 g/m*3 14.1 C 14.5 km/h
1205 24-05-2014 04:20:00 14.1 C 9.95 g/m*3 14.1 C 9.7 km/h
1206 24-05-2014 04:25:00 14.1 C 9.95 g/m*3 14.1 C 11.3 km/h
1207 24-05-2014 04:30:00 14 C 9.89 g/m*3 14 C 9.7 km/h
1208 24-05-2014 04:35:00 14 C 9.77 g/m*3 14 C 6.4 km/h
1209 24-05-2014 04:40:00 13.9 C 9.83 g/m*3 13.9 C 11.3 km/h
1210 24-05-2014 04:45:00 13.9 C 9.71 g/m*3 13.9 C 8.1 km/h
1211 24-05-2014 04:50:00 13.8 C 9.77 g/m*3 13.8 C 8.1 km/h
1212 24-05-2014 04:55:00 13.8 C 9.65 g/m*3 13.8 C 12.9 km/h
1213 24-05-2014 05:00:00 13.7 C 9.59 g/m*3 13.7 C 9.7 km/h
1214 24-05-2014 05:05:00 13.7 C 9.59 g/m*3 13.7 C 4.8 km/h
1215 24-05-2014 05:10:00 13.7 C 9.59 g/m*3 13.7 C 8.1 km/h
1216 24-05-2014 05:15:00 13.7 C 9.47 g/m*3 13.7 C 1.6 km/h
1217 24-05-2014 05:20:00 13.7 C 9.59 g/m*3 13.7 C 1.6 km/h
1218 24-05-2014 05:25:00 13.6 C 9.65 g/m*3 13.6 C 0 km/h
1219 24-05-2014 05:30:00 13.5 C 9.59 g/m*3 13.5 C 0 km/h
1220 24-05-2014 05:35:00 13.5 C 9.94 g/m*3 13.5 C 0 km/h
1221 24-05-2014 05:40:00 13.3 C 10.05 g/m*3 13.3 C 0 km/h
1222 24-05-2014 05:45:00 13.1 C 10.16 g/m*3 13.1 C 0 km/h
1223 24-05-2014 05:50:00 12.7 C 10.13 g/m*3 12.7 C 1.6 km/h
1224 24-05-2014 05:55:00 12.5 C 10.11 g/m*3 12.5 C 1.6 km/h
1225 24-05-2014 06:00:00 12.3 C 10.1 g/m*3 12.3 C 1.6 km/h
Sensor: Nr:Datum:Temp:Abs-Feuchte:Windchill:Wind:
Aussen-T/F 1226 24-05-2014 06:05:00 12.3 C 10.1 g/m*3 12.3 C 0 km/h
1227 24-05-2014 06:10:00 12.2 C 10.04 g/m*3 12.2 C 1.6 km/h
1228 24-05-2014 06:15:00 12.2 C 10.14 g/m*3 12.2 C 1.6 km/h
1229 24-05-2014 06:20:00 12.1 C 10.08 g/m*3 12.1 C 0 km/h
1230 24-05-2014 06:25:00 12.1 C 10.08 g/m*3 12.1 C 1.6 km/h
1231 24-05-2014 06:30:00 12.2 C 10.25 g/m*3 12.2 C 8.1 km/h
1232 24-05-2014 06:35:00 12.2 C 10.25 g/m*3 12.2 C 1.6 km/h
1233 24-05-2014 06:40:00 12.2 C 10.25 g/m*3 12.2 C 0 km/h
1234 24-05-2014 06:45:00 12.2 C 10.25 g/m*3 12.2 C 0 km/h
1235 24-05-2014 06:50:00 12.2 C 10.25 g/m*3 12.2 C 0 km/h
1236 24-05-2014 06:55:00 12.2 C 10.25 g/m*3 12.2 C 1.6 km/h
1237 24-05-2014 07:00:00 12.1 C 10.19 g/m*3 12.1 C 0 km/h
1238 24-05-2014 07:05:00 12.2 C 10.36 g/m*3 12.2 C 0 km/h
1239 24-05-2014 07:10:00 12.2 C 10.36 g/m*3 12.2 C 0 km/h
1240 24-05-2014 07:15:00 12.2 C 10.36 g/m*3 12.2 C 0 km/h
1241 24-05-2014 07:20:00 12.2 C 10.36 g/m*3 12.2 C 1.6 km/h
1242 24-05-2014 07:25:00 12.2 C 10.36 g/m*3 12.2 C 1.6 km/h
1243 24-05-2014 07:30:00 12.1 C 10.29 g/m*3 12.1 C 4.8 km/h
1244 24-05-2014 07:35:00 12.1 C 10.19 g/m*3 12.1 C 3.2 km/h
1245 24-05-2014 07:40:00 12.1 C 10.19 g/m*3 12.1 C 3.2 km/h
1246 24-05-2014 07:45:00 12.2 C 10.25 g/m*3 12.2 C 1.6 km/h
1247 24-05-2014 07:50:00 12.2 C 10.25 g/m*3 12.2 C 1.6 km/h
1248 24-05-2014 07:55:00 12.3 C 10.21 g/m*3 12.3 C 4.8 km/h
1249 24-05-2014 08:00:00 12.4 C 10.38 g/m*3 12.4 C 4.8 km/h
1250 24-05-2014 08:05:00 12.4 C 10.38 g/m*3 12.4 C 0 km/h
Sensor: Nr:Datum:Temp:Abs-Feuchte:Windchill:Wind:
Aussen-T/F 1251 24-05-2014 08:10:00 12.5 C 10.44 g/m*3 12.5 C 1.6 km/h
1252 24-05-2014 08:15:00 12.6 C 10.51 g/m*3 12.6 C 1.6 km/h
1253 24-05-2014 08:20:00 12.6 C 10.51 g/m*3 12.6 C 0 km/h
1254 24-05-2014 08:25:00 12.7 C 10.58 g/m*3 12.7 C 0 km/h
1255 24-05-2014 08:30:00 12.7 C 10.58 g/m*3 12.7 C 0 km/h
1256 24-05-2014 08:35:00 12.8 C 10.64 g/m*3 12.8 C 0 km/h
1257 24-05-2014 08:40:00 12.8 C 10.64 g/m*3 12.8 C 3.2 km/h
1258 24-05-2014 08:45:00 12.9 C 10.71 g/m*3 12.9 C 3.2 km/h
1259 24-05-2014 08:50:00 12.9 C 10.71 g/m*3 12.9 C 0 km/h
1260 24-05-2014 08:55:00 13 C 10.89 g/m*3 13 C 0 km/h
1261 24-05-2014 09:00:00 13.2 C 11.02 g/m*3 13.2 C 0 km/h
1262 24-05-2014 09:05:00 13.3 C 11.09 g/m*3 13.3 C 3.2 km/h
1263 24-05-2014 09:10:00 13.3 C 11.09 g/m*3 13.3 C 4.8 km/h
1264 24-05-2014 09:15:00 13.5 C 11.23 g/m*3 13.5 C 0 km/h
1265 24-05-2014 09:20:00 13.6 C 11.18 g/m*3 13.6 C 0 km/h
1266 24-05-2014 09:25:00 13.6 C 11.18 g/m*3 13.6 C 0 km/h
1267 24-05-2014 09:30:00 13.6 C 11.18 g/m*3 13.6 C 0 km/h
1268 24-05-2014 09:35:00 13.6 C 11.18 g/m*3 13.6 C 0 km/h
1269 24-05-2014 09:40:00 13.7 C 11.37 g/m*3 13.7 C 0 km/h
1270 24-05-2014 09:45:00 13.8 C 11.44 g/m*3 13.8 C 0 km/h
1271 24-05-2014 09:50:00 14 C 11.58 g/m*3 14 C 0 km/h
1272 24-05-2014 09:55:00 14.2 C 11.72 g/m*3 14.2 C 0 km/h
1273 24-05-2014 10:00:00 14.3 C 11.79 g/m*3 14.3 C 0 km/h
1274 24-05-2014 10:05:00 14.4 C 11.87 g/m*3 14.4 C 0 km/h
1275 24-05-2014 10:10:00 14.4 C 11.62 g/m*3 14.4 C 0 km/h
Sensor: Nr:Datum:Temp:Abs-Feuchte:Windchill:Wind:
Aussen-T/F 1276 24-05-2014 10:15:00 14.5 C 11.82 g/m*3 14.5 C 3.2 km/h
1277 24-05-2014 10:20:00 14.7 C 11.83 g/m*3 14.7 C 1.6 km/h
1278 24-05-2014 10:25:00 14.8 C 11.65 g/m*3 14.8 C 8.1 km/h
1279 24-05-2014 10:30:00 14.9 C 11.6 g/m*3 14.9 C 9.7 km/h
1280 24-05-2014 10:35:00 15 C 11.41 g/m*3 15 C 11.3 km/h
1281 24-05-2014 10:40:00 15 C 11.41 g/m*3 15 C 14.5 km/h
1282 24-05-2014 10:45:00 14.7 C 10.95 g/m*3 14.7 C 14.5 km/h
1283 24-05-2014 10:50:00 14.4 C 11 g/m*3 14.4 C 11.3 km/h
1284 24-05-2014 10:55:00 14.3 C 10.81 g/m*3 14.3 C 14.5 km/h
1285 24-05-2014 11:00:00 14.3 C 10.93 g/m*3 14.3 C 11.3 km/h
1286 24-05-2014 11:05:00 14.4 C 11 g/m*3 14.4 C 11.3 km/h
1287 24-05-2014 11:10:00 14.6 C 11.14 g/m*3 14.6 C 4.8 km/h
1288 24-05-2014 11:15:00 14.7 C 10.95 g/m*3 14.7 C 12.9 km/h
1289 24-05-2014 11:20:00 14.6 C 10.76 g/m*3 14.6 C 14.5 km/h
1290 24-05-2014 11:25:00 14.4 C 10.51 g/m*3 14.4 C 16.1 km/h
1291 24-05-2014 11:30:00 14.3 C 10.57 g/m*3 14.3 C 16.1 km/h
1292 24-05-2014 11:35:00 14.3 C 10.44 g/m*3 14.3 C 11.3 km/h
1293 24-05-2014 11:40:00 14.6 C 10.76 g/m*3 14.6 C 8.1 km/h
1294 24-05-2014 11:45:00 14.9 C 10.83 g/m*3 14.9 C 8.1 km/h
1295 24-05-2014 11:50:00 15.1 C 10.45 g/m*3 15.1 C 19.3 km/h
1296 24-05-2014 11:55:00 14.9 C 10.2 g/m*3 14.9 C 16.1 km/h
1297 24-05-2014 12:00:00 14.8 C 10.01 g/m*3 14.8 C 16.1 km/h
1298 24-05-2014 12:05:00 14.6 C 9.76 g/m*3 14.6 C 9.7 km/h
1299 24-05-2014 12:10:00 14.4 C 10.01 g/m*3 14.4 C 8.1 km/h
1300 24-05-2014 12:15:00 14.4 C 10.01 g/m*3 14.4 C 8.1 km/h
Sensor: Nr:Datum:Temp:Abs-Feuchte:Windchill:Wind:
Aussen-T/F 1301 24-05-2014 12:20:00 14.6 C 10.26 g/m*3 14.6 C 11.3 km/h
1302 24-05-2014 12:25:00 14.7 C 10.32 g/m*3 14.7 C 6.4 km/h
1303 24-05-2014 12:30:00 14.9 C 10.45 g/m*3 14.9 C 11.3 km/h
1304 24-05-2014 12:35:00 15.2 C 10.38 g/m*3 15.2 C 6.4 km/h
1305 24-05-2014 12:40:00 15.7 C 10.84 g/m*3 15.7 C 11.3 km/h
1306 24-05-2014 12:45:00 16.3 C 10.96 g/m*3 16.3 C 11.3 km/h
1307 24-05-2014 12:50:00 16.3 C 10.54 g/m*3 16.3 C 14.5 km/h
1308 24-05-2014 12:55:00 16.3 C 10.82 g/m*3 16.3 C 12.9 km/h
1309 24-05-2014 13:00:00 16.4 C 10.61 g/m*3 16.4 C 9.7 km/h
1310 24-05-2014 13:05:00 16.4 C 10.47 g/m*3 16.4 C 9.7 km/h
1311 24-05-2014 13:10:00 16.6 C 10.74 g/m*3 16.6 C 6.4 km/h
1312 24-05-2014 13:15:00 16.7 C 10.66 g/m*3 16.7 C 9.7 km/h
1313 24-05-2014 13:20:00 16.7 C 10.66 g/m*3 16.7 C 8.1 km/h
1314 24-05-2014 13:25:00 16.9 C 10.64 g/m*3 16.9 C 16.1 km/h
1315 24-05-2014 13:30:00 17.2 C 10.98 g/m*3 17.2 C 12.9 km/h
1316 24-05-2014 13:35:00 17.4 C 10.67 g/m*3 17.4 C 9.7 km/h
1317 24-05-2014 13:40:00 17.5 C 10.73 g/m*3 17.5 C 9.7 km/h
1318 24-05-2014 13:45:00 17.5 C 10.44 g/m*3 17.5 C 11.3 km/h
1319 24-05-2014 13:50:00 17.4 C 10.37 g/m*3 17.4 C 9.7 km/h
1320 24-05-2014 13:55:00 17.4 C 10.37 g/m*3 17.4 C 11.3 km/h
1321 24-05-2014 14:00:00 17.4 C 10.37 g/m*3 17.4 C 8.1 km/h
1322 24-05-2014 14:05:00 17.4 C 10.23 g/m*3 17.4 C 9.7 km/h
1323 24-05-2014 14:10:00 17.4 C 10.23 g/m*3 17.4 C 11.3 km/h
1324 24-05-2014 14:15:00 17.4 C 10.23 g/m*3 17.4 C 8.1 km/h
1325 24-05-2014 14:20:00 17.4 C 10.37 g/m*3 17.4 C 6.4 km/h
Sensor: Nr:Datum:Temp:Abs-Feuchte:Windchill:Wind:
Aussen-T/F 1326 24-05-2014 14:25:00 17.6 C 10.2 g/m*3 17.6 C 11.3 km/h
1327 24-05-2014 14:30:00 18 C 9.98 g/m*3 18 C 17.7 km/h
1328 24-05-2014 14:35:00 18.1 C 10.04 g/m*3 18.1 C 11.3 km/h
1329 24-05-2014 14:40:00 18.1 C 10.04 g/m*3 18.1 C 11.3 km/h
1330 24-05-2014 14:45:00 18.5 C 10.28 g/m*3 18.5 C 11.3 km/h
1331 24-05-2014 14:50:00 18.7 C 9.61 g/m*3 18.7 C 17.7 km/h
1332 24-05-2014 14:55:00 18.3 C 9.69 g/m*3 18.3 C 8.1 km/h
1333 24-05-2014 15:00:00 18.3 C 9.85 g/m*3 18.3 C 16.1 km/h
1334 24-05-2014 15:05:00 18.5 C 9.81 g/m*3 18.5 C 14.5 km/h
1335 24-05-2014 15:10:00 18.5 C 9.81 g/m*3 18.5 C 6.4 km/h
1336 24-05-2014 15:15:00 18.5 C 9.97 g/m*3 18.5 C 16.1 km/h
1337 24-05-2014 15:20:00 18.8 C 9.66 g/m*3 18.8 C 19.3 km/h
1338 24-05-2014 15:25:00 19.1 C 10 g/m*3 19.1 C 12.9 km/h
1339 24-05-2014 15:30:00 19.4 C 9.34 g/m*3 19.4 C 17.7 km/h
1340 24-05-2014 15:35:00 19.6 C 9.79 g/m*3 19.6 C 11.3 km/h
1341 24-05-2014 15:40:00 19.7 C 9.85 g/m*3 19.7 C 14.5 km/h
1342 24-05-2014 15:45:00 19.7 C 9.51 g/m*3 19.7 C 12.9 km/h
1343 24-05-2014 15:50:00 19.4 C 9.68 g/m*3 19.4 C 8.1 km/h
1344 24-05-2014 15:55:00 19.1 C 9.51 g/m*3 19.1 C 8.1 km/h
1345 24-05-2014 16:00:00 18.7 C 9.61 g/m*3 18.7 C 9.7 km/h
1346 24-05-2014 16:05:00 18.4 C 9.44 g/m*3 18.4 C 16.1 km/h
1347 24-05-2014 16:10:00 18.7 C 9.29 g/m*3 18.7 C 19.3 km/h
1348 24-05-2014 16:15:00 18.3 C 9.22 g/m*3 18.3 C 12.9 km/h
1349 24-05-2014 16:20:00 18.1 C 9.73 g/m*3 18.1 C 9.7 km/h
1350 24-05-2014 16:25:00 18.3 C 9.54 g/m*3 18.3 C 16.1 km/h
Sensor: Nr:Datum:Temp:Abs-Feuchte:Windchill:Wind:
Aussen-T/F 1351 24-05-2014 16:30:00 18.6 C 9.39 g/m*3 18.6 C 12.9 km/h
1352 24-05-2014 16:35:00 19.1 C 9.51 g/m*3 19.1 C 9.7 km/h
1353 24-05-2014 16:40:00 19.1 C 9.67 g/m*3 19.1 C 11.3 km/h
1354 24-05-2014 16:45:00 19.1 C 9.67 g/m*3 19.1 C 11.3 km/h
1355 24-05-2014 16:50:00 18.8 C 9.02 g/m*3 18.8 C 9.7 km/h
1356 24-05-2014 16:55:00 18.8 C 9.5 g/m*3 18.8 C 14.5 km/h
1357 24-05-2014 17:00:00 19.3 C 9.79 g/m*3 19.3 C 14.5 km/h
1358 24-05-2014 17:05:00 20 C 9.33 g/m*3 20 C 19.3 km/h
1359 24-05-2014 17:10:00 19.8 C 9.22 g/m*3 19.8 C 16.1 km/h
1360 24-05-2014 17:15:00 19.4 C 8.84 g/m*3 19.4 C 17.7 km/h
1361 24-05-2014 17:20:00 19.2 C 8.74 g/m*3 19.2 C 14.5 km/h
1362 24-05-2014 17:25:00 19.2 C 8.74 g/m*3 19.2 C 9.7 km/h
1363 24-05-2014 17:30:00 19.3 C 8.96 g/m*3 19.3 C 9.7 km/h
1364 24-05-2014 17:35:00 19.5 C 8.73 g/m*3 19.5 C 12.9 km/h
1365 24-05-2014 17:40:00 19.6 C 8.78 g/m*3 19.6 C 16.1 km/h
1366 24-05-2014 17:45:00 19.7 C 8.83 g/m*3 19.7 C 12.9 km/h
1367 24-05-2014 17:50:00 19.8 C 9.05 g/m*3 19.8 C 14.5 km/h
1368 24-05-2014 17:55:00 20.1 C 9.04 g/m*3 20.1 C 14.5 km/h
1369 24-05-2014 18:00:00 19.9 C 8.42 g/m*3 19.9 C 11.3 km/h
1370 24-05-2014 18:05:00 19.4 C 8.18 g/m*3 19.4 C 12.9 km/h
1371 24-05-2014 18:10:00 19.4 C 8.51 g/m*3 19.4 C 14.5 km/h
1372 24-05-2014 18:15:00 19.8 C 8.37 g/m*3 19.8 C 12.9 km/h
1373 24-05-2014 18:20:00 19.6 C 8.27 g/m*3 19.6 C 12.9 km/h
1374 24-05-2014 18:25:00 19 C 7.99 g/m*3 19 C 8.1 km/h
1375 24-05-2014 18:30:00 18.6 C 8.59 g/m*3 18.6 C 4.8 km/h
Sensor: Nr:Datum:Temp:Abs-Feuchte:Windchill:Wind:
Aussen-T/F 1376 24-05-2014 18:35:00 18.3 C 8.6 g/m*3 18.3 C 4.8 km/h
1377 24-05-2014 18:40:00 18 C 9.06 g/m*3 18 C 4.8 km/h
1378 24-05-2014 18:45:00 17.8 C 8.8 g/m*3 17.8 C 1.6 km/h
1379 24-05-2014 18:50:00 17.5 C 9.24 g/m*3 17.5 C 0 km/h
1380 24-05-2014 18:55:00 17.2 C 10.4 g/m*3 17.2 C 0 km/h
1381 24-05-2014 19:00:00 16.8 C 9.15 g/m*3 16.8 C 1.6 km/h
1382 24-05-2014 19:05:00 16.5 C 9.97 g/m*3 16.5 C 0 km/h
1383 24-05-2014 19:10:00 16.3 C 10.13 g/m*3 16.3 C 0 km/h
1384 24-05-2014 19:15:00 16.3 C 9.02 g/m*3 16.3 C 1.6 km/h
1385 24-05-2014 19:20:00 16.3 C 9.02 g/m*3 16.3 C 1.6 km/h
1386 24-05-2014 19:25:00 16.4 C 9.21 g/m*3 16.4 C 3.2 km/h
1387 24-05-2014 19:30:00 16.4 C 10.05 g/m*3 16.4 C 1.6 km/h
1388 24-05-2014 19:35:00 16.3 C 10.41 g/m*3 16.3 C 0 km/h
1389 24-05-2014 19:40:00 16.2 C 10.48 g/m*3 16.2 C 0 km/h
1390 24-05-2014 19:45:00 16 C 10.35 g/m*3 16 C 0 km/h
1391 24-05-2014 19:50:00 15.8 C 10.63 g/m*3 15.8 C 1.6 km/h
1392 24-05-2014 19:55:00 15.8 C 10.1 g/m*3 15.8 C 0 km/h
1393 24-05-2014 20:00:00 16.1 C 10.55 g/m*3 16.1 C 4.8 km/h
1394 24-05-2014 20:05:00 16.2 C 9.52 g/m*3 16.2 C 6.4 km/h
1395 24-05-2014 20:10:00 16.3 C 10.54 g/m*3 16.3 C 3.2 km/h
1396 24-05-2014 20:15:00 16.2 C 10.34 g/m*3 16.2 C 0 km/h
1397 24-05-2014 20:20:00 16.1 C 10.55 g/m*3 16.1 C 0 km/h
1398 24-05-2014 20:25:00 16 C 10.22 g/m*3 16 C 1.6 km/h
1399 24-05-2014 20:30:00 15.8 C 10.5 g/m*3 15.8 C 1.6 km/h
1400 24-05-2014 20:35:00 15.6 C 10.51 g/m*3 15.6 C 1.6 km/h
Sensor: Nr:Datum:Temp:Abs-Feuchte:Windchill:Wind:
Aussen-T/F 1401 24-05-2014 20:40:00 15.4 C 10.25 g/m*3 15.4 C 1.6 km/h
1402 24-05-2014 20:45:00 15.2 C 10.38 g/m*3 15.2 C 1.6 km/h
1403 24-05-2014 20:50:00 14.9 C 10.32 g/m*3 14.9 C 1.6 km/h
1404 24-05-2014 20:55:00 14.7 C 10.32 g/m*3 14.7 C 1.6 km/h
1405 24-05-2014 21:00:00 14.4 C 10.01 g/m*3 14.4 C 1.6 km/h
1406 24-05-2014 21:05:00 14.1 C 9.95 g/m*3 14.1 C 3.2 km/h
1407 24-05-2014 21:10:00 13.9 C 9.83 g/m*3 13.9 C 1.6 km/h
1408 24-05-2014 21:15:00 13.8 C 9.77 g/m*3 13.8 C 1.6 km/h
1409 24-05-2014 21:20:00 13.6 C 9.77 g/m*3 13.6 C 1.6 km/h
1410 24-05-2014 21:25:00 13.5 C 9.71 g/m*3 13.5 C 1.6 km/h
1411 24-05-2014 21:30:00 13.4 C 9.88 g/m*3 13.4 C 1.6 km/h
1412 24-05-2014 21:35:00 13.2 C 9.76 g/m*3 13.2 C 1.6 km/h
1413 24-05-2014 21:40:00 13.1 C 9.7 g/m*3 13.1 C 0 km/h
1414 24-05-2014 21:45:00 12.9 C 9.58 g/m*3 12.9 C 0 km/h
1415 24-05-2014 21:50:00 12.7 C 9.35 g/m*3 12.7 C 0 km/h
1416 24-05-2014 21:55:00 12.6 C 9.29 g/m*3 12.6 C 0 km/h
1417 24-05-2014 22:00:00 12.4 C 9.18 g/m*3 12.4 C 0 km/h
1418 24-05-2014 22:05:00 12.3 C 9.23 g/m*3 12.3 C 0 km/h
1419 24-05-2014 22:10:00 12.3 C 9.23 g/m*3 12.3 C 0 km/h
1420 24-05-2014 22:35:00 11.8 C 9.16 g/m*3 11.8 C 0 km/h
1421 24-05-2014 22:40:00 11.8 C 9.16 g/m*3 11.8 C 0 km/h
1422 24-05-2014 22:45:00 11.7 C 9.1 g/m*3 11.7 C 0 km/h
1423 24-05-2014 22:50:00 11.6 C 9.04 g/m*3 11.6 C 0 km/h
1424 24-05-2014 22:55:00 11.4 C 8.93 g/m*3 11.4 C 0 km/h
1425 24-05-2014 23:00:00 11.3 C 8.87 g/m*3 11.3 C 0 km/h
Sensor: Nr:Datum:Temp:Abs-Feuchte:Windchill:Wind:
Aussen-T/F 1426 24-05-2014 23:05:00 11.3 C 8.98 g/m*3 11.3 C 0 km/h
1427 24-05-2014 23:10:00 11.2 C 8.92 g/m*3 11.2 C 0 km/h
1428 24-05-2014 23:15:00 11.2 C 8.82 g/m*3 11.2 C 0 km/h
1429 24-05-2014 23:20:00 11.3 C 8.87 g/m*3 11.3 C 0 km/h
1430 24-05-2014 23:25:00 11.3 C 8.87 g/m*3 11.3 C 0 km/h
1431 24-05-2014 23:30:00 11.2 C 8.82 g/m*3 11.2 C 0 km/h
1432 24-05-2014 23:35:00 11.1 C 8.76 g/m*3 11.1 C 0 km/h
1433 24-05-2014 23:40:00 11 C 8.81 g/m*3 11 C 0 km/h
1434 24-05-2014 23:45:00 10.9 C 8.75 g/m*3 10.9 C 0 km/h
1435 24-05-2014 23:50:00 10.8 C 8.7 g/m*3 10.8 C 0 km/h
1436 24-05-2014 23:55:00 10.7 C 8.74 g/m*3 10.7 C 0 km/h
1437 25-05-2014 00:00:00 10.7 C 8.74 g/m*3 10.7 C 0 km/h
1438 25-05-2014 00:05:00 10.7 C 8.74 g/m*3 10.7 C 0 km/h
1439 25-05-2014 00:10:00 10.6 C 8.69 g/m*3 10.6 C 0 km/h
1440 25-05-2014 00:15:00 10.5 C 8.53 g/m*3 10.5 C 1.6 km/h
1441 25-05-2014 00:20:00 10.4 C 8.48 g/m*3 10.4 C 1.6 km/h
1442 25-05-2014 00:25:00 10.3 C 8.52 g/m*3 10.3 C 0 km/h
1443 25-05-2014 00:30:00 10.2 C 8.47 g/m*3 10.2 C 0 km/h
1444 25-05-2014 00:35:00 10 C 8.46 g/m*3 10 C 0 km/h
1445 25-05-2014 00:40:00 9.9 C 8.4 g/m*3 9.9 C 0 km/h
1446 25-05-2014 00:45:00 9.9 C 8.5 g/m*3 9.9 C 0 km/h
1447 25-05-2014 00:50:00 9.8 C 8.44 g/m*3 9.8 C 0 km/h
1448 25-05-2014 00:55:00 9.8 C 8.44 g/m*3 9.8 C 0 km/h
1449 25-05-2014 01:00:00 9.7 C 8.39 g/m*3 9.7 C 0 km/h
1450 25-05-2014 01:05:00 9.7 C 8.39 g/m*3 9.7 C 0 km/h
Sensor: Nr:Datum:Temp:Abs-Feuchte:Windchill:Wind:
Aussen-T/F 1451 25-05-2014 01:10:00 9.6 C 8.34 g/m*3 9.6 C 0 km/h
1452 25-05-2014 01:15:00 9.5 C 8.28 g/m*3 9.5 C 0 km/h
1453 25-05-2014 01:20:00 9.5 C 8.28 g/m*3 9.5 C 0 km/h
1454 25-05-2014 01:25:00 9.4 C 8.23 g/m*3 9.4 C 0 km/h
1455 25-05-2014 01:30:00 9.3 C 8.27 g/m*3 9.3 C 0 km/h
1456 25-05-2014 01:35:00 9.3 C 8.27 g/m*3 9.3 C 0 km/h
1457 25-05-2014 01:40:00 9.3 C 8.27 g/m*3 9.3 C 0 km/h
1458 25-05-2014 01:45:00 9.3 C 8.27 g/m*3 9.3 C 0 km/h
1459 25-05-2014 01:50:00 9.3 C 8.36 g/m*3 9.3 C 0 km/h
1460 25-05-2014 01:55:00 9.3 C 8.36 g/m*3 9.3 C 0 km/h
1461 25-05-2014 02:00:00 9.2 C 8.22 g/m*3 9.2 C 0 km/h
1462 25-05-2014 02:05:00 9.1 C 8.16 g/m*3 9.1 C 0 km/h
1463 25-05-2014 02:10:00 9 C 8.11 g/m*3 9 C 0 km/h
1464 25-05-2014 02:15:00 8.9 C 8.15 g/m*3 8.9 C 0 km/h
1465 25-05-2014 02:20:00 8.9 C 8.15 g/m*3 8.9 C 0 km/h
1466 25-05-2014 02:25:00 8.9 C 8.15 g/m*3 8.9 C 0 km/h
1467 25-05-2014 02:30:00 8.8 C 8.09 g/m*3 8.8 C 0 km/h
1468 25-05-2014 02:35:00 8.8 C 8.09 g/m*3 8.8 C 0 km/h
1469 25-05-2014 02:40:00 8.7 C 8.04 g/m*3 8.7 C 0 km/h
1470 25-05-2014 02:45:00 8.7 C 8.13 g/m*3 8.7 C 0 km/h
1471 25-05-2014 02:50:00 8.7 C 8.04 g/m*3 8.7 C 0 km/h
1472 25-05-2014 02:55:00 8.7 C 8.13 g/m*3 8.7 C 0 km/h
1473 25-05-2014 03:00:00 8.6 C 8.08 g/m*3 8.6 C 0 km/h
1474 25-05-2014 03:05:00 8.6 C 8.08 g/m*3 8.6 C 0 km/h
1475 25-05-2014 03:10:00 8.5 C 8.03 g/m*3 8.5 C 0 km/h
Sensor: Nr:Datum:Temp:Abs-Feuchte:Windchill:Wind:
Aussen-T/F 1476 25-05-2014 03:15:00 8.5 C 8.03 g/m*3 8.5 C 0 km/h
1477 25-05-2014 03:20:00 8.4 C 7.97 g/m*3 8.4 C 0 km/h
1478 25-05-2014 03:25:00 8.3 C 7.92 g/m*3 8.3 C 0 km/h
1479 25-05-2014 03:30:00 8.3 C 7.92 g/m*3 8.3 C 0 km/h
1480 25-05-2014 03:35:00 8.2 C 7.87 g/m*3 8.2 C 0 km/h
1481 25-05-2014 03:40:00 8.2 C 7.87 g/m*3 8.2 C 0 km/h
1482 25-05-2014 03:45:00 8.2 C 7.87 g/m*3 8.2 C 0 km/h
1483 25-05-2014 03:50:00 8.2 C 7.87 g/m*3 8.2 C 0 km/h
1484 25-05-2014 03:55:00 8.1 C 7.9 g/m*3 8.1 C 0 km/h
1485 25-05-2014 04:00:00 8.1 C 7.9 g/m*3 8.1 C 0 km/h
1486 25-05-2014 04:05:00 8.1 C 7.9 g/m*3 8.1 C 0 km/h
1487 25-05-2014 04:10:00 8 C 7.85 g/m*3 8 C 0 km/h
1488 25-05-2014 04:15:00 7.9 C 7.8 g/m*3 7.9 C 0 km/h
1489 25-05-2014 04:20:00 7.9 C 7.8 g/m*3 7.9 C 0 km/h
1490 25-05-2014 04:25:00 7.9 C 7.8 g/m*3 7.9 C 0 km/h
1491 25-05-2014 04:30:00 7.9 C 7.8 g/m*3 7.9 C 0 km/h
1492 25-05-2014 04:35:00 7.8 C 7.75 g/m*3 7.8 C 0 km/h
1493 25-05-2014 04:40:00 7.8 C 7.75 g/m*3 7.8 C 0 km/h
1494 25-05-2014 04:45:00 7.8 C 7.75 g/m*3 7.8 C 0 km/h
1495 25-05-2014 04:50:00 7.8 C 7.75 g/m*3 7.8 C 0 km/h
1496 25-05-2014 04:55:00 7.7 C 7.7 g/m*3 7.7 C 0 km/h
1497 25-05-2014 05:00:00 7.7 C 7.7 g/m*3 7.7 C 0 km/h
1498 25-05-2014 05:05:00 7.7 C 7.7 g/m*3 7.7 C 0 km/h
1499 25-05-2014 05:10:00 7.7 C 7.7 g/m*3 7.7 C 0 km/h
1500 25-05-2014 05:15:00 7.6 C 7.65 g/m*3 7.6 C 0 km/h
Sensor: Nr:Datum:Temp:Abs-Feuchte:Windchill:Wind:
Aussen-T/F 1501 25-05-2014 05:20:00 7.6 C 7.65 g/m*3 7.6 C 0 km/h
1502 25-05-2014 05:25:00 7.5 C 7.6 g/m*3 7.5 C 0 km/h
1503 25-05-2014 05:30:00 7.5 C 7.68 g/m*3 7.5 C 0 km/h
1504 25-05-2014 05:35:00 7.5 C 7.68 g/m*3 7.5 C 0 km/h
1505 25-05-2014 05:40:00 7.5 C 7.68 g/m*3 7.5 C 0 km/h
1506 25-05-2014 05:45:00 7.5 C 7.68 g/m*3 7.5 C 0 km/h
1507 25-05-2014 05:50:00 7.4 C 7.63 g/m*3 7.4 C 0 km/h
1508 25-05-2014 05:55:00 7.4 C 7.63 g/m*3 7.4 C 0 km/h
1509 25-05-2014 06:00:00 7.4 C 7.63 g/m*3 7.4 C 0 km/h
1510 25-05-2014 06:05:00 7.4 C 7.63 g/m*3 7.4 C 1.6 km/h
1511 25-05-2014 06:10:00 7.5 C 7.68 g/m*3 7.5 C 1.6 km/h
1512 25-05-2014 06:15:00 7.5 C 7.68 g/m*3 7.5 C 0 km/h
1513 25-05-2014 06:20:00 7.5 C 7.68 g/m*3 7.5 C 0 km/h
1514 25-05-2014 06:25:00 7.5 C 7.68 g/m*3 7.5 C 0 km/h
1515 25-05-2014 06:30:00 7.5 C 7.68 g/m*3 7.5 C 0 km/h
1516 25-05-2014 06:35:00 7.5 C 7.68 g/m*3 7.5 C 0 km/h
1517 25-05-2014 06:40:00 7.5 C 7.68 g/m*3 7.5 C 0 km/h
1518 25-05-2014 06:45:00 7.5 C 7.68 g/m*3 7.5 C 0 km/h
1519 25-05-2014 06:50:00 7.5 C 7.68 g/m*3 7.5 C 0 km/h
1520 25-05-2014 06:55:00 7.6 C 7.73 g/m*3 7.6 C 3.2 km/h
1521 25-05-2014 07:00:00 7.7 C 7.78 g/m*3 7.7 C 4.8 km/h
1522 25-05-2014 07:05:00 7.8 C 7.83 g/m*3 7.8 C 3.2 km/h
1523 25-05-2014 07:10:00 7.8 C 7.83 g/m*3 7.8 C 3.2 km/h
1524 25-05-2014 07:15:00 7.8 C 7.83 g/m*3 7.8 C 3.2 km/h
1525 25-05-2014 07:20:00 7.9 C 7.89 g/m*3 7.9 C 3.2 km/h
Sensor: Nr:Datum:Temp:Abs-Feuchte:Windchill:Wind:
Aussen-T/F 1526 25-05-2014 07:25:00 7.9 C 7.89 g/m*3 7.9 C 3.2 km/h
1527 25-05-2014 07:30:00 8 C 8.02 g/m*3 8 C 0 km/h
1528 25-05-2014 07:35:00 8.1 C 8.07 g/m*3 8.1 C 1.6 km/h
1529 25-05-2014 07:40:00 8.2 C 8.04 g/m*3 8.2 C 0 km/h
1530 25-05-2014 07:45:00 8.3 C 8.18 g/m*3 8.3 C 0 km/h
1531 25-05-2014 07:50:00 8.4 C 8.23 g/m*3 8.4 C 1.6 km/h
1532 25-05-2014 07:55:00 8.6 C 8.34 g/m*3 8.6 C 0 km/h
1533 25-05-2014 08:00:00 8.9 C 8.41 g/m*3 8.9 C 0 km/h
1534 25-05-2014 08:05:00 9.1 C 8.52 g/m*3 9.1 C 0 km/h
1535 25-05-2014 08:10:00 9.3 C 8.54 g/m*3 9.3 C 0 km/h
1536 25-05-2014 08:15:00 9.6 C 8.7 g/m*3 9.6 C 0 km/h
1537 25-05-2014 08:20:00 9.8 C 8.72 g/m*3 9.8 C 0 km/h
1538 25-05-2014 08:25:00 10.2 C 8.85 g/m*3 10.2 C 0 km/h
1539 25-05-2014 08:30:00 10.3 C 8.91 g/m*3 10.3 C 0 km/h
1540 25-05-2014 08:35:00 10.6 C 8.98 g/m*3 10.6 C 0 km/h
1541 25-05-2014 08:40:00 10.8 C 8.99 g/m*3 10.8 C 0 km/h
1542 25-05-2014 08:45:00 11.1 C 9.07 g/m*3 11.1 C 0 km/h
1543 25-05-2014 08:50:00 11.3 C 9.18 g/m*3 11.3 C 0 km/h
1544 25-05-2014 08:55:00 11.4 C 9.14 g/m*3 11.4 C 0 km/h
1545 25-05-2014 09:00:00 11.6 C 9.25 g/m*3 11.6 C 0 km/h
1546 25-05-2014 09:05:00 11.6 C 9.25 g/m*3 11.6 C 0 km/h
1547 25-05-2014 09:10:00 11.5 C 9.19 g/m*3 11.5 C 0 km/h
1548 25-05-2014 09:15:00 11.4 C 9.24 g/m*3 11.4 C 0 km/h
1549 25-05-2014 09:20:00 11.4 C 9.34 g/m*3 11.4 C 0 km/h
1550 25-05-2014 09:25:00 11.6 C 9.46 g/m*3 11.6 C 0 km/h
Sensor: Nr:Datum:Temp:Abs-Feuchte:Windchill:Wind:
Aussen-T/F 1551 25-05-2014 09:30:00 11.7 C 9.62 g/m*3 11.7 C 0 km/h
1552 25-05-2014 09:35:00 11.9 C 9.74 g/m*3 11.9 C 0 km/h
1553 25-05-2014 09:40:00 12.1 C 9.87 g/m*3 12.1 C 0 km/h
1554 25-05-2014 09:45:00 12.3 C 9.88 g/m*3 12.3 C 0 km/h
1555 25-05-2014 09:50:00 12.4 C 9.94 g/m*3 12.4 C 0 km/h
1556 25-05-2014 09:55:00 12.7 C 10.13 g/m*3 12.7 C 1.6 km/h
1557 25-05-2014 10:00:00 13.1 C 10.38 g/m*3 13.1 C 0 km/h
1558 25-05-2014 10:05:00 13.6 C 10.59 g/m*3 13.6 C 0 km/h
1559 25-05-2014 10:10:00 14.2 C 10.75 g/m*3 14.2 C 0 km/h
1560 25-05-2014 10:15:00 14.7 C 10.83 g/m*3 14.7 C 0 km/h
1561 25-05-2014 10:20:00 14.9 C 10.96 g/m*3 14.9 C 0 km/h
1562 25-05-2014 10:25:00 15.3 C 10.71 g/m*3 15.3 C 1.6 km/h
1563 25-05-2014 10:30:00 15.8 C 10.9 g/m*3 15.8 C 1.6 km/h
1564 25-05-2014 10:35:00 16.2 C 11.17 g/m*3 16.2 C 1.6 km/h
1565 25-05-2014 10:40:00 16.6 C 10.88 g/m*3 16.6 C 3.2 km/h
1566 25-05-2014 10:45:00 16.8 C 11.15 g/m*3 16.8 C 1.6 km/h
1567 25-05-2014 10:50:00 16.7 C 11.23 g/m*3 16.7 C 0 km/h
1568 25-05-2014 10:55:00 16.7 C 11.37 g/m*3 16.7 C 1.6 km/h
1569 25-05-2014 11:00:00 16.8 C 11.15 g/m*3 16.8 C 3.2 km/h
1570 25-05-2014 11:05:00 17.2 C 11.42 g/m*3 17.2 C 1.6 km/h
1571 25-05-2014 11:10:00 17.4 C 10.97 g/m*3 17.4 C 0 km/h
1572 25-05-2014 11:15:00 17.8 C 11.08 g/m*3 17.8 C 1.6 km/h
1573 25-05-2014 11:20:00 18.1 C 11.59 g/m*3 18.1 C 0 km/h
1574 25-05-2014 11:25:00 18.3 C 11.41 g/m*3 18.3 C 4.8 km/h
1575 25-05-2014 11:30:00 18.6 C 10.19 g/m*3 18.6 C 1.6 km/h
Sensor: Nr:Datum:Temp:Abs-Feuchte:Windchill:Wind:
Aussen-T/F 1576 25-05-2014 11:35:00 18.7 C 10.73 g/m*3 18.7 C 3.2 km/h
1577 25-05-2014 11:40:00 19.1 C 10.16 g/m*3 19.1 C 4.8 km/h
1578 25-05-2014 11:45:00 19.6 C 9.62 g/m*3 19.6 C 6.4 km/h
1579 25-05-2014 11:50:00 20 C 9.85 g/m*3 20 C 3.2 km/h
1580 25-05-2014 11:55:00 20.2 C 9.97 g/m*3 20.2 C 8.1 km/h
1581 25-05-2014 12:00:00 20.6 C 10.02 g/m*3 20.6 C 8.1 km/h
1582 25-05-2014 12:05:00 20.8 C 9.78 g/m*3 20.8 C 9.7 km/h
1583 25-05-2014 12:10:00 20.9 C 9.29 g/m*3 20.9 C 11.3 km/h
1584 25-05-2014 12:15:00 21.1 C 10.5 g/m*3 21.1 C 11.3 km/h
1585 25-05-2014 12:20:00 20.9 C 8.56 g/m*3 20.9 C 4.8 km/h
1586 25-05-2014 12:25:00 20.9 C 9.11 g/m*3 20.9 C 8.1 km/h
1587 25-05-2014 12:30:00 21.1 C 9.03 g/m*3 21.1 C 6.4 km/h
1588 25-05-2014 12:35:00 21.3 C 9.69 g/m*3 21.3 C 8.1 km/h
1589 25-05-2014 12:40:00 21.3 C 8.57 g/m*3 21.3 C 6.4 km/h
1590 25-05-2014 12:45:00 21.3 C 8.76 g/m*3 21.3 C 8.1 km/h
1591 25-05-2014 12:50:00 21.5 C 8.86 g/m*3 21.5 C 4.8 km/h
1592 25-05-2014 12:55:00 21.7 C 9.73 g/m*3 21.7 C 6.4 km/h
1593 25-05-2014 13:00:00 22.1 C 8.78 g/m*3 22.1 C 6.4 km/h
1594 25-05-2014 13:05:00 22 C 8.93 g/m*3 22 C 9.7 km/h
1595 25-05-2014 13:10:00 21.9 C 8.49 g/m*3 21.9 C 8.1 km/h
1596 25-05-2014 13:15:00 21.9 C 8.3 g/m*3 21.9 C 8.1 km/h
1597 25-05-2014 13:20:00 21.9 C 8.88 g/m*3 21.9 C 9.7 km/h
1598 25-05-2014 13:25:00 22.1 C 8.39 g/m*3 22.1 C 9.7 km/h
1599 25-05-2014 13:30:00 22.4 C 8.14 g/m*3 22.4 C 11.3 km/h
1600 25-05-2014 13:35:00 22.3 C 8.49 g/m*3 22.3 C 3.2 km/h
Sensor: Nr:Datum:Temp:Abs-Feuchte:Windchill:Wind:
Aussen-T/F 1601 25-05-2014 13:40:00 22.4 C 8.94 g/m*3 22.4 C 8.1 km/h
1602 25-05-2014 13:45:00 22.6 C 9.44 g/m*3 22.6 C 6.4 km/h
1603 25-05-2014 13:50:00 22.4 C 9.33 g/m*3 22.4 C 4.8 km/h
1604 25-05-2014 13:55:00 22.7 C 9.29 g/m*3 22.7 C 9.7 km/h
1605 25-05-2014 14:00:00 23.1 C 9.1 g/m*3 23.1 C 8.1 km/h
1606 25-05-2014 14:05:00 22.9 C 10.01 g/m*3 22.9 C 4.8 km/h
1607 25-05-2014 14:10:00 22.9 C 10.42 g/m*3 22.9 C 6.4 km/h
1608 25-05-2014 14:15:00 23.1 C 9.51 g/m*3 23.1 C 4.8 km/h
1609 25-05-2014 14:20:00 23.1 C 9.72 g/m*3 23.1 C 8.1 km/h
1610 25-05-2014 14:25:00 23.2 C 9.36 g/m*3 23.2 C 8.1 km/h
1611 25-05-2014 14:30:00 23.1 C 9.1 g/m*3 23.1 C 9.7 km/h
1612 25-05-2014 14:35:00 22.9 C 8.79 g/m*3 22.9 C 9.7 km/h
1613 25-05-2014 14:40:00 23.1 C 9.1 g/m*3 23.1 C 6.4 km/h
1614 25-05-2014 14:45:00 23.2 C 9.36 g/m*3 23.2 C 8.1 km/h
1615 25-05-2014 14:50:00 23.3 C 9.83 g/m*3 23.3 C 9.7 km/h
1616 25-05-2014 14:55:00 23.5 C 9.52 g/m*3 23.5 C 11.3 km/h
1617 25-05-2014 15:00:00 23.4 C 9.67 g/m*3 23.4 C 9.7 km/h
1618 25-05-2014 15:05:00 23.4 C 9.46 g/m*3 23.4 C 14.5 km/h
1619 25-05-2014 15:10:00 23.8 C 9.68 g/m*3 23.8 C 16.1 km/h
1620 25-05-2014 15:15:00 23.7 C 8.98 g/m*3 23.7 C 9.7 km/h
1621 25-05-2014 15:20:00 23.3 C 9.2 g/m*3 23.3 C 6.4 km/h
1622 25-05-2014 15:25:00 23.3 C 8.99 g/m*3 23.3 C 16.1 km/h
1623 25-05-2014 15:30:00 23.6 C 8.93 g/m*3 23.6 C 8.1 km/h
1624 25-05-2014 15:35:00 23.6 C 9.36 g/m*3 23.6 C 8.1 km/h
1625 25-05-2014 15:40:00 23.5 C 9.31 g/m*3 23.5 C 8.1 km/h
Sensor: Nr:Datum:Temp:Abs-Feuchte:Windchill:Wind:
Aussen-T/F 1626 25-05-2014 15:45:00 23.6 C 9.15 g/m*3 23.6 C 8.1 km/h
1627 25-05-2014 15:50:00 23.4 C 9.67 g/m*3 23.4 C 6.4 km/h
1628 25-05-2014 15:55:00 23.2 C 8.32 g/m*3 23.2 C 4.8 km/h
1629 25-05-2014 16:00:00 22.9 C 10.42 g/m*3 22.9 C 6.4 km/h
1630 25-05-2014 16:05:00 22.7 C 9.09 g/m*3 22.7 C 4.8 km/h
1631 25-05-2014 16:10:00 22.7 C 9.29 g/m*3 22.7 C 9.7 km/h
1632 25-05-2014 16:15:00 23.1 C 9.3 g/m*3 23.1 C 8.1 km/h
1633 25-05-2014 16:20:00 23.7 C 10.69 g/m*3 23.7 C 3.2 km/h
1634 25-05-2014 16:25:00 23.6 C 9.36 g/m*3 23.6 C 4.8 km/h
1635 25-05-2014 16:30:00 23.8 C 9.25 g/m*3 23.8 C 6.4 km/h
1636 25-05-2014 16:35:00 23.8 C 9.46 g/m*3 23.8 C 4.8 km/h
1637 25-05-2014 16:40:00 24.1 C 9.41 g/m*3 24.1 C 9.7 km/h
1638 25-05-2014 16:45:00 24.6 C 9.45 g/m*3 24.6 C 9.7 km/h
1639 25-05-2014 16:50:00 24.7 C 8.83 g/m*3 24.7 C 4.8 km/h
1640 25-05-2014 16:55:00 24.8 C 9.56 g/m*3 24.8 C 4.8 km/h
1641 25-05-2014 17:00:00 24.8 C 8.88 g/m*3 24.8 C 4.8 km/h
1642 25-05-2014 17:05:00 24.6 C 8.78 g/m*3 24.6 C 1.6 km/h
1643 25-05-2014 17:10:00 24.5 C 9.4 g/m*3 24.5 C 8.1 km/h
1644 25-05-2014 17:15:00 24.4 C 8.9 g/m*3 24.4 C 3.2 km/h
1645 25-05-2014 17:20:00 24.4 C 8.9 g/m*3 24.4 C 0 km/h
1646 25-05-2014 17:55:00 24.6 C 9.23 g/m*3 24.6 C 3.2 km/h
1647 25-05-2014 18:00:00 24.6 C 9.23 g/m*3 24.6 C 4.8 km/h
1648 25-05-2014 18:05:00 24.3 C 9.52 g/m*3 24.3 C 4.8 km/h
1649 25-05-2014 18:10:00 23.8 C 9.25 g/m*3 23.8 C 3.2 km/h
1650 25-05-2014 18:15:00 23.8 C 9.25 g/m*3 23.8 C 4.8 km/h
Sensor: Nr:Datum:Temp:Abs-Feuchte:Windchill:Wind:
Aussen-T/F 1651 25-05-2014 18:20:00 23.8 C 9.25 g/m*3 23.8 C 4.8 km/h
1652 25-05-2014 18:25:00 23.3 C 8.99 g/m*3 23.3 C 3.2 km/h
1653 25-05-2014 18:30:00 23.3 C 8.99 g/m*3 23.3 C 6.4 km/h
1654 25-05-2014 18:35:00 23.3 C 9.62 g/m*3 23.3 C 6.4 km/h
1655 25-05-2014 18:40:00 23.9 C 9.3 g/m*3 23.9 C 6.4 km/h
1656 25-05-2014 18:45:00 24.2 C 8.8 g/m*3 24.2 C 8.1 km/h
1657 25-05-2014 18:50:00 24 C 10.23 g/m*3 24 C 1.6 km/h
1658 25-05-2014 18:55:00 23.4 C 11.78 g/m*3 23.4 C 3.2 km/h
1659 25-05-2014 19:00:00 22.8 C 10.36 g/m*3 22.8 C 3.2 km/h
1660 25-05-2014 19:05:00 22.3 C 12.24 g/m*3 22.3 C 0 km/h
1661 25-05-2014 19:10:00 21.5 C 12.45 g/m*3 21.5 C 0 km/h
1662 25-05-2014 19:15:00 20.7 C 12.06 g/m*3 20.7 C 0 km/h
1663 25-05-2014 19:20:00 20.1 C 11.82 g/m*3 20.1 C 0 km/h
1664 25-05-2014 19:25:00 19.7 C 11.89 g/m*3 19.7 C 0 km/h
1665 25-05-2014 19:30:00 19.3 C 11.78 g/m*3 19.3 C 1.6 km/h
1666 25-05-2014 19:35:00 19.1 C 11.8 g/m*3 19.1 C 0 km/h
1667 25-05-2014 19:40:00 18.8 C 11.92 g/m*3 18.8 C 1.6 km/h
1668 25-05-2014 19:45:00 18.7 C 11.85 g/m*3 18.7 C 0 km/h
1669 25-05-2014 19:50:00 18.5 C 11.87 g/m*3 18.5 C 0 km/h
1670 25-05-2014 19:55:00 18.4 C 11.95 g/m*3 18.4 C 0 km/h
1671 25-05-2014 20:00:00 18.2 C 11.81 g/m*3 18.2 C 0 km/h
1672 25-05-2014 20:05:00 18.1 C 11.74 g/m*3 18.1 C 0 km/h
1673 25-05-2014 20:10:00 17.9 C 11.6 g/m*3 17.9 C 0 km/h
1674 25-05-2014 20:15:00 17.8 C 11.54 g/m*3 17.8 C 1.6 km/h
1675 25-05-2014 20:20:00 17.7 C 11.62 g/m*3 17.7 C 0 km/h
Sensor: Nr:Datum:Temp:Abs-Feuchte:Windchill:Wind:
Aussen-T/F 1676 25-05-2014 20:25:00 17.6 C 11.4 g/m*3 17.6 C 1.6 km/h
1677 25-05-2014 20:30:00 17.5 C 11.48 g/m*3 17.5 C 0 km/h
1678 25-05-2014 20:35:00 17.4 C 11.41 g/m*3 17.4 C 1.6 km/h
1679 25-05-2014 20:40:00 17.3 C 11.34 g/m*3 17.3 C 1.6 km/h
1680 25-05-2014 20:45:00 17.2 C 11.28 g/m*3 17.2 C 1.6 km/h
1681 25-05-2014 20:50:00 17.2 C 11.13 g/m*3 17.2 C 1.6 km/h
1682 25-05-2014 20:55:00 17.1 C 11.06 g/m*3 17.1 C 1.6 km/h
1683 25-05-2014 21:00:00 17 C 11 g/m*3 17 C 1.6 km/h
1684 25-05-2014 21:05:00 16.9 C 11.08 g/m*3 16.9 C 1.6 km/h
1685 25-05-2014 21:10:00 16.8 C 11.01 g/m*3 16.8 C 3.2 km/h
1686 25-05-2014 21:15:00 16.7 C 10.94 g/m*3 16.7 C 0 km/h
1687 25-05-2014 21:20:00 16.6 C 10.88 g/m*3 16.6 C 1.6 km/h
1688 25-05-2014 21:25:00 16.6 C 11.16 g/m*3 16.6 C 0 km/h
1689 25-05-2014 21:30:00 16.4 C 10.75 g/m*3 16.4 C 0 km/h
1690 25-05-2014 21:35:00 16.4 C 10.89 g/m*3 16.4 C 1.6 km/h
1691 25-05-2014 21:40:00 16.3 C 10.68 g/m*3 16.3 C 0 km/h
1692 25-05-2014 21:45:00 16.3 C 10.68 g/m*3 16.3 C 0 km/h
1693 25-05-2014 21:50:00 16.2 C 10.48 g/m*3 16.2 C 0 km/h
1694 25-05-2014 21:55:00 16.1 C 10.55 g/m*3 16.1 C 0 km/h
1695 25-05-2014 22:00:00 16.1 C 10.55 g/m*3 16.1 C 0 km/h
1696 25-05-2014 22:05:00 15.8 C 10.5 g/m*3 15.8 C 0 km/h
1697 25-05-2014 22:10:00 15.8 C 10.77 g/m*3 15.8 C 0 km/h
1698 25-05-2014 22:15:00 15.7 C 10.57 g/m*3 15.7 C 1.6 km/h
1699 25-05-2014 22:20:00 15.7 C 10.7 g/m*3 15.7 C 0 km/h
1700 25-05-2014 22:25:00 15.6 C 10.51 g/m*3 15.6 C 0 km/h
Sensor: Nr:Datum:Temp:Abs-Feuchte:Windchill:Wind:
Aussen-T/F 1701 25-05-2014 22:30:00 15.6 C 10.37 g/m*3 15.6 C 0 km/h
1702 25-05-2014 22:35:00 15.6 C 10.37 g/m*3 15.6 C 0 km/h
1703 25-05-2014 22:40:00 15.6 C 10.51 g/m*3 15.6 C 0 km/h
1704 25-05-2014 22:45:00 15.6 C 10.37 g/m*3 15.6 C 0 km/h
1705 25-05-2014 22:50:00 15.6 C 10.64 g/m*3 15.6 C 0 km/h
1706 25-05-2014 22:55:00 15.6 C 10.77 g/m*3 15.6 C 0 km/h
1707 25-05-2014 23:00:00 15.5 C 10.57 g/m*3 15.5 C 0 km/h
1708 25-05-2014 23:05:00 15.5 C 10.57 g/m*3 15.5 C 0 km/h
1709 25-05-2014 23:10:00 15.4 C 10.51 g/m*3 15.4 C 0 km/h
1710 25-05-2014 23:15:00 15.3 C 10.45 g/m*3 15.3 C 0 km/h
1711 25-05-2014 23:20:00 15.3 C 10.45 g/m*3 15.3 C 0 km/h
1712 25-05-2014 23:25:00 15.2 C 10.38 g/m*3 15.2 C 0 km/h
1713 25-05-2014 23:30:00 15.1 C 10.19 g/m*3 15.1 C 0 km/h
1714 25-05-2014 23:35:00 14.9 C 10.07 g/m*3 14.9 C 0 km/h
1715 25-05-2014 23:40:00 14.8 C 10.13 g/m*3 14.8 C 0 km/h
1716 25-05-2014 23:45:00 14.8 C 10.13 g/m*3 14.8 C 0 km/h
1717 25-05-2014 23:50:00 14.7 C 10.07 g/m*3 14.7 C 0 km/h
1718 25-05-2014 23:55:00 14.7 C 10.2 g/m*3 14.7 C 0 km/h
1719 26-05-2014 00:00:00 14.6 C 10.26 g/m*3 14.6 C 0 km/h
1720 26-05-2014 00:05:00 14.6 C 10.14 g/m*3 14.6 C 0 km/h
1721 26-05-2014 00:10:00 14.5 C 10.07 g/m*3 14.5 C 0 km/h
1722 26-05-2014 00:15:00 14.4 C 10.14 g/m*3 14.4 C 0 km/h
1723 26-05-2014 00:20:00 14.3 C 10.07 g/m*3 14.3 C 0 km/h
1724 26-05-2014 00:25:00 14.3 C 10.2 g/m*3 14.3 C 0 km/h
1725 26-05-2014 00:30:00 14.2 C 10.14 g/m*3 14.2 C 0 km/h
Sensor: Nr:Datum:Temp:Abs-Feuchte:Windchill:Wind:
Aussen-T/F 1726 26-05-2014 00:35:00 14.1 C 10.07 g/m*3 14.1 C 0 km/h
1727 26-05-2014 00:40:00 13.9 C 9.95 g/m*3 13.9 C 0 km/h
1728 26-05-2014 00:45:00 13.9 C 9.95 g/m*3 13.9 C 0 km/h
1729 26-05-2014 00:50:00 13.9 C 9.95 g/m*3 13.9 C 0 km/h
1730 26-05-2014 00:55:00 13.9 C 9.95 g/m*3 13.9 C 0 km/h
1731 26-05-2014 01:00:00 14 C 10.01 g/m*3 14 C 0 km/h
1732 26-05-2014 01:05:00 14 C 10.01 g/m*3 14 C 0 km/h
1733 26-05-2014 01:10:00 13.9 C 9.95 g/m*3 13.9 C 0 km/h
1734 26-05-2014 01:15:00 13.9 C 9.95 g/m*3 13.9 C 0 km/h
1735 26-05-2014 01:20:00 13.9 C 9.83 g/m*3 13.9 C 0 km/h
1736 26-05-2014 01:25:00 13.9 C 9.95 g/m*3 13.9 C 0 km/h
1737 26-05-2014 01:30:00 13.8 C 9.89 g/m*3 13.8 C 0 km/h
1738 26-05-2014 01:35:00 13.8 C 9.89 g/m*3 13.8 C 0 km/h
1739 26-05-2014 01:40:00 13.7 C 9.71 g/m*3 13.7 C 0 km/h
1740 26-05-2014 01:45:00 13.7 C 9.83 g/m*3 13.7 C 0 km/h
1741 26-05-2014 01:50:00 13.7 C 9.95 g/m*3 13.7 C 0 km/h
1742 26-05-2014 01:55:00 13.6 C 9.89 g/m*3 13.6 C 0 km/h
1743 26-05-2014 02:00:00 13.5 C 9.83 g/m*3 13.5 C 0 km/h
1744 26-05-2014 02:05:00 13.4 C 9.88 g/m*3 13.4 C 0 km/h
1745 26-05-2014 02:10:00 13.4 C 10 g/m*3 13.4 C 0 km/h
1746 26-05-2014 02:15:00 13.4 C 10 g/m*3 13.4 C 0 km/h
1747 26-05-2014 02:20:00 13.3 C 9.82 g/m*3 13.3 C 0 km/h
1748 26-05-2014 02:25:00 13.3 C 9.82 g/m*3 13.3 C 0 km/h
1749 26-05-2014 02:30:00 13.3 C 9.82 g/m*3 13.3 C 0 km/h
1750 26-05-2014 02:35:00 13.2 C 9.76 g/m*3 13.2 C 0 km/h
Sensor: Nr:Datum:Temp:Abs-Feuchte:Windchill:Wind:
Aussen-T/F 1751 26-05-2014 02:40:00 13.2 C 9.87 g/m*3 13.2 C 0 km/h
1752 26-05-2014 02:45:00 13.2 C 9.87 g/m*3 13.2 C 0 km/h
1753 26-05-2014 02:50:00 13.2 C 9.87 g/m*3 13.2 C 0 km/h
1754 26-05-2014 02:55:00 13.1 C 9.81 g/m*3 13.1 C 0 km/h
1755 26-05-2014 03:00:00 13.1 C 9.81 g/m*3 13.1 C 0 km/h
1756 26-05-2014 03:05:00 13.1 C 9.93 g/m*3 13.1 C 0 km/h
1757 26-05-2014 03:10:00 13.1 C 9.93 g/m*3 13.1 C 0 km/h
1758 26-05-2014 03:15:00 13 C 9.75 g/m*3 13 C 0 km/h
1759 26-05-2014 03:20:00 13 C 9.75 g/m*3 13 C 0 km/h
1760 26-05-2014 03:25:00 13 C 9.75 g/m*3 13 C 0 km/h
1761 26-05-2014 03:30:00 13 C 9.87 g/m*3 13 C 0 km/h
1762 26-05-2014 03:35:00 12.9 C 9.81 g/m*3 12.9 C 0 km/h
1763 26-05-2014 03:40:00 12.9 C 9.81 g/m*3 12.9 C 0 km/h
1764 26-05-2014 03:45:00 12.9 C 9.92 g/m*3 12.9 C 0 km/h
1765 26-05-2014 03:50:00 12.8 C 9.74 g/m*3 12.8 C 0 km/h
1766 26-05-2014 03:55:00 12.8 C 9.74 g/m*3 12.8 C 0 km/h
1767 26-05-2014 04:00:00 12.8 C 9.86 g/m*3 12.8 C 0 km/h
1768 26-05-2014 04:05:00 12.8 C 9.86 g/m*3 12.8 C 0 km/h
1769 26-05-2014 04:10:00 12.8 C 9.86 g/m*3 12.8 C 0 km/h
1770 26-05-2014 04:15:00 12.8 C 9.86 g/m*3 12.8 C 0 km/h
1771 26-05-2014 04:20:00 12.8 C 9.86 g/m*3 12.8 C 0 km/h
1772 26-05-2014 04:25:00 12.8 C 9.86 g/m*3 12.8 C 0 km/h
1773 26-05-2014 04:30:00 12.8 C 9.86 g/m*3 12.8 C 0 km/h
1774 26-05-2014 04:35:00 12.7 C 9.8 g/m*3 12.7 C 0 km/h
1775 26-05-2014 04:40:00 12.8 C 9.86 g/m*3 12.8 C 0 km/h
Sensor: Nr:Datum:Temp:Abs-Feuchte:Windchill:Wind:
Aussen-T/F 1776 26-05-2014 04:45:00 12.7 C 9.8 g/m*3 12.7 C 0 km/h
1777 26-05-2014 04:50:00 12.8 C 9.97 g/m*3 12.8 C 0 km/h
1778 26-05-2014 04:55:00 12.8 C 9.97 g/m*3 12.8 C 0 km/h
1779 26-05-2014 05:00:00 12.8 C 9.86 g/m*3 12.8 C 0 km/h
1780 26-05-2014 05:05:00 12.8 C 9.86 g/m*3 12.8 C 0 km/h
1781 26-05-2014 05:10:00 12.8 C 9.86 g/m*3 12.8 C 0 km/h
1782 26-05-2014 05:15:00 12.9 C 9.92 g/m*3 12.9 C 0 km/h
1783 26-05-2014 05:20:00 13 C 9.98 g/m*3 13 C 0 km/h
1784 26-05-2014 05:25:00 13.1 C 10.04 g/m*3 13.1 C 0 km/h
1785 26-05-2014 05:30:00 13.1 C 10.04 g/m*3 13.1 C 0 km/h
1786 26-05-2014 05:35:00 13.2 C 10.1 g/m*3 13.2 C 0 km/h
1787 26-05-2014 05:40:00 13.2 C 10.1 g/m*3 13.2 C 0 km/h
1788 26-05-2014 05:45:00 13.2 C 10.1 g/m*3 13.2 C 0 km/h
1789 26-05-2014 05:50:00 13.2 C 10.1 g/m*3 13.2 C 0 km/h
1790 26-05-2014 05:55:00 13.2 C 10.1 g/m*3 13.2 C 0 km/h
1791 26-05-2014 06:00:00 13.2 C 10.1 g/m*3 13.2 C 0 km/h
1792 26-05-2014 06:05:00 13.2 C 10.1 g/m*3 13.2 C 0 km/h
1793 26-05-2014 06:10:00 13.2 C 10.22 g/m*3 13.2 C 0 km/h
1794 26-05-2014 06:15:00 13.2 C 10.22 g/m*3 13.2 C 0 km/h
1795 26-05-2014 06:20:00 13.2 C 10.22 g/m*3 13.2 C 0 km/h
1796 26-05-2014 06:25:00 13.2 C 10.22 g/m*3 13.2 C 0 km/h
1797 26-05-2014 06:30:00 13.2 C 10.22 g/m*3 13.2 C 0 km/h
1798 26-05-2014 06:35:00 13.2 C 10.22 g/m*3 13.2 C 0 km/h
1799 26-05-2014 06:40:00 13.2 C 10.22 g/m*3 13.2 C 0 km/h
1800 26-05-2014 06:45:00 13.3 C 10.28 g/m*3 13.3 C 0 km/h
Sensor: Nr:Datum:Temp:Abs-Feuchte:Windchill:Wind:
Aussen-T/F 1801 26-05-2014 06:50:00 13.3 C 10.28 g/m*3 13.3 C 0 km/h
1802 26-05-2014 06:55:00 13.3 C 10.4 g/m*3 13.3 C 0 km/h
1803 26-05-2014 07:00:00 13.3 C 10.4 g/m*3 13.3 C 0 km/h
1804 26-05-2014 07:05:00 13.3 C 10.4 g/m*3 13.3 C 0 km/h
1805 26-05-2014 07:10:00 13.3 C 10.4 g/m*3 13.3 C 0 km/h
1806 26-05-2014 07:15:00 13.4 C 10.46 g/m*3 13.4 C 1.6 km/h
1807 26-05-2014 07:20:00 13.4 C 10.46 g/m*3 13.4 C 0 km/h
1808 26-05-2014 07:25:00 13.4 C 10.46 g/m*3 13.4 C 3.2 km/h
1809 26-05-2014 07:30:00 13.5 C 10.53 g/m*3 13.5 C 3.2 km/h
1810 26-05-2014 07:35:00 13.6 C 10.59 g/m*3 13.6 C 0 km/h
1811 26-05-2014 07:40:00 13.7 C 10.66 g/m*3 13.7 C 0 km/h
1812 26-05-2014 07:45:00 13.8 C 10.72 g/m*3 13.8 C 0 km/h
1813 26-05-2014 07:50:00 13.8 C 10.72 g/m*3 13.8 C 0 km/h
1814 26-05-2014 07:55:00 13.9 C 10.91 g/m*3 13.9 C 0 km/h
1815 26-05-2014 08:00:00 14.1 C 11.04 g/m*3 14.1 C 0 km/h
1816 26-05-2014 08:05:00 14.2 C 10.99 g/m*3 14.2 C 0 km/h
1817 26-05-2014 08:10:00 14.3 C 11.06 g/m*3 14.3 C 0 km/h
1818 26-05-2014 08:15:00 14.3 C 11.06 g/m*3 14.3 C 0 km/h
1819 26-05-2014 08:20:00 14.4 C 11 g/m*3 14.4 C 0 km/h
1820 26-05-2014 08:25:00 14.5 C 11.07 g/m*3 14.5 C 0 km/h
1821 26-05-2014 08:30:00 14.6 C 11.14 g/m*3 14.6 C 0 km/h
1822 26-05-2014 08:35:00 14.8 C 11.15 g/m*3 14.8 C 1.6 km/h
1823 26-05-2014 08:40:00 15 C 11.16 g/m*3 15 C 1.6 km/h
1824 26-05-2014 08:45:00 15.2 C 11.16 g/m*3 15.2 C 0 km/h
1825 26-05-2014 08:50:00 15.4 C 11.43 g/m*3 15.4 C 1.6 km/h
Sensor: Nr:Datum:Temp:Abs-Feuchte:Windchill:Wind:
Aussen-T/F 1826 26-05-2014 08:55:00 15.4 C 11.04 g/m*3 15.4 C 1.6 km/h
1827 26-05-2014 09:00:00 15.5 C 11.37 g/m*3 15.5 C 0 km/h
1828 26-05-2014 09:05:00 15.6 C 11.3 g/m*3 15.6 C 0 km/h
1829 26-05-2014 09:10:00 15.6 C 11.17 g/m*3 15.6 C 0 km/h
1830 26-05-2014 09:15:00 15.7 C 11.37 g/m*3 15.7 C 0 km/h
1831 26-05-2014 09:20:00 15.7 C 11.11 g/m*3 15.7 C 1.6 km/h
1832 26-05-2014 09:25:00 15.7 C 10.97 g/m*3 15.7 C 0 km/h
1833 26-05-2014 09:30:00 15.8 C 11.31 g/m*3 15.8 C 0 km/h
1834 26-05-2014 09:35:00 15.7 C 11.37 g/m*3 15.7 C 0 km/h
1835 26-05-2014 09:40:00 15.7 C 11.51 g/m*3 15.7 C 0 km/h
1836 26-05-2014 09:45:00 15.6 C 11.3 g/m*3 15.6 C 0 km/h
1837 26-05-2014 09:50:00 15.6 C 11.44 g/m*3 15.6 C 0 km/h
1838 26-05-2014 09:55:00 15.6 C 11.3 g/m*3 15.6 C 0 km/h
1839 26-05-2014 10:00:00 15.8 C 11.17 g/m*3 15.8 C 1.6 km/h
1840 26-05-2014 10:05:00 15.9 C 11.51 g/m*3 15.9 C 0 km/h
1841 26-05-2014 10:10:00 15.9 C 11.51 g/m*3 15.9 C 0 km/h
1842 26-05-2014 10:15:00 15.9 C 11.1 g/m*3 15.9 C 3.2 km/h
1843 26-05-2014 10:20:00 16 C 11.17 g/m*3 16 C 1.6 km/h
1844 26-05-2014 10:25:00 16.2 C 11.17 g/m*3 16.2 C 6.4 km/h
1845 26-05-2014 10:30:00 16.4 C 11.31 g/m*3 16.4 C 4.8 km/h
1846 26-05-2014 10:35:00 16.7 C 11.37 g/m*3 16.7 C 6.4 km/h
1847 26-05-2014 10:40:00 16.9 C 11.22 g/m*3 16.9 C 6.4 km/h
1848 26-05-2014 10:45:00 17 C 11.14 g/m*3 17 C 1.6 km/h
1849 26-05-2014 10:50:00 17.2 C 11.42 g/m*3 17.2 C 4.8 km/h
1850 26-05-2014 10:55:00 17.4 C 11.41 g/m*3 17.4 C 6.4 km/h
Sensor: Nr:Datum:Temp:Abs-Feuchte:Windchill:Wind:
Aussen-T/F 1851 26-05-2014 11:00:00 17.5 C 11.48 g/m*3 17.5 C 8.1 km/h
1852 26-05-2014 11:05:00 17.6 C 11.4 g/m*3 17.6 C 3.2 km/h
1853 26-05-2014 11:10:00 17.7 C 11.47 g/m*3 17.7 C 6.4 km/h
1854 26-05-2014 11:15:00 17.8 C 11.54 g/m*3 17.8 C 6.4 km/h
1855 26-05-2014 11:20:00 17.9 C 11.3 g/m*3 17.9 C 6.4 km/h
1856 26-05-2014 11:25:00 17.8 C 11.23 g/m*3 17.8 C 6.4 km/h
1857 26-05-2014 11:30:00 17.8 C 11.23 g/m*3 17.8 C 6.4 km/h
1858 26-05-2014 11:35:00 17.9 C 11.3 g/m*3 17.9 C 8.1 km/h
1859 26-05-2014 11:40:00 18 C 11.37 g/m*3 18 C 8.1 km/h
1860 26-05-2014 11:45:00 18 C 11.21 g/m*3 18 C 8.1 km/h
1861 26-05-2014 11:50:00 18.1 C 11.59 g/m*3 18.1 C 9.7 km/h
1862 26-05-2014 11:55:00 18.2 C 11.5 g/m*3 18.2 C 9.7 km/h
1863 26-05-2014 12:00:00 18.3 C 11.73 g/m*3 18.3 C 6.4 km/h
1864 26-05-2014 12:05:00 18.3 C 11.57 g/m*3 18.3 C 9.7 km/h
1865 26-05-2014 12:10:00 18.3 C 11.73 g/m*3 18.3 C 6.4 km/h
1866 26-05-2014 12:15:00 18.2 C 11.66 g/m*3 18.2 C 6.4 km/h
1867 26-05-2014 12:20:00 18 C 11.37 g/m*3 18 C 6.4 km/h
1868 26-05-2014 12:25:00 17.8 C 11.54 g/m*3 17.8 C 6.4 km/h
1869 26-05-2014 12:30:00 17.7 C 11.47 g/m*3 17.7 C 4.8 km/h
1870 26-05-2014 12:35:00 17.8 C 11.84 g/m*3 17.8 C 8.1 km/h
1871 26-05-2014 12:40:00 17.9 C 11.91 g/m*3 17.9 C 6.4 km/h
1872 26-05-2014 12:45:00 18.2 C 11.66 g/m*3 18.2 C 9.7 km/h
1873 26-05-2014 12:50:00 18.5 C 12.34 g/m*3 18.5 C 11.3 km/h
1874 26-05-2014 12:55:00 18.9 C 12.31 g/m*3 18.9 C 11.3 km/h
1875 26-05-2014 13:00:00 19.3 C 12.44 g/m*3 19.3 C 9.7 km/h
Sensor: Nr:Datum:Temp:Abs-Feuchte:Windchill:Wind:
Aussen-T/F 1876 26-05-2014 13:05:00 19.3 C 12.11 g/m*3 19.3 C 12.9 km/h
1877 26-05-2014 13:10:00 19.6 C 12.83 g/m*3 19.6 C 12.9 km/h
1878 26-05-2014 13:15:00 19.9 C 12.2 g/m*3 19.9 C 11.3 km/h
1879 26-05-2014 13:20:00 19.8 C 12.3 g/m*3 19.8 C 9.7 km/h
1880 26-05-2014 13:25:00 19.7 C 12.06 g/m*3 19.7 C 9.7 km/h
1881 26-05-2014 13:30:00 19.9 C 12.2 g/m*3 19.9 C 8.1 km/h
1882 26-05-2014 13:35:00 19.9 C 12.37 g/m*3 19.9 C 8.1 km/h
1883 26-05-2014 13:40:00 19.8 C 11.96 g/m*3 19.8 C 8.1 km/h
1884 26-05-2014 13:45:00 19.6 C 11.99 g/m*3 19.6 C 6.4 km/h
1885 26-05-2014 13:50:00 19.6 C 12.15 g/m*3 19.6 C 4.8 km/h
1886 26-05-2014 13:55:00 19.6 C 12.15 g/m*3 19.6 C 4.8 km/h
1887 26-05-2014 14:00:00 19.6 C 11.99 g/m*3 19.6 C 4.8 km/h
1888 26-05-2014 14:05:00 19.7 C 12.23 g/m*3 19.7 C 8.1 km/h
1889 26-05-2014 14:10:00 19.8 C 12.3 g/m*3 19.8 C 9.7 km/h
1890 26-05-2014 14:15:00 20.1 C 12.34 g/m*3 20.1 C 9.7 km/h
1891 26-05-2014 14:20:00 20.3 C 12.49 g/m*3 20.3 C 8.1 km/h
1892 26-05-2014 14:25:00 20.6 C 12.35 g/m*3 20.6 C 9.7 km/h
1893 26-05-2014 14:30:00 20.7 C 12.24 g/m*3 20.7 C 8.1 km/h
1894 26-05-2014 14:35:00 20.9 C 12.02 g/m*3 20.9 C 11.3 km/h
1895 26-05-2014 14:40:00 20.9 C 12.2 g/m*3 20.9 C 12.9 km/h
1896 26-05-2014 14:45:00 20.9 C 11.84 g/m*3 20.9 C 11.3 km/h
1897 26-05-2014 14:50:00 20.7 C 11.88 g/m*3 20.7 C 14.5 km/h
1898 26-05-2014 14:55:00 20.8 C 12.31 g/m*3 20.8 C 9.7 km/h
1899 26-05-2014 15:00:00 21 C 12.46 g/m*3 21 C 9.7 km/h
1900 26-05-2014 15:05:00 21.2 C 12.42 g/m*3 21.2 C 8.1 km/h
Sensor: Nr:Datum:Temp:Abs-Feuchte:Windchill:Wind:
Aussen-T/F 1901 26-05-2014 15:10:00 21.2 C 11.86 g/m*3 21.2 C 3.2 km/h
1902 26-05-2014 15:15:00 21.2 C 12.05 g/m*3 21.2 C 6.4 km/h
1903 26-05-2014 15:20:00 21.1 C 11.98 g/m*3 21.1 C 8.1 km/h
1904 26-05-2014 15:25:00 21 C 11.91 g/m*3 21 C 4.8 km/h
1905 26-05-2014 15:30:00 21 C 11.91 g/m*3 21 C 4.8 km/h
1906 26-05-2014 15:35:00 21.1 C 12.16 g/m*3 21.1 C 3.2 km/h
1907 26-05-2014 15:40:00 21.1 C 12.16 g/m*3 21.1 C 6.4 km/h
1908 26-05-2014 15:45:00 21.2 C 11.86 g/m*3 21.2 C 4.8 km/h
1909 26-05-2014 15:50:00 21.6 C 12.52 g/m*3 21.6 C 4.8 km/h
1910 26-05-2014 15:55:00 21.6 C 12.14 g/m*3 21.6 C 9.7 km/h
1911 26-05-2014 16:00:00 21.5 C 12.07 g/m*3 21.5 C 6.4 km/h
1912 26-05-2014 16:05:00 21.6 C 12.33 g/m*3 21.6 C 8.1 km/h
1913 26-05-2014 16:10:00 21.7 C 12.21 g/m*3 21.7 C 6.4 km/h
1914 26-05-2014 16:15:00 21.7 C 12.4 g/m*3 21.7 C 8.1 km/h
1915 26-05-2014 16:20:00 21.9 C 11.96 g/m*3 21.9 C 8.1 km/h
1916 26-05-2014 16:25:00 22.1 C 12.49 g/m*3 22.1 C 9.7 km/h
1917 26-05-2014 16:30:00 22.1 C 12.3 g/m*3 22.1 C 8.1 km/h
1918 26-05-2014 16:35:00 22.1 C 12.49 g/m*3 22.1 C 4.8 km/h
1919 26-05-2014 16:40:00 22.1 C 11.91 g/m*3 22.1 C 1.6 km/h
1920 26-05-2014 16:45:00 22 C 12.23 g/m*3 22 C 3.2 km/h
1921 26-05-2014 16:50:00 21.8 C 12.28 g/m*3 21.8 C 4.8 km/h
1922 26-05-2014 16:55:00 21.8 C 12.47 g/m*3 21.8 C 8.1 km/h
1923 26-05-2014 17:00:00 21.8 C 12.66 g/m*3 21.8 C 4.8 km/h
1924 26-05-2014 17:05:00 21.9 C 12.54 g/m*3 21.9 C 6.4 km/h
1925 26-05-2014 17:10:00 21.9 C 12.35 g/m*3 21.9 C 6.4 km/h
Sensor: Nr:Datum:Temp:Abs-Feuchte:Windchill:Wind:
Aussen-T/F 1926 26-05-2014 17:15:00 21.9 C 12.16 g/m*3 21.9 C 4.8 km/h
1927 26-05-2014 17:20:00 21.8 C 12.47 g/m*3 21.8 C 6.4 km/h
1928 26-05-2014 17:25:00 21.6 C 11.95 g/m*3 21.6 C 3.2 km/h
1929 26-05-2014 17:30:00 21.5 C 12.63 g/m*3 21.5 C 3.2 km/h
1930 26-05-2014 17:35:00 21.4 C 13.31 g/m*3 21.4 C 1.6 km/h
1931 26-05-2014 17:40:00 21.3 C 12.12 g/m*3 21.3 C 4.8 km/h
1932 26-05-2014 17:45:00 21.3 C 12.3 g/m*3 21.3 C 3.2 km/h
1933 26-05-2014 17:50:00 21.4 C 12.19 g/m*3 21.4 C 3.2 km/h
1934 26-05-2014 17:55:00 21.5 C 12.82 g/m*3 21.5 C 1.6 km/h
1935 26-05-2014 18:00:00 21.4 C 13.12 g/m*3 21.4 C 3.2 km/h
1936 26-05-2014 18:05:00 21.3 C 13.05 g/m*3 21.3 C 0 km/h
1937 26-05-2014 18:10:00 21.2 C 13.53 g/m*3 21.2 C 0 km/h
1938 26-05-2014 18:15:00 20.9 C 13.48 g/m*3 20.9 C 0 km/h
1939 26-05-2014 18:20:00 20.6 C 13.6 g/m*3 20.6 C 0 km/h
1940 26-05-2014 18:25:00 20.5 C 13.52 g/m*3 20.5 C 0 km/h
1941 26-05-2014 18:30:00 20.4 C 12.56 g/m*3 20.4 C 6.4 km/h
1942 26-05-2014 18:35:00 20.4 C 12.38 g/m*3 20.4 C 4.8 km/h
1943 26-05-2014 18:40:00 20.6 C 12.71 g/m*3 20.6 C 4.8 km/h
1944 26-05-2014 18:45:00 20.6 C 12.89 g/m*3 20.6 C 3.2 km/h
1945 26-05-2014 18:50:00 20.6 C 12.71 g/m*3 20.6 C 4.8 km/h
1946 26-05-2014 18:55:00 20.6 C 12.89 g/m*3 20.6 C 0 km/h
1947 26-05-2014 19:00:00 20.4 C 12.91 g/m*3 20.4 C 0 km/h
1948 26-05-2014 19:05:00 20.3 C 13.01 g/m*3 20.3 C 0 km/h
1949 26-05-2014 19:10:00 20.2 C 12.94 g/m*3 20.2 C 0 km/h
1950 26-05-2014 19:15:00 20.1 C 13.21 g/m*3 20.1 C 0 km/h
Sensor: Nr:Datum:Temp:Abs-Feuchte:Windchill:Wind:
Aussen-T/F 1951 26-05-2014 19:20:00 19.9 C 13.4 g/m*3 19.9 C 0 km/h
1952 26-05-2014 19:25:00 19.8 C 13.32 g/m*3 19.8 C 0 km/h
1953 26-05-2014 19:30:00 19.6 C 13.17 g/m*3 19.6 C 0 km/h
1954 26-05-2014 19:35:00 19.6 C 13.51 g/m*3 19.6 C 0 km/h
1955 26-05-2014 19:40:00 19.5 C 12.92 g/m*3 19.5 C 0 km/h
1956 26-05-2014 19:45:00 19.4 C 13.35 g/m*3 19.4 C 0 km/h
1957 26-05-2014 19:50:00 19.4 C 12.85 g/m*3 19.4 C 0 km/h
1958 26-05-2014 19:55:00 19.4 C 13.01 g/m*3 19.4 C 0 km/h
1959 26-05-2014 20:00:00 19.4 C 13.35 g/m*3 19.4 C 1.6 km/h
1960 26-05-2014 20:05:00 19.3 C 13.27 g/m*3 19.3 C 0 km/h
1961 26-05-2014 20:10:00 19.2 C 13.19 g/m*3 19.2 C 0 km/h
1962 26-05-2014 20:15:00 19.1 C 12.79 g/m*3 19.1 C 0 km/h
1963 26-05-2014 20:20:00 18.9 C 12.8 g/m*3 18.9 C 0 km/h
1964 26-05-2014 20:25:00 18.7 C 12.65 g/m*3 18.7 C 0 km/h
1965 26-05-2014 20:30:00 18.6 C 12.89 g/m*3 18.6 C 1.6 km/h
1966 26-05-2014 20:35:00 18.3 C 12.98 g/m*3 18.3 C 0 km/h
1967 26-05-2014 20:40:00 18.1 C 12.82 g/m*3 18.1 C 1.6 km/h
1968 26-05-2014 20:45:00 17.9 C 12.67 g/m*3 17.9 C 0 km/h
1969 26-05-2014 20:50:00 17.7 C 12.52 g/m*3 17.7 C 0 km/h
1970 26-05-2014 20:55:00 17.7 C 12.52 g/m*3 17.7 C 0 km/h
1971 26-05-2014 21:00:00 17.7 C 12.52 g/m*3 17.7 C 3.2 km/h
1972 26-05-2014 21:05:00 17.6 C 12.45 g/m*3 17.6 C 0 km/h
1973 26-05-2014 21:10:00 17.5 C 12.52 g/m*3 17.5 C 0 km/h
1974 26-05-2014 21:15:00 17.4 C 12.45 g/m*3 17.4 C 0 km/h
1975 26-05-2014 21:20:00 17.3 C 12.52 g/m*3 17.3 C 0 km/h
Sensor: Nr:Datum:Temp:Abs-Feuchte:Windchill:Wind:
Aussen-T/F 1976 26-05-2014 21:25:00 17.3 C 12.67 g/m*3 17.3 C 0 km/h
1977 26-05-2014 21:30:00 17.3 C 12.67 g/m*3 17.3 C 0 km/h
1978 26-05-2014 21:35:00 17.3 C 12.67 g/m*3 17.3 C 0 km/h
1979 26-05-2014 21:40:00 17.3 C 12.67 g/m*3 17.3 C 0 km/h
1980 26-05-2014 21:45:00 17.3 C 12.67 g/m*3 17.3 C 0 km/h
1981 26-05-2014 21:50:00 17.3 C 12.67 g/m*3 17.3 C 0 km/h
1982 26-05-2014 21:55:00 17.3 C 12.52 g/m*3 17.3 C 0 km/h
1983 26-05-2014 22:00:00 17.3 C 12.52 g/m*3 17.3 C 0 km/h
1984 26-05-2014 22:05:00 17.4 C 12.45 g/m*3 17.4 C 0 km/h
1985 26-05-2014 22:10:00 17.4 C 12.45 g/m*3 17.4 C 1.6 km/h
1986 26-05-2014 22:15:00 17.5 C 12.52 g/m*3 17.5 C 1.6 km/h
1987 26-05-2014 22:20:00 17.6 C 12.6 g/m*3 17.6 C 0 km/h
1988 26-05-2014 22:25:00 17.6 C 12.9 g/m*3 17.6 C 0 km/h
1989 26-05-2014 22:30:00 17.4 C 12.89 g/m*3 17.4 C 0 km/h
1990 26-05-2014 22:35:00 17.3 C 12.96 g/m*3 17.3 C 1.6 km/h
1991 26-05-2014 22:40:00 17.2 C 13.03 g/m*3 17.2 C 0 km/h
1992 26-05-2014 22:45:00 17.1 C 12.96 g/m*3 17.1 C 0 km/h
1993 26-05-2014 22:50:00 16.9 C 12.94 g/m*3 16.9 C 1.6 km/h
1994 26-05-2014 22:55:00 16.8 C 12.87 g/m*3 16.8 C 0 km/h
1995 26-05-2014 23:00:00 16.8 C 13.01 g/m*3 16.8 C 1.6 km/h
1996 26-05-2014 23:05:00 16.7 C 12.93 g/m*3 16.7 C 0 km/h
1997 26-05-2014 23:10:00 16.7 C 13.07 g/m*3 16.7 C 4.8 km/h
1998 26-05-2014 23:15:00 16.6 C 13 g/m*3 16.6 C 3.2 km/h
1999 26-05-2014 23:20:00 16.6 C 13 g/m*3 16.6 C 0 km/h
2000 26-05-2014 23:25:00 16.5 C 13.06 g/m*3 16.5 C 3.2 km/h
Sensor: Nr:Datum:Temp:Abs-Feuchte:Windchill:Wind:
Aussen-T/F 2001 26-05-2014 23:30:00 16.4 C 12.98 g/m*3 16.4 C 0 km/h
2002 26-05-2014 23:35:00 16.3 C 12.9 g/m*3 16.3 C 0 km/h
2003 26-05-2014 23:40:00 16.3 C 13.04 g/m*3 16.3 C 1.6 km/h
2004 26-05-2014 23:45:00 16.3 C 13.04 g/m*3 16.3 C 0 km/h
2005 26-05-2014 23:50:00 16.2 C 12.96 g/m*3 16.2 C 1.6 km/h
2006 26-05-2014 23:55:00 16.2 C 12.96 g/m*3 16.2 C 0 km/h
2007 27-05-2014 00:00:00 16.2 C 12.96 g/m*3 16.2 C 0 km/h
2008 27-05-2014 00:40:00 15.8 C 12.79 g/m*3 15.8 C 0 km/h
2009 27-05-2014 00:45:00 15.8 C 12.79 g/m*3 15.8 C 0 km/h
2010 27-05-2014 00:50:00 15.7 C 12.71 g/m*3 15.7 C 0 km/h
2011 27-05-2014 00:55:00 15.7 C 12.71 g/m*3 15.7 C 0 km/h
2012 27-05-2014 01:00:00 15.7 C 12.71 g/m*3 15.7 C 0 km/h
2013 27-05-2014 01:05:00 15.7 C 12.84 g/m*3 15.7 C 0 km/h
2014 27-05-2014 01:10:00 15.6 C 12.77 g/m*3 15.6 C 0 km/h
2015 27-05-2014 01:15:00 15.6 C 12.77 g/m*3 15.6 C 0 km/h
2016 27-05-2014 01:20:00 15.4 C 12.61 g/m*3 15.4 C 0 km/h
2017 27-05-2014 01:25:00 15.3 C 12.41 g/m*3 15.3 C 0 km/h
2018 27-05-2014 01:30:00 15.2 C 12.33 g/m*3 15.2 C 0 km/h
2019 27-05-2014 01:35:00 15.2 C 12.46 g/m*3 15.2 C 0 km/h
2020 27-05-2014 01:40:00 15.1 C 12.39 g/m*3 15.1 C 0 km/h
2021 27-05-2014 01:45:00 15.1 C 12.39 g/m*3 15.1 C 0 km/h
2022 27-05-2014 01:50:00 15 C 12.31 g/m*3 15 C 0 km/h
2023 27-05-2014 01:55:00 14.9 C 12.24 g/m*3 14.9 C 0 km/h
2024 27-05-2014 02:00:00 14.9 C 12.24 g/m*3 14.9 C 0 km/h
2025 27-05-2014 02:05:00 14.9 C 12.24 g/m*3 14.9 C 0 km/h
Sensor: Nr:Datum:Temp:Abs-Feuchte:Windchill:Wind:
Aussen-T/F 2026 27-05-2014 02:10:00 14.8 C 12.16 g/m*3 14.8 C 0 km/h
2027 27-05-2014 02:15:00 14.8 C 12.16 g/m*3 14.8 C 0 km/h
2028 27-05-2014 02:20:00 14.8 C 12.16 g/m*3 14.8 C 0 km/h
2029 27-05-2014 02:25:00 14.8 C 12.16 g/m*3 14.8 C 0 km/h
2030 27-05-2014 02:30:00 14.8 C 12.16 g/m*3 14.8 C 0 km/h
2031 27-05-2014 02:35:00 14.8 C 12.29 g/m*3 14.8 C 0 km/h
2032 27-05-2014 02:40:00 14.8 C 12.29 g/m*3 14.8 C 0 km/h
2033 27-05-2014 02:45:00 14.8 C 12.29 g/m*3 14.8 C 0 km/h
2034 27-05-2014 02:50:00 14.8 C 12.29 g/m*3 14.8 C 0 km/h
2035 27-05-2014 02:55:00 14.8 C 12.29 g/m*3 14.8 C 0 km/h
2036 27-05-2014 03:00:00 14.8 C 12.29 g/m*3 14.8 C 0 km/h
2037 27-05-2014 03:05:00 14.8 C 12.16 g/m*3 14.8 C 0 km/h
2038 27-05-2014 03:10:00 14.8 C 12.16 g/m*3 14.8 C 0 km/h
2039 27-05-2014 03:15:00 14.8 C 12.29 g/m*3 14.8 C 0 km/h
2040 27-05-2014 03:20:00 14.8 C 12.29 g/m*3 14.8 C 0 km/h
2041 27-05-2014 03:25:00 14.7 C 12.21 g/m*3 14.7 C 0 km/h
2042 27-05-2014 03:30:00 14.7 C 12.21 g/m*3 14.7 C 0 km/h
2043 27-05-2014 03:35:00 14.7 C 12.21 g/m*3 14.7 C 0 km/h
2044 27-05-2014 03:40:00 14.7 C 12.21 g/m*3 14.7 C 0 km/h
2045 27-05-2014 03:45:00 14.7 C 12.21 g/m*3 14.7 C 0 km/h
2046 27-05-2014 03:50:00 14.7 C 12.21 g/m*3 14.7 C 0 km/h
2047 27-05-2014 03:55:00 14.7 C 12.21 g/m*3 14.7 C 0 km/h
2048 27-05-2014 04:00:00 14.7 C 12.21 g/m*3 14.7 C 0 km/h
2049 27-05-2014 04:05:00 14.7 C 12.21 g/m*3 14.7 C 0 km/h
2050 27-05-2014 04:10:00 14.7 C 12.21 g/m*3 14.7 C 0 km/h
Sensor: Nr:Datum:Temp:Abs-Feuchte:Windchill:Wind:
Aussen-T/F 2051 27-05-2014 04:15:00 14.7 C 12.21 g/m*3 14.7 C 0 km/h
2052 27-05-2014 04:20:00 14.7 C 12.21 g/m*3 14.7 C 0 km/h
2053 27-05-2014 04:25:00 14.7 C 12.21 g/m*3 14.7 C 0 km/h
2054 27-05-2014 04:30:00 14.7 C 12.21 g/m*3 14.7 C 0 km/h
2055 27-05-2014 04:35:00 14.7 C 12.21 g/m*3 14.7 C 0 km/h
2056 27-05-2014 04:40:00 14.7 C 12.21 g/m*3 14.7 C 0 km/h
2057 27-05-2014 04:45:00 14.7 C 12.21 g/m*3 14.7 C 0 km/h
2058 27-05-2014 04:50:00 14.6 C 12.14 g/m*3 14.6 C 0 km/h
2059 27-05-2014 04:55:00 14.6 C 12.14 g/m*3 14.6 C 0 km/h
2060 27-05-2014 05:00:00 14.6 C 12.14 g/m*3 14.6 C 0 km/h
2061 27-05-2014 05:05:00 14.6 C 12.14 g/m*3 14.6 C 0 km/h
2062 27-05-2014 05:10:00 14.5 C 12.06 g/m*3 14.5 C 0 km/h
2063 27-05-2014 05:15:00 14.5 C 12.06 g/m*3 14.5 C 0 km/h
2064 27-05-2014 05:20:00 14.5 C 12.06 g/m*3 14.5 C 0 km/h
2065 27-05-2014 05:25:00 14.5 C 12.06 g/m*3 14.5 C 0 km/h
2066 27-05-2014 05:30:00 14.4 C 11.99 g/m*3 14.4 C 0 km/h
2067 27-05-2014 05:35:00 14.4 C 11.99 g/m*3 14.4 C 0 km/h
2068 27-05-2014 05:40:00 14.3 C 11.92 g/m*3 14.3 C 0 km/h
2069 27-05-2014 05:45:00 14.3 C 11.92 g/m*3 14.3 C 0 km/h
2070 27-05-2014 05:50:00 14.3 C 11.92 g/m*3 14.3 C 0 km/h
2071 27-05-2014 05:55:00 14.3 C 11.92 g/m*3 14.3 C 0 km/h
2072 27-05-2014 06:00:00 14.3 C 11.92 g/m*3 14.3 C 0 km/h
2073 27-05-2014 06:05:00 14.3 C 11.92 g/m*3 14.3 C 0 km/h
2074 27-05-2014 06:10:00 14.4 C 11.99 g/m*3 14.4 C 0 km/h
2075 27-05-2014 06:15:00 14.4 C 11.99 g/m*3 14.4 C 0 km/h
Sensor: Nr:Datum:Temp:Abs-Feuchte:Windchill:Wind:
Aussen-T/F 2076 27-05-2014 06:20:00 14.4 C 11.99 g/m*3 14.4 C 0 km/h
2077 27-05-2014 06:25:00 14.4 C 11.99 g/m*3 14.4 C 0 km/h
2078 27-05-2014 06:30:00 14.4 C 11.99 g/m*3 14.4 C 0 km/h
2079 27-05-2014 06:35:00 14.5 C 12.06 g/m*3 14.5 C 0 km/h
2080 27-05-2014 06:40:00 14.6 C 12.14 g/m*3 14.6 C 0 km/h
2081 27-05-2014 06:45:00 14.6 C 12.14 g/m*3 14.6 C 0 km/h
2082 27-05-2014 06:50:00 14.6 C 12.14 g/m*3 14.6 C 0 km/h
2083 27-05-2014 06:55:00 14.7 C 12.34 g/m*3 14.7 C 0 km/h
2084 27-05-2014 07:00:00 14.7 C 12.34 g/m*3 14.7 C 0 km/h
2085 27-05-2014 07:05:00 14.7 C 12.34 g/m*3 14.7 C 0 km/h
2086 27-05-2014 07:10:00 14.7 C 12.34 g/m*3 14.7 C 1.6 km/h
2087 27-05-2014 07:15:00 14.8 C 12.41 g/m*3 14.8 C 1.6 km/h
2088 27-05-2014 07:20:00 14.8 C 12.41 g/m*3 14.8 C 0 km/h
2089 27-05-2014 07:25:00 14.9 C 12.49 g/m*3 14.9 C 3.2 km/h
2090 27-05-2014 07:30:00 14.9 C 12.49 g/m*3 14.9 C 0 km/h
2091 27-05-2014 07:35:00 14.9 C 12.49 g/m*3 14.9 C 1.6 km/h
2092 27-05-2014 07:40:00 15 C 12.57 g/m*3 15 C 3.2 km/h
2093 27-05-2014 07:45:00 15 C 12.57 g/m*3 15 C 1.6 km/h
2094 27-05-2014 07:50:00 15 C 12.57 g/m*3 15 C 3.2 km/h
2095 27-05-2014 07:55:00 15.1 C 12.64 g/m*3 15.1 C 3.2 km/h
2096 27-05-2014 08:00:00 15 C 12.57 g/m*3 15 C 1.6 km/h
2097 27-05-2014 08:05:00 14.9 C 12.49 g/m*3 14.9 C 1.6 km/h
2098 27-05-2014 08:10:00 14.9 C 12.36 g/m*3 14.9 C 0 km/h
2099 27-05-2014 08:15:00 14.9 C 12.36 g/m*3 14.9 C 1.6 km/h
2100 27-05-2014 08:20:00 15 C 12.44 g/m*3 15 C 1.6 km/h
Sensor: Nr:Datum:Temp:Abs-Feuchte:Windchill:Wind:
Aussen-T/F 2101 27-05-2014 08:25:00 14.9 C 12.36 g/m*3 14.9 C 8.1 km/h
2102 27-05-2014 08:30:00 14.9 C 12.36 g/m*3 14.9 C 1.6 km/h
2103 27-05-2014 08:35:00 15 C 12.44 g/m*3 15 C 0 km/h
2104 27-05-2014 08:40:00 15.1 C 12.51 g/m*3 15.1 C 1.6 km/h
2105 27-05-2014 08:45:00 15 C 12.44 g/m*3 15 C 1.6 km/h
2106 27-05-2014 08:50:00 15 C 12.44 g/m*3 15 C 0 km/h
2107 27-05-2014 08:55:00 14.9 C 12.36 g/m*3 14.9 C 8.1 km/h
2108 27-05-2014 09:00:00 14.9 C 12.36 g/m*3 14.9 C 0 km/h
2109 27-05-2014 09:05:00 14.8 C 12.29 g/m*3 14.8 C 1.6 km/h
2110 27-05-2014 09:10:00 14.8 C 12.29 g/m*3 14.8 C 4.8 km/h
2111 27-05-2014 09:15:00 14.8 C 12.29 g/m*3 14.8 C 6.4 km/h
2112 27-05-2014 09:20:00 14.7 C 12.09 g/m*3 14.7 C 6.4 km/h
2113 27-05-2014 09:25:00 14.7 C 12.09 g/m*3 14.7 C 3.2 km/h
2114 27-05-2014 09:30:00 14.7 C 12.09 g/m*3 14.7 C 8.1 km/h
2115 27-05-2014 09:35:00 14.7 C 12.09 g/m*3 14.7 C 8.1 km/h
2116 27-05-2014 09:40:00 14.7 C 12.09 g/m*3 14.7 C 9.7 km/h
2117 27-05-2014 09:45:00 14.7 C 12.09 g/m*3 14.7 C 8.1 km/h
2118 27-05-2014 09:50:00 14.8 C 12.16 g/m*3 14.8 C 3.2 km/h
2119 27-05-2014 09:55:00 14.8 C 12.16 g/m*3 14.8 C 3.2 km/h
2120 27-05-2014 10:00:00 14.9 C 12.24 g/m*3 14.9 C 0 km/h
2121 27-05-2014 10:05:00 14.8 C 12.03 g/m*3 14.8 C 3.2 km/h
2122 27-05-2014 10:10:00 14.8 C 12.03 g/m*3 14.8 C 1.6 km/h
2123 27-05-2014 10:15:00 14.8 C 12.03 g/m*3 14.8 C 9.7 km/h
2124 27-05-2014 10:20:00 14.8 C 12.03 g/m*3 14.8 C 6.4 km/h
2125 27-05-2014 10:25:00 14.8 C 12.03 g/m*3 14.8 C 1.6 km/h
Sensor: Nr:Datum:Temp:Abs-Feuchte:Windchill:Wind:
Aussen-T/F 2126 27-05-2014 10:30:00 14.8 C 12.03 g/m*3 14.8 C 6.4 km/h
2127 27-05-2014 10:35:00 14.9 C 12.11 g/m*3 14.9 C 4.8 km/h
2128 27-05-2014 10:40:00 14.9 C 12.11 g/m*3 14.9 C 6.4 km/h
2129 27-05-2014 10:45:00 15 C 12.18 g/m*3 15 C 4.8 km/h
2130 27-05-2014 10:50:00 15.1 C 12.26 g/m*3 15.1 C 4.8 km/h
2131 27-05-2014 10:55:00 15.2 C 12.33 g/m*3 15.2 C 4.8 km/h
2132 27-05-2014 11:00:00 15.3 C 12.41 g/m*3 15.3 C 4.8 km/h
2133 27-05-2014 11:05:00 15.4 C 12.48 g/m*3 15.4 C 1.6 km/h
2134 27-05-2014 11:10:00 15.4 C 12.48 g/m*3 15.4 C 1.6 km/h
2135 27-05-2014 11:15:00 15.4 C 12.35 g/m*3 15.4 C 3.2 km/h
2136 27-05-2014 11:20:00 15.4 C 12.35 g/m*3 15.4 C 1.6 km/h
2137 27-05-2014 11:25:00 15.4 C 12.22 g/m*3 15.4 C 3.2 km/h
2138 27-05-2014 11:30:00 15.4 C 12.22 g/m*3 15.4 C 1.6 km/h
2139 27-05-2014 11:35:00 15.4 C 12.35 g/m*3 15.4 C 0 km/h
2140 27-05-2014 11:40:00 15.4 C 12.35 g/m*3 15.4 C 8.1 km/h
2141 27-05-2014 11:45:00 15.4 C 12.35 g/m*3 15.4 C 1.6 km/h
2142 27-05-2014 11:50:00 15.3 C 12.28 g/m*3 15.3 C 3.2 km/h
2143 27-05-2014 11:55:00 15.2 C 12.2 g/m*3 15.2 C 3.2 km/h
2144 27-05-2014 12:00:00 15.2 C 12.2 g/m*3 15.2 C 9.7 km/h
2145 27-05-2014 12:05:00 15.2 C 12.07 g/m*3 15.2 C 6.4 km/h
2146 27-05-2014 12:10:00 15.2 C 12.2 g/m*3 15.2 C 3.2 km/h
2147 27-05-2014 12:15:00 15.2 C 12.2 g/m*3 15.2 C 3.2 km/h
2148 27-05-2014 12:20:00 15.3 C 12.14 g/m*3 15.3 C 6.4 km/h
2149 27-05-2014 12:25:00 15.4 C 12.22 g/m*3 15.4 C 4.8 km/h
2150 27-05-2014 12:30:00 15.6 C 12.23 g/m*3 15.6 C 6.4 km/h
Sensor: Nr:Datum:Temp:Abs-Feuchte:Windchill:Wind:
Aussen-T/F 2151 27-05-2014 12:35:00 15.7 C 12.18 g/m*3 15.7 C 12.9 km/h
2152 27-05-2014 12:40:00 15.8 C 12.25 g/m*3 15.8 C 4.8 km/h
2153 27-05-2014 12:45:00 15.9 C 12.32 g/m*3 15.9 C 14.5 km/h
2154 27-05-2014 12:50:00 16.1 C 12.47 g/m*3 16.1 C 4.8 km/h
2155 27-05-2014 12:55:00 16.3 C 12.49 g/m*3 16.3 C 3.2 km/h
2156 27-05-2014 13:00:00 16.6 C 12.71 g/m*3 16.6 C 3.2 km/h
2157 27-05-2014 13:05:00 16.9 C 13.09 g/m*3 16.9 C 9.7 km/h
2158 27-05-2014 13:10:00 17.2 C 13.18 g/m*3 17.2 C 6.4 km/h
2159 27-05-2014 13:15:00 17.3 C 12.82 g/m*3 17.3 C 6.4 km/h
2160 27-05-2014 13:20:00 17.5 C 12.97 g/m*3 17.5 C 14.5 km/h
2161 27-05-2014 13:25:00 17.6 C 12.6 g/m*3 17.6 C 11.3 km/h
2162 27-05-2014 13:30:00 17.6 C 12.75 g/m*3 17.6 C 4.8 km/h
2163 27-05-2014 13:35:00 17.6 C 12.75 g/m*3 17.6 C 8.1 km/h
2164 27-05-2014 13:40:00 17.6 C 12.75 g/m*3 17.6 C 4.8 km/h
2165 27-05-2014 13:45:00 17.6 C 12.75 g/m*3 17.6 C 1.6 km/h
2166 27-05-2014 14:10:00 18.4 C 15.73 g/m*3 18.4 C 9.7 km/h
2167 27-05-2014 14:15:00 18.4 C 15.73 g/m*3 18.4 C 9.7 km/h
2168 27-05-2014 15:30:00 16.5 C 11.8 g/m*3 16.5 C 6.4 km/h
2169 27-05-2014 15:35:00 16.5 C 11.8 g/m*3 16.5 C 3.2 km/h
2170 27-05-2014 15:40:00 16.3 C 11.65 g/m*3 16.3 C 12.9 km/h
2171 27-05-2014 15:45:00 16.3 C 11.65 g/m*3 16.3 C 3.2 km/h
2172 27-05-2014 15:50:00 16.3 C 11.65 g/m*3 16.3 C 1.6 km/h
2173 27-05-2014 15:55:00 16.3 C 11.65 g/m*3 16.3 C 3.2 km/h
2174 27-05-2014 16:00:00 16.2 C 11.58 g/m*3 16.2 C 6.4 km/h
2175 27-05-2014 16:05:00 16.2 C 11.58 g/m*3 16.2 C 3.2 km/h
Sensor: Nr:Datum:Temp:Abs-Feuchte:Windchill:Wind:
Aussen-T/F 2176 27-05-2014 16:10:00 16.2 C 11.58 g/m*3 16.2 C 1.6 km/h
2177 27-05-2014 16:15:00 16.2 C 11.86 g/m*3 16.2 C 1.6 km/h
2178 27-05-2014 16:20:00 16.2 C 11.86 g/m*3 16.2 C 1.6 km/h
2179 27-05-2014 17:00:00 15.4 C 12.22 g/m*3 15.4 C 3.2 km/h
2180 27-05-2014 17:05:00 15.3 C 12.28 g/m*3 15.3 C 1.6 km/h
2181 27-05-2014 17:10:00 15.3 C 12.28 g/m*3 15.3 C 1.6 km/h
2182 27-05-2014 17:15:00 15.3 C 12.28 g/m*3 15.3 C 1.6 km/h
2183 27-05-2014 17:35:00 15.3 C 12.41 g/m*3 15.3 C 3.2 km/h
2184 27-05-2014 17:40:00 15.3 C 12.28 g/m*3 15.3 C 1.6 km/h
2185 27-05-2014 17:45:00 15.3 C 12.28 g/m*3 15.3 C 3.2 km/h
2186 27-05-2014 18:10:00 16.4 C 13.96 g/m*3 16.4 C 11.3 km/h
2187 27-05-2014 18:15:00 16.4 C 13.96 g/m*3 16.4 C 4.8 km/h
2188 27-05-2014 18:20:00 16.4 C 13.96 g/m*3 16.4 C 8.1 km/h
2189 27-05-2014 18:25:00 16.4 C 13.96 g/m*3 16.4 C 4.8 km/h
2190 27-05-2014 19:35:00 15.3 C 13.06 g/m*3 15.3 C 0 km/h
2191 27-05-2014 19:40:00 15.4 C 12.61 g/m*3 15.4 C 0 km/h
2192 27-05-2014 19:45:00 15.4 C 12.61 g/m*3 15.4 C 0 km/h
2193 27-05-2014 19:50:00 15.4 C 12.61 g/m*3 15.4 C 0 km/h
2194 27-05-2014 19:55:00 15.4 C 12.61 g/m*3 15.4 C 0 km/h
2195 27-05-2014 20:00:00 15.4 C 12.61 g/m*3 15.4 C 0 km/h
2196 27-05-2014 20:05:00 15.4 C 12.61 g/m*3 15.4 C 0 km/h
2197 27-05-2014 20:10:00 15.3 C 12.54 g/m*3 15.3 C 0 km/h
2198 27-05-2014 20:15:00 15.3 C 12.54 g/m*3 15.3 C 0 km/h
2199 27-05-2014 20:20:00 15.3 C 12.54 g/m*3 15.3 C 0 km/h
2200 27-05-2014 20:25:00 15.2 C 12.46 g/m*3 15.2 C 1.6 km/h
Sensor: Nr:Datum:Temp:Abs-Feuchte:Windchill:Wind:
Aussen-T/F 2201 27-05-2014 20:30:00 15.1 C 12.39 g/m*3 15.1 C 0 km/h
2202 27-05-2014 20:35:00 14.9 C 12.11 g/m*3 14.9 C 4.8 km/h
2203 27-05-2014 20:40:00 14.8 C 11.78 g/m*3 14.8 C 6.4 km/h
2204 27-05-2014 20:45:00 14.8 C 11.65 g/m*3 14.8 C 3.2 km/h
2205 27-05-2014 20:50:00 14.8 C 11.53 g/m*3 14.8 C 3.2 km/h
2206 27-05-2014 20:55:00 14.8 C 11.65 g/m*3 14.8 C 3.2 km/h
2207 27-05-2014 21:00:00 14.8 C 11.65 g/m*3 14.8 C 1.6 km/h
2208 27-05-2014 21:05:00 14.6 C 11.51 g/m*3 14.6 C 1.6 km/h
2209 27-05-2014 21:10:00 14.6 C 11.51 g/m*3 14.6 C 3.2 km/h
2210 27-05-2014 21:15:00 14.5 C 11.32 g/m*3 14.5 C 3.2 km/h
2211 27-05-2014 21:20:00 14.5 C 11.32 g/m*3 14.5 C 4.8 km/h
2212 27-05-2014 21:25:00 14.6 C 11.26 g/m*3 14.6 C 1.6 km/h
2213 27-05-2014 21:30:00 14.6 C 11.51 g/m*3 14.6 C 1.6 km/h
2214 27-05-2014 21:35:00 14.4 C 11.37 g/m*3 14.4 C 1.6 km/h
2215 27-05-2014 21:40:00 14.4 C 11.25 g/m*3 14.4 C 6.4 km/h
2216 27-05-2014 21:45:00 14.4 C 11.25 g/m*3 14.4 C 8.1 km/h
2217 27-05-2014 21:50:00 14.4 C 11.25 g/m*3 14.4 C 6.4 km/h
2218 28-05-2014 10:35:00 15.6 C 13.3 g/m*3 15.6 C 9.7 km/h
2219 28-05-2014 10:40:00 15.6 C 13.3 g/m*3 15.6 C 8.1 km/h
2220 28-05-2014 10:45:00 15.6 C 13.3 g/m*3 15.6 C 6.4 km/h
2221 28-05-2014 10:50:00 15.6 C 13.3 g/m*3 15.6 C 3.2 km/h
2222 28-05-2014 10:55:00 15.6 C 13.3 g/m*3 15.6 C 6.4 km/h
2223 28-05-2014 11:00:00 15.6 C 13.3 g/m*3 15.6 C 9.7 km/h
2224 28-05-2014 11:05:00 15.6 C 13.3 g/m*3 15.6 C 6.4 km/h
2225 28-05-2014 17:30:00 16.7 C 10.37 g/m*3 16.7 C 3.2 km/h
Sensor: Nr:Datum:Temp:Abs-Feuchte:Windchill:Wind:
Aussen-T/F 2226 28-05-2014 17:35:00 16.4 C 11.58 g/m*3 16.4 C 0 km/h
2227 28-05-2014 17:40:00 16.3 C 11.65 g/m*3 16.3 C 0 km/h
2228 28-05-2014 17:45:00 16.2 C 11.31 g/m*3 16.2 C 0 km/h
2229 28-05-2014 17:50:00 16.2 C 11.17 g/m*3 16.2 C 0 km/h
2230 28-05-2014 17:55:00 16.3 C 11.65 g/m*3 16.3 C 0 km/h
2231 28-05-2014 18:00:00 16.4 C 11.58 g/m*3 16.4 C 0 km/h
2232 28-05-2014 18:05:00 16.6 C 11.44 g/m*3 16.6 C 0 km/h
2233 28-05-2014 18:10:00 16.8 C 11.29 g/m*3 16.8 C 0 km/h
2234 28-05-2014 18:15:00 17.1 C 11.21 g/m*3 17.1 C 0 km/h
2235 28-05-2014 18:20:00 17.2 C 11.57 g/m*3 17.2 C 0 km/h
2236 28-05-2014 18:25:00 17.2 C 11.86 g/m*3 17.2 C 0 km/h
2237 28-05-2014 18:30:00 17.1 C 11.06 g/m*3 17.1 C 0 km/h
2238 28-05-2014 18:35:00 17.1 C 11.79 g/m*3 17.1 C 0 km/h
2239 28-05-2014 18:40:00 16.9 C 11.65 g/m*3 16.9 C 0 km/h
2240 28-05-2014 18:45:00 16.7 C 11.94 g/m*3 16.7 C 1.6 km/h
2241 28-05-2014 18:50:00 16.4 C 11.86 g/m*3 16.4 C 1.6 km/h
2242 28-05-2014 18:55:00 16.3 C 11.79 g/m*3 16.3 C 0 km/h
2243 28-05-2014 19:00:00 16.3 C 11.79 g/m*3 16.3 C 0 km/h
2244 28-05-2014 19:05:00 16.3 C 11.65 g/m*3 16.3 C 0 km/h
2245 28-05-2014 19:10:00 16.2 C 11.72 g/m*3 16.2 C 0 km/h
2246 28-05-2014 19:15:00 16.1 C 11.79 g/m*3 16.1 C 1.6 km/h
2247 28-05-2014 19:20:00 16.1 C 11.65 g/m*3 16.1 C 0 km/h
2248 28-05-2014 19:25:00 16.1 C 11.65 g/m*3 16.1 C 0 km/h
2249 28-05-2014 19:30:00 16.2 C 11.86 g/m*3 16.2 C 0 km/h
2250 28-05-2014 19:35:00 16.2 C 11.45 g/m*3 16.2 C 0 km/h
Sensor: Nr:Datum:Temp:Abs-Feuchte:Windchill:Wind:
Aussen-T/F 2251 28-05-2014 19:40:00 16.2 C 11.58 g/m*3 16.2 C 0 km/h
2252 28-05-2014 19:45:00 16.1 C 11.51 g/m*3 16.1 C 1.6 km/h
2253 28-05-2014 19:50:00 16 C 10.63 g/m*3 16 C 3.2 km/h
2254 28-05-2014 19:55:00 16.1 C 11.38 g/m*3 16.1 C 0 km/h
2255 28-05-2014 20:00:00 16.1 C 11.65 g/m*3 16.1 C 3.2 km/h
2256 28-05-2014 20:05:00 15.9 C 11.38 g/m*3 15.9 C 0 km/h
2257 28-05-2014 20:10:00 15.7 C 11.37 g/m*3 15.7 C 1.6 km/h
2258 28-05-2014 20:15:00 15.6 C 11.44 g/m*3 15.6 C 0 km/h
2259 28-05-2014 20:20:00 15.3 C 11.36 g/m*3 15.3 C 0 km/h
2260 28-05-2014 20:25:00 15.2 C 11.16 g/m*3 15.2 C 1.6 km/h
2261 28-05-2014 20:30:00 15.2 C 11.42 g/m*3 15.2 C 1.6 km/h
2262 28-05-2014 20:35:00 15.2 C 11.42 g/m*3 15.2 C 0 km/h
2263 28-05-2014 20:40:00 15.1 C 11.48 g/m*3 15.1 C 0 km/h
2264 28-05-2014 20:45:00 14.9 C 11.34 g/m*3 14.9 C 0 km/h
2265 28-05-2014 20:50:00 14.7 C 11.21 g/m*3 14.7 C 0 km/h
2266 28-05-2014 20:55:00 14.5 C 11.07 g/m*3 14.5 C 0 km/h
2267 28-05-2014 21:00:00 14.3 C 10.93 g/m*3 14.3 C 0 km/h
2268 28-05-2014 21:05:00 14.1 C 10.8 g/m*3 14.1 C 0 km/h
2269 28-05-2014 21:10:00 13.9 C 10.67 g/m*3 13.9 C 0 km/h
2270 28-05-2014 21:15:00 13.7 C 10.54 g/m*3 13.7 C 1.6 km/h
2271 28-05-2014 21:20:00 13.6 C 10.59 g/m*3 13.6 C 0 km/h
2272 28-05-2014 21:25:00 13.4 C 10.46 g/m*3 13.4 C 0 km/h
2273 28-05-2014 21:30:00 13.3 C 10.51 g/m*3 13.3 C 1.6 km/h
2274 28-05-2014 21:35:00 13.2 C 10.33 g/m*3 13.2 C 1.6 km/h
2275 28-05-2014 21:40:00 13.1 C 10.27 g/m*3 13.1 C 0 km/h
Sensor: Nr:Datum:Temp:Abs-Feuchte:Windchill:Wind:
Aussen-T/F 2276 28-05-2014 21:45:00 13.1 C 10.27 g/m*3 13.1 C 0 km/h
2277 28-05-2014 21:50:00 13 C 10.32 g/m*3 13 C 0 km/h
2278 28-05-2014 21:55:00 12.9 C 10.26 g/m*3 12.9 C 0 km/h
2279 28-05-2014 22:00:00 12.9 C 10.37 g/m*3 12.9 C 0 km/h
2280 28-05-2014 22:05:00 12.8 C 10.3 g/m*3 12.8 C 0 km/h
2281 28-05-2014 22:10:00 12.8 C 10.3 g/m*3 12.8 C 0 km/h
2282 28-05-2014 22:15:00 12.7 C 10.24 g/m*3 12.7 C 0 km/h
2283 28-05-2014 22:20:00 12.6 C 10.18 g/m*3 12.6 C 0 km/h
2284 28-05-2014 22:25:00 12.6 C 10.18 g/m*3 12.6 C 0 km/h
2285 28-05-2014 22:30:00 12.5 C 10.11 g/m*3 12.5 C 0 km/h
2286 28-05-2014 22:35:00 12.4 C 10.05 g/m*3 12.4 C 0 km/h
2287 28-05-2014 22:40:00 12.4 C 10.16 g/m*3 12.4 C 0 km/h
2288 28-05-2014 22:45:00 12.3 C 10.1 g/m*3 12.3 C 0 km/h
2289 28-05-2014 22:50:00 12.3 C 9.99 g/m*3 12.3 C 0 km/h
2290 28-05-2014 22:55:00 12.2 C 9.93 g/m*3 12.2 C 0 km/h
2291 28-05-2014 23:00:00 12.1 C 9.87 g/m*3 12.1 C 0 km/h
2292 28-05-2014 23:05:00 12.1 C 9.87 g/m*3 12.1 C 0 km/h
2293 28-05-2014 23:10:00 11.9 C 9.74 g/m*3 11.9 C 0 km/h
2294 28-05-2014 23:15:00 11.9 C 9.85 g/m*3 11.9 C 0 km/h
2295 28-05-2014 23:20:00 11.8 C 9.79 g/m*3 11.8 C 0 km/h
2296 28-05-2014 23:25:00 11.8 C 9.79 g/m*3 11.8 C 0 km/h
2297 28-05-2014 23:30:00 11.7 C 9.73 g/m*3 11.7 C 0 km/h
2298 28-05-2014 23:35:00 11.7 C 9.83 g/m*3 11.7 C 0 km/h
2299 28-05-2014 23:40:00 11.6 C 9.67 g/m*3 11.6 C 0 km/h
2300 28-05-2014 23:45:00 11.5 C 9.71 g/m*3 11.5 C 0 km/h
Sensor: Nr:Datum:Temp:Abs-Feuchte:Windchill:Wind:
Aussen-T/F 2301 28-05-2014 23:50:00 11.4 C 9.65 g/m*3 11.4 C 0 km/h
2302 28-05-2014 23:55:00 11.4 C 9.65 g/m*3 11.4 C 0 km/h
2303 29-05-2014 00:00:00 11.4 C 9.65 g/m*3 11.4 C 0 km/h
2304 29-05-2014 00:05:00 11.4 C 9.65 g/m*3 11.4 C 0 km/h
2305 29-05-2014 00:10:00 11.3 C 9.59 g/m*3 11.3 C 0 km/h
2306 29-05-2014 00:15:00 11.2 C 9.53 g/m*3 11.2 C 0 km/h
2307 29-05-2014 00:20:00 11.1 C 9.47 g/m*3 11.1 C 0 km/h
2308 29-05-2014 00:25:00 11.1 C 9.57 g/m*3 11.1 C 0 km/h
2309 29-05-2014 00:30:00 11.1 C 9.57 g/m*3 11.1 C 0 km/h
2310 29-05-2014 00:35:00 11.1 C 9.57 g/m*3 11.1 C 0 km/h
2311 29-05-2014 00:40:00 11.1 C 9.57 g/m*3 11.1 C 0 km/h
2312 29-05-2014 00:45:00 11.1 C 9.57 g/m*3 11.1 C 0 km/h
2313 29-05-2014 00:50:00 11.1 C 9.57 g/m*3 11.1 C 0 km/h
2314 29-05-2014 00:55:00 11 C 9.51 g/m*3 11 C 0 km/h
2315 29-05-2014 01:00:00 10.9 C 9.45 g/m*3 10.9 C 0 km/h
2316 29-05-2014 01:05:00 10.9 C 9.45 g/m*3 10.9 C 0 km/h
2317 29-05-2014 01:10:00 10.8 C 9.39 g/m*3 10.8 C 0 km/h
2318 29-05-2014 01:15:00 10.8 C 9.39 g/m*3 10.8 C 0 km/h
2319 29-05-2014 01:20:00 10.7 C 9.33 g/m*3 10.7 C 0 km/h
2320 29-05-2014 01:25:00 10.7 C 9.33 g/m*3 10.7 C 1.6 km/h
2321 29-05-2014 01:30:00 10.6 C 9.27 g/m*3 10.6 C 0 km/h
2322 29-05-2014 01:35:00 10.6 C 9.27 g/m*3 10.6 C 0 km/h
2323 29-05-2014 01:40:00 10.5 C 9.21 g/m*3 10.5 C 0 km/h
2324 29-05-2014 01:45:00 10.4 C 9.25 g/m*3 10.4 C 0 km/h
2325 29-05-2014 01:50:00 10.4 C 9.16 g/m*3 10.4 C 0 km/h
Sensor: Nr:Datum:Temp:Abs-Feuchte:Windchill:Wind:
Aussen-T/F 2326 29-05-2014 01:55:00 10.3 C 9.19 g/m*3 10.3 C 1.6 km/h
2327 29-05-2014 02:00:00 10.3 C 9.19 g/m*3 10.3 C 1.6 km/h
2328 29-05-2014 02:05:00 10.3 C 9.19 g/m*3 10.3 C 0 km/h
2329 29-05-2014 02:10:00 10.3 C 9.19 g/m*3 10.3 C 0 km/h
2330 29-05-2014 02:15:00 10.2 C 9.14 g/m*3 10.2 C 0 km/h
2331 29-05-2014 02:20:00 10.2 C 9.14 g/m*3 10.2 C 0 km/h
2332 29-05-2014 02:25:00 10.1 C 9.08 g/m*3 10.1 C 0 km/h
2333 29-05-2014 02:30:00 10.2 C 9.14 g/m*3 10.2 C 0 km/h
2334 29-05-2014 02:35:00 10.1 C 9.08 g/m*3 10.1 C 0 km/h
2335 29-05-2014 02:40:00 10.1 C 9.08 g/m*3 10.1 C 0 km/h
2336 29-05-2014 02:45:00 10.1 C 9.08 g/m*3 10.1 C 0 km/h
2337 29-05-2014 02:50:00 9.9 C 8.96 g/m*3 9.9 C 0 km/h
2338 29-05-2014 02:55:00 9.9 C 8.96 g/m*3 9.9 C 0 km/h
2339 29-05-2014 03:00:00 9.9 C 8.96 g/m*3 9.9 C 0 km/h
2340 29-05-2014 03:05:00 9.9 C 8.96 g/m*3 9.9 C 0 km/h
2341 29-05-2014 03:10:00 9.9 C 8.96 g/m*3 9.9 C 0 km/h
2342 29-05-2014 03:15:00 9.9 C 8.96 g/m*3 9.9 C 0 km/h
2343 29-05-2014 03:20:00 9.9 C 8.96 g/m*3 9.9 C 0 km/h
2344 29-05-2014 03:25:00 9.9 C 8.96 g/m*3 9.9 C 0 km/h
2345 29-05-2014 03:30:00 9.9 C 8.96 g/m*3 9.9 C 0 km/h
2346 29-05-2014 03:35:00 9.9 C 8.96 g/m*3 9.9 C 0 km/h
2347 29-05-2014 03:40:00 9.8 C 8.91 g/m*3 9.8 C 0 km/h
2348 29-05-2014 03:45:00 9.8 C 8.91 g/m*3 9.8 C 0 km/h
2349 29-05-2014 03:50:00 9.7 C 8.85 g/m*3 9.7 C 0 km/h
2350 29-05-2014 03:55:00 9.6 C 8.79 g/m*3 9.6 C 0 km/h
Sensor: Nr:Datum:Temp:Abs-Feuchte:Windchill:Wind:
Aussen-T/F 2351 29-05-2014 04:00:00 9.6 C 8.79 g/m*3 9.6 C 0 km/h
2352 29-05-2014 04:05:00 9.6 C 8.79 g/m*3 9.6 C 0 km/h
2353 29-05-2014 04:10:00 9.5 C 8.74 g/m*3 9.5 C 0 km/h
2354 29-05-2014 04:15:00 9.6 C 8.89 g/m*3 9.6 C 0 km/h
2355 29-05-2014 04:20:00 9.7 C 8.94 g/m*3 9.7 C 0 km/h
2356 29-05-2014 04:25:00 9.8 C 9 g/m*3 9.8 C 0 km/h
2357 29-05-2014 04:30:00 9.8 C 9 g/m*3 9.8 C 3.2 km/h
2358 29-05-2014 04:35:00 9.9 C 9.06 g/m*3 9.9 C 0 km/h
2359 29-05-2014 04:40:00 9.9 C 9.06 g/m*3 9.9 C 4.8 km/h
2360 29-05-2014 04:45:00 9.9 C 9.06 g/m*3 9.9 C 0 km/h
2361 29-05-2014 04:50:00 9.8 C 8.91 g/m*3 9.8 C 1.6 km/h
2362 29-05-2014 04:55:00 9.7 C 8.94 g/m*3 9.7 C 1.6 km/h
2363 29-05-2014 05:00:00 9.7 C 8.94 g/m*3 9.7 C 1.6 km/h
2364 29-05-2014 05:05:00 9.7 C 8.85 g/m*3 9.7 C 0 km/h
2365 29-05-2014 05:10:00 9.6 C 8.79 g/m*3 9.6 C 0 km/h
2366 29-05-2014 05:15:00 9.6 C 8.79 g/m*3 9.6 C 1.6 km/h
2367 29-05-2014 05:20:00 9.6 C 8.79 g/m*3 9.6 C 0 km/h
2368 29-05-2014 05:25:00 9.6 C 8.79 g/m*3 9.6 C 0 km/h
2369 29-05-2014 05:30:00 9.4 C 8.68 g/m*3 9.4 C 0 km/h
2370 29-05-2014 05:35:00 9.4 C 8.77 g/m*3 9.4 C 0 km/h
2371 29-05-2014 05:40:00 9.4 C 8.77 g/m*3 8.28 C 8.1 km/h
2372 29-05-2014 05:45:00 9.4 C 8.77 g/m*3 9.4 C 3.2 km/h
2373 29-05-2014 05:50:00 9.4 C 8.77 g/m*3 9.4 C 4.8 km/h
2374 29-05-2014 05:55:00 9.4 C 8.77 g/m*3 9.4 C 1.6 km/h
2375 29-05-2014 06:00:00 9.5 C 8.83 g/m*3 9.5 C 4.8 km/h
Sensor: Nr:Datum:Temp:Abs-Feuchte:Windchill:Wind:
Aussen-T/F 2376 29-05-2014 06:05:00 9.5 C 8.83 g/m*3 9.5 C 4.8 km/h
2377 29-05-2014 06:10:00 9.4 C 8.77 g/m*3 9.4 C 0 km/h
2378 29-05-2014 06:15:00 9.4 C 8.77 g/m*3 9.4 C 3.2 km/h
2379 29-05-2014 06:20:00 9.4 C 8.77 g/m*3 9.4 C 4.8 km/h
2380 29-05-2014 06:25:00 9.5 C 8.83 g/m*3 8.09 C 9.7 km/h
2381 29-05-2014 06:30:00 9.5 C 8.83 g/m*3 9.5 C 1.6 km/h
2382 29-05-2014 06:35:00 9.6 C 8.89 g/m*3 9.6 C 3.2 km/h
2383 29-05-2014 06:40:00 9.6 C 8.89 g/m*3 9.6 C 4.8 km/h
2384 29-05-2014 06:45:00 9.6 C 8.89 g/m*3 9.6 C 4.8 km/h
2385 29-05-2014 06:50:00 9.6 C 8.89 g/m*3 9.6 C 3.2 km/h
2386 29-05-2014 06:55:00 9.7 C 8.94 g/m*3 9.7 C 3.2 km/h
2387 29-05-2014 07:00:00 9.6 C 8.89 g/m*3 9.6 C 4.8 km/h
2388 29-05-2014 07:05:00 9.7 C 8.94 g/m*3 9.7 C 4.8 km/h
2389 29-05-2014 07:10:00 9.7 C 8.94 g/m*3 9.7 C 3.2 km/h
2390 29-05-2014 07:15:00 9.7 C 8.94 g/m*3 9.02 C 6.4 km/h
2391 29-05-2014 07:20:00 9.7 C 8.94 g/m*3 9.02 C 6.4 km/h
2392 29-05-2014 07:25:00 9.7 C 8.94 g/m*3 9.02 C 6.4 km/h
2393 29-05-2014 07:30:00 9.7 C 8.94 g/m*3 9.02 C 6.4 km/h
2394 29-05-2014 07:35:00 9.7 C 8.94 g/m*3 8.33 C 9.7 km/h
2395 29-05-2014 07:40:00 9.7 C 8.94 g/m*3 9.02 C 6.4 km/h
2396 29-05-2014 07:45:00 9.8 C 9 g/m*3 9.14 C 6.4 km/h
2397 29-05-2014 07:50:00 9.8 C 9 g/m*3 8.75 C 8.1 km/h
2398 29-05-2014 07:55:00 9.9 C 9.06 g/m*3 8.87 C 8.1 km/h
2399 29-05-2014 08:00:00 9.9 C 9.06 g/m*3 9.9 C 3.2 km/h
2400 29-05-2014 08:05:00 10.1 C 9.17 g/m*3 10.1 C 0 km/h
Sensor: Nr:Datum:Temp:Abs-Feuchte:Windchill:Wind:
Aussen-T/F 2401 29-05-2014 08:10:00 10.1 C 9.17 g/m*3 10.1 C 4.8 km/h
2402 29-05-2014 08:15:00 10.1 C 9.17 g/m*3 10.1 C 4.8 km/h
2403 29-05-2014 08:20:00 10.3 C 9.29 g/m*3 10.3 C 4.8 km/h
2404 29-05-2014 08:25:00 10.4 C 9.35 g/m*3 10.4 C 4.8 km/h
2405 29-05-2014 08:30:00 10.4 C 9.35 g/m*3 10.4 C 4.8 km/h
2406 29-05-2014 08:35:00 10.6 C 9.47 g/m*3 10.6 C 3.2 km/h
2407 29-05-2014 08:40:00 10.7 C 9.53 g/m*3 10.7 C 3.2 km/h
2408 29-05-2014 08:45:00 10.8 C 9.59 g/m*3 10.8 C 4.8 km/h
2409 29-05-2014 08:50:00 10.9 C 9.55 g/m*3 10.9 C 4.8 km/h
2410 29-05-2014 08:55:00 10.9 C 9.55 g/m*3 10.9 C 4.8 km/h
2411 29-05-2014 09:00:00 11.1 C 9.67 g/m*3 11.1 C 3.2 km/h
2412 29-05-2014 09:05:00 11.2 C 9.73 g/m*3 11.2 C 3.2 km/h
2413 29-05-2014 09:10:00 11.2 C 9.73 g/m*3 11.2 C 4.8 km/h
2414 29-05-2014 09:15:00 11.3 C 9.69 g/m*3 11.3 C 3.2 km/h
2415 29-05-2014 09:20:00 11.5 C 9.81 g/m*3 11.5 C 1.6 km/h
2416 29-05-2014 09:25:00 11.7 C 9.94 g/m*3 11.7 C 3.2 km/h
2417 29-05-2014 09:30:00 11.8 C 10 g/m*3 11.8 C 1.6 km/h
2418 29-05-2014 09:35:00 12.1 C 10.08 g/m*3 12.1 C 3.2 km/h
2419 29-05-2014 09:40:00 12.2 C 10.14 g/m*3 12.2 C 3.2 km/h
2420 29-05-2014 09:45:00 12.3 C 10.1 g/m*3 12.3 C 3.2 km/h
2421 29-05-2014 09:50:00 12.6 C 10.29 g/m*3 12.6 C 3.2 km/h
2422 29-05-2014 09:55:00 12.8 C 10.42 g/m*3 12.8 C 4.8 km/h
2423 29-05-2014 10:00:00 12.9 C 10.48 g/m*3 12.9 C 3.2 km/h
2424 29-05-2014 10:05:00 13.2 C 10.56 g/m*3 13.2 C 1.6 km/h
2425 29-05-2014 10:10:00 13.3 C 10.51 g/m*3 13.3 C 0 km/h
Sensor: Nr:Datum:Temp:Abs-Feuchte:Windchill:Wind:
Aussen-T/F 2426 29-05-2014 10:15:00 13.4 C 10.58 g/m*3 13.4 C 1.6 km/h
2427 29-05-2014 10:20:00 13.6 C 10.71 g/m*3 13.6 C 1.6 km/h
2428 29-05-2014 10:25:00 13.8 C 10.84 g/m*3 13.8 C 3.2 km/h
2429 29-05-2014 10:30:00 14.1 C 10.92 g/m*3 14.1 C 0 km/h
2430 29-05-2014 10:35:00 14.2 C 10.99 g/m*3 14.2 C 0 km/h
2431 29-05-2014 10:40:00 14.5 C 11.07 g/m*3 14.5 C 0 km/h
2432 29-05-2014 10:45:00 14.7 C 11.21 g/m*3 14.7 C 3.2 km/h
2433 29-05-2014 10:50:00 14.9 C 11.22 g/m*3 14.9 C 1.6 km/h
2434 29-05-2014 10:55:00 15.1 C 11.22 g/m*3 15.1 C 3.2 km/h
2435 29-05-2014 11:00:00 15.2 C 11.29 g/m*3 15.2 C 1.6 km/h
2436 29-05-2014 11:05:00 15.2 C 11.03 g/m*3 15.2 C 0 km/h
2437 29-05-2014 11:10:00 15.3 C 11.1 g/m*3 15.3 C 3.2 km/h
2438 29-05-2014 11:15:00 15.4 C 11.04 g/m*3 15.4 C 4.8 km/h
2439 29-05-2014 11:20:00 15.6 C 11.17 g/m*3 15.6 C 3.2 km/h
2440 29-05-2014 11:25:00 15.7 C 11.11 g/m*3 15.7 C 1.6 km/h
2441 29-05-2014 11:30:00 15.9 C 11.51 g/m*3 15.9 C 3.2 km/h
2442 29-05-2014 11:35:00 16.2 C 11.72 g/m*3 16.2 C 0 km/h
2443 29-05-2014 11:40:00 16.3 C 11.52 g/m*3 16.3 C 3.2 km/h
2444 29-05-2014 11:45:00 16.4 C 11.31 g/m*3 16.4 C 0 km/h
2445 29-05-2014 11:50:00 16.6 C 11.44 g/m*3 16.6 C 0 km/h
2446 29-05-2014 11:55:00 16.7 C 11.51 g/m*3 16.7 C 6.4 km/h
2447 29-05-2014 12:00:00 16.9 C 11.36 g/m*3 16.9 C 6.4 km/h
2448 29-05-2014 12:05:00 17.1 C 11.5 g/m*3 17.1 C 0 km/h
2449 29-05-2014 12:10:00 17.2 C 11.72 g/m*3 17.2 C 1.6 km/h
2450 29-05-2014 12:15:00 17.3 C 11.49 g/m*3 17.3 C 8.1 km/h
Sensor: Nr:Datum:Temp:Abs-Feuchte:Windchill:Wind:
Aussen-T/F 2451 29-05-2014 12:20:00 17.5 C 11.78 g/m*3 17.5 C 4.8 km/h
2452 29-05-2014 12:25:00 17.5 C 11.33 g/m*3 17.5 C 4.8 km/h
2453 29-05-2014 12:30:00 17.8 C 11.69 g/m*3 17.8 C 1.6 km/h
2454 29-05-2014 12:35:00 17.8 C 11.38 g/m*3 17.8 C 4.8 km/h
2455 29-05-2014 12:40:00 17.8 C 11.23 g/m*3 17.8 C 4.8 km/h
2456 29-05-2014 12:45:00 17.7 C 11.01 g/m*3 17.7 C 4.8 km/h
2457 29-05-2014 12:50:00 17.7 C 11.01 g/m*3 17.7 C 9.7 km/h
2458 29-05-2014 12:55:00 17.8 C 11.54 g/m*3 17.8 C 6.4 km/h
2459 29-05-2014 13:00:00 17.9 C 11.45 g/m*3 17.9 C 8.1 km/h
2460 29-05-2014 13:05:00 18.2 C 11.35 g/m*3 18.2 C 9.7 km/h
2461 29-05-2014 13:10:00 18.4 C 11.17 g/m*3 18.4 C 8.1 km/h
2462 29-05-2014 13:15:00 18.7 C 11.21 g/m*3 18.7 C 6.4 km/h
2463 29-05-2014 13:20:00 18.9 C 11.02 g/m*3 18.9 C 8.1 km/h
2464 29-05-2014 13:25:00 19.1 C 11.31 g/m*3 19.1 C 8.1 km/h
2465 29-05-2014 13:30:00 19.3 C 11.61 g/m*3 19.3 C 8.1 km/h
2466 29-05-2014 13:35:00 19.4 C 11.35 g/m*3 19.4 C 9.7 km/h
2467 29-05-2014 13:40:00 19.2 C 11.38 g/m*3 19.2 C 11.3 km/h
2468 29-05-2014 13:45:00 19.1 C 11.31 g/m*3 19.1 C 9.7 km/h
2469 29-05-2014 13:50:00 19.1 C 11.31 g/m*3 19.1 C 11.3 km/h
2470 29-05-2014 13:55:00 19.1 C 11.31 g/m*3 19.1 C 11.3 km/h
2471 29-05-2014 14:00:00 19.2 C 11.38 g/m*3 19.2 C 9.7 km/h
2472 29-05-2014 14:05:00 19.2 C 11.05 g/m*3 19.2 C 9.7 km/h
2473 29-05-2014 14:10:00 19.1 C 11.15 g/m*3 19.1 C 4.8 km/h
2474 29-05-2014 14:15:00 19 C 11.08 g/m*3 19 C 8.1 km/h
2475 29-05-2014 14:20:00 18.9 C 11.18 g/m*3 18.9 C 8.1 km/h
Sensor: Nr:Datum:Temp:Abs-Feuchte:Windchill:Wind:
Aussen-T/F 2476 29-05-2014 14:25:00 18.8 C 10.95 g/m*3 18.8 C 11.3 km/h
2477 29-05-2014 14:30:00 18.8 C 11.11 g/m*3 18.8 C 11.3 km/h
2478 29-05-2014 14:35:00 18.8 C 11.11 g/m*3 18.8 C 12.9 km/h
2479 29-05-2014 14:40:00 18.7 C 11.05 g/m*3 18.7 C 12.9 km/h
2480 29-05-2014 14:45:00 18.5 C 11.23 g/m*3 18.5 C 6.4 km/h
2481 29-05-2014 14:50:00 18.4 C 11.17 g/m*3 18.4 C 9.7 km/h
2482 29-05-2014 14:55:00 18.4 C 11.17 g/m*3 18.4 C 11.3 km/h
2483 29-05-2014 15:00:00 18.3 C 11.26 g/m*3 18.3 C 9.7 km/h
2484 29-05-2014 15:05:00 18.2 C 11.19 g/m*3 18.2 C 8.1 km/h
2485 29-05-2014 15:10:00 18.2 C 11.19 g/m*3 18.2 C 11.3 km/h
2486 29-05-2014 15:15:00 18.2 C 11.35 g/m*3 18.2 C 11.3 km/h
2487 29-05-2014 15:20:00 18.2 C 11.04 g/m*3 18.2 C 9.7 km/h
2488 29-05-2014 15:25:00 18.1 C 10.97 g/m*3 18.1 C 11.3 km/h
2489 29-05-2014 15:30:00 18.1 C 10.97 g/m*3 18.1 C 9.7 km/h
2490 29-05-2014 15:35:00 17.9 C 10.69 g/m*3 17.9 C 14.5 km/h
2491 29-05-2014 15:40:00 17.7 C 10.71 g/m*3 17.7 C 9.7 km/h
2492 29-05-2014 15:45:00 17.5 C 10.73 g/m*3 17.5 C 8.1 km/h
2493 29-05-2014 15:50:00 17.3 C 10.61 g/m*3 17.3 C 6.4 km/h
2494 29-05-2014 15:55:00 17.2 C 10.54 g/m*3 17.2 C 8.1 km/h
2495 29-05-2014 16:00:00 17.1 C 10.63 g/m*3 17.1 C 8.1 km/h
2496 29-05-2014 16:05:00 17.1 C 10.63 g/m*3 17.1 C 6.4 km/h
2497 29-05-2014 16:10:00 17 C 10.56 g/m*3 17 C 6.4 km/h
2498 29-05-2014 16:15:00 17 C 10.85 g/m*3 17 C 8.1 km/h
2499 29-05-2014 16:20:00 16.9 C 10.79 g/m*3 16.9 C 8.1 km/h
2500 29-05-2014 16:25:00 16.9 C 10.79 g/m*3 16.9 C 8.1 km/h
Sensor: Nr:Datum:Temp:Abs-Feuchte:Windchill:Wind:
Aussen-T/F 2501 29-05-2014 16:30:00 16.9 C 10.64 g/m*3 16.9 C 8.1 km/h
2502 29-05-2014 16:35:00 16.8 C 10.58 g/m*3 16.8 C 12.9 km/h
2503 29-05-2014 16:40:00 16.7 C 10.52 g/m*3 16.7 C 9.7 km/h
2504 29-05-2014 16:45:00 16.7 C 10.66 g/m*3 16.7 C 8.1 km/h
2505 29-05-2014 16:50:00 16.7 C 10.66 g/m*3 16.7 C 8.1 km/h
2506 29-05-2014 16:55:00 16.7 C 10.8 g/m*3 16.7 C 8.1 km/h
2507 29-05-2014 17:00:00 16.7 C 10.8 g/m*3 16.7 C 8.1 km/h
2508 29-05-2014 17:05:00 16.6 C 10.74 g/m*3 16.6 C 8.1 km/h
2509 29-05-2014 17:10:00 16.6 C 10.74 g/m*3 16.6 C 6.4 km/h
2510 29-05-2014 17:15:00 16.5 C 10.53 g/m*3 16.5 C 9.7 km/h
2511 29-05-2014 17:20:00 16.5 C 10.67 g/m*3 16.5 C 8.1 km/h
2512 29-05-2014 17:25:00 16.4 C 10.47 g/m*3 16.4 C 9.7 km/h
2513 29-05-2014 17:30:00 16.4 C 10.61 g/m*3 16.4 C 9.7 km/h
2514 29-05-2014 17:35:00 16.3 C 10.68 g/m*3 16.3 C 9.7 km/h
2515 29-05-2014 17:40:00 16.3 C 10.82 g/m*3 16.3 C 9.7 km/h
2516 29-05-2014 17:45:00 16.3 C 10.68 g/m*3 16.3 C 9.7 km/h
2517 29-05-2014 17:50:00 16.2 C 10.62 g/m*3 16.2 C 8.1 km/h
2518 29-05-2014 17:55:00 16.1 C 10.55 g/m*3 16.1 C 6.4 km/h
2519 29-05-2014 18:00:00 16 C 10.63 g/m*3 16 C 6.4 km/h
2520 29-05-2014 18:05:00 15.9 C 10.7 g/m*3 15.9 C 8.1 km/h
2521 29-05-2014 18:10:00 15.9 C 10.56 g/m*3 15.9 C 9.7 km/h
2522 29-05-2014 18:15:00 15.8 C 10.5 g/m*3 15.8 C 4.8 km/h
2523 29-05-2014 18:20:00 15.7 C 10.57 g/m*3 15.7 C 6.4 km/h
2524 29-05-2014 18:25:00 15.7 C 10.57 g/m*3 15.7 C 8.1 km/h
2525 29-05-2014 18:30:00 15.6 C 10.51 g/m*3 15.6 C 8.1 km/h
Sensor: Nr:Datum:Temp:Abs-Feuchte:Windchill:Wind:
Aussen-T/F 2526 29-05-2014 18:35:00 15.6 C 10.64 g/m*3 15.6 C 4.8 km/h
2527 29-05-2014 18:40:00 15.6 C 10.91 g/m*3 15.6 C 4.8 km/h
2528 29-05-2014 18:45:00 15.4 C 10.77 g/m*3 15.4 C 6.4 km/h
2529 29-05-2014 18:50:00 15.3 C 10.84 g/m*3 15.3 C 4.8 km/h
2530 29-05-2014 18:55:00 15.3 C 10.97 g/m*3 15.3 C 3.2 km/h
2531 29-05-2014 19:00:00 15.2 C 11.16 g/m*3 15.2 C 3.2 km/h
2532 29-05-2014 19:05:00 15.1 C 10.84 g/m*3 15.1 C 4.8 km/h
2533 29-05-2014 19:10:00 14.9 C 10.58 g/m*3 14.9 C 6.4 km/h
2534 29-05-2014 19:15:00 14.8 C 10.77 g/m*3 14.8 C 3.2 km/h
2535 29-05-2014 19:20:00 14.8 C 10.77 g/m*3 14.8 C 4.8 km/h
2536 29-05-2014 19:25:00 14.8 C 10.89 g/m*3 14.8 C 0 km/h
2537 29-05-2014 19:30:00 14.8 C 11.02 g/m*3 14.8 C 0 km/h
2538 29-05-2014 19:35:00 14.8 C 10.77 g/m*3 14.8 C 4.8 km/h
2539 29-05-2014 19:40:00 14.8 C 10.77 g/m*3 14.8 C 3.2 km/h
2540 29-05-2014 19:45:00 14.7 C 10.7 g/m*3 14.7 C 3.2 km/h
2541 29-05-2014 19:50:00 14.8 C 10.89 g/m*3 14.8 C 3.2 km/h
2542 29-05-2014 19:55:00 14.7 C 10.7 g/m*3 14.7 C 4.8 km/h
2543 29-05-2014 20:00:00 14.7 C 10.7 g/m*3 14.7 C 4.8 km/h
2544 29-05-2014 20:05:00 14.7 C 10.7 g/m*3 14.7 C 4.8 km/h
2545 29-05-2014 20:10:00 14.6 C 10.64 g/m*3 14.6 C 4.8 km/h
2546 29-05-2014 20:15:00 14.6 C 10.64 g/m*3 14.6 C 4.8 km/h
2547 29-05-2014 20:20:00 14.6 C 10.76 g/m*3 14.6 C 0 km/h
2548 29-05-2014 20:25:00 14.5 C 10.82 g/m*3 14.5 C 0 km/h
2549 29-05-2014 20:30:00 14.4 C 10.88 g/m*3 14.4 C 0 km/h
2550 29-05-2014 20:35:00 14.3 C 10.93 g/m*3 14.3 C 0 km/h
Sensor: Nr:Datum:Temp:Abs-Feuchte:Windchill:Wind:
Aussen-T/F 2551 29-05-2014 20:40:00 14.2 C 10.87 g/m*3 14.2 C 0 km/h
2552 29-05-2014 20:45:00 14.1 C 10.92 g/m*3 14.1 C 1.6 km/h
2553 29-05-2014 20:50:00 13.9 C 10.79 g/m*3 13.9 C 3.2 km/h
2554 29-05-2014 20:55:00 13.9 C 10.91 g/m*3 13.9 C 0 km/h
2555 29-05-2014 21:00:00 13.8 C 10.84 g/m*3 13.8 C 0 km/h
2556 29-05-2014 21:05:00 13.8 C 10.84 g/m*3 13.8 C 0 km/h
2557 29-05-2014 21:10:00 13.8 C 10.96 g/m*3 13.8 C 0 km/h
2558 29-05-2014 21:15:00 13.7 C 10.89 g/m*3 13.7 C 0 km/h
2559 29-05-2014 21:20:00 13.7 C 10.89 g/m*3 13.7 C 0 km/h
2560 29-05-2014 21:25:00 13.7 C 10.89 g/m*3 13.7 C 1.6 km/h
2561 29-05-2014 21:30:00 13.7 C 10.89 g/m*3 13.7 C 0 km/h
2562 29-05-2014 21:35:00 13.7 C 10.89 g/m*3 13.7 C 0 km/h
2563 29-05-2014 21:40:00 13.6 C 10.95 g/m*3 13.6 C 0 km/h
2564 29-05-2014 21:45:00 13.6 C 10.95 g/m*3 13.6 C 0 km/h
2565 29-05-2014 21:50:00 13.6 C 10.95 g/m*3 13.6 C 0 km/h
2566 29-05-2014 21:55:00 13.5 C 10.88 g/m*3 13.5 C 0 km/h
2567 29-05-2014 22:00:00 13.5 C 10.76 g/m*3 13.5 C 9.7 km/h
2568 29-05-2014 22:05:00 13.4 C 10.46 g/m*3 13.4 C 3.2 km/h
2569 29-05-2014 22:10:00 13.3 C 10.28 g/m*3 13.3 C 8.1 km/h
2570 29-05-2014 22:15:00 13.3 C 10.17 g/m*3 13.3 C 11.3 km/h
2571 29-05-2014 22:20:00 13.2 C 10.1 g/m*3 13.2 C 8.1 km/h
2572 29-05-2014 22:25:00 13.1 C 9.93 g/m*3 13.1 C 4.8 km/h
2573 29-05-2014 22:30:00 13 C 9.87 g/m*3 13 C 8.1 km/h
2574 29-05-2014 22:35:00 12.9 C 9.81 g/m*3 12.9 C 8.1 km/h
2575 29-05-2014 22:40:00 12.8 C 9.63 g/m*3 12.8 C 6.4 km/h
Sensor: Nr:Datum:Temp:Abs-Feuchte:Windchill:Wind:
Aussen-T/F 2576 29-05-2014 22:45:00 12.8 C 9.63 g/m*3 12.8 C 1.6 km/h
2577 29-05-2014 22:50:00 12.7 C 9.57 g/m*3 12.7 C 6.4 km/h
2578 29-05-2014 22:55:00 12.6 C 9.4 g/m*3 12.6 C 4.8 km/h
2579 29-05-2014 23:00:00 12.6 C 9.51 g/m*3 12.6 C 11.3 km/h
2580 29-05-2014 23:05:00 12.5 C 9.35 g/m*3 12.5 C 12.9 km/h
2581 29-05-2014 23:10:00 12.4 C 9.4 g/m*3 12.4 C 8.1 km/h
2582 29-05-2014 23:15:00 12.4 C 9.4 g/m*3 12.4 C 6.4 km/h
2583 29-05-2014 23:20:00 12.4 C 9.4 g/m*3 12.4 C 4.8 km/h
2584 29-05-2014 23:25:00 12.3 C 9.34 g/m*3 12.3 C 4.8 km/h
2585 29-05-2014 23:30:00 12.3 C 9.34 g/m*3 12.3 C 4.8 km/h
2586 29-05-2014 23:35:00 12.3 C 9.34 g/m*3 12.3 C 8.1 km/h
2587 29-05-2014 23:40:00 12.3 C 9.34 g/m*3 12.3 C 11.3 km/h
2588 29-05-2014 23:45:00 12.3 C 9.34 g/m*3 12.3 C 4.8 km/h
2589 29-05-2014 23:50:00 12.2 C 9.28 g/m*3 12.2 C 4.8 km/h
2590 29-05-2014 23:55:00 12.1 C 9.22 g/m*3 12.1 C 6.4 km/h
2591 30-05-2014 00:00:00 12.1 C 9.22 g/m*3 12.1 C 8.1 km/h
2592 30-05-2014 00:05:00 12.1 C 9.22 g/m*3 12.1 C 4.8 km/h
2593 30-05-2014 00:10:00 12 C 9.06 g/m*3 12 C 6.4 km/h
2594 30-05-2014 00:15:00 11.9 C 9 g/m*3 11.9 C 6.4 km/h
2595 30-05-2014 00:20:00 11.9 C 9 g/m*3 11.9 C 8.1 km/h
2596 30-05-2014 00:25:00 11.9 C 9 g/m*3 11.9 C 8.1 km/h
2597 30-05-2014 00:30:00 11.8 C 8.95 g/m*3 11.8 C 8.1 km/h
2598 30-05-2014 00:35:00 11.8 C 8.95 g/m*3 11.8 C 3.2 km/h
2599 30-05-2014 00:40:00 11.8 C 8.95 g/m*3 11.8 C 4.8 km/h
2600 30-05-2014 00:45:00 11.7 C 8.89 g/m*3 11.7 C 9.7 km/h
Sensor: Nr:Datum:Temp:Abs-Feuchte:Windchill:Wind:
Aussen-T/F 2601 30-05-2014 00:50:00 11.7 C 8.89 g/m*3 11.7 C 9.7 km/h
2602 30-05-2014 00:55:00 11.6 C 8.94 g/m*3 11.6 C 4.8 km/h
2603 30-05-2014 01:00:00 11.6 C 8.94 g/m*3 11.6 C 6.4 km/h
2604 30-05-2014 01:05:00 11.5 C 8.88 g/m*3 11.5 C 8.1 km/h
2605 30-05-2014 01:10:00 11.5 C 8.88 g/m*3 11.5 C 6.4 km/h
2606 30-05-2014 01:15:00 11.4 C 8.72 g/m*3 11.4 C 8.1 km/h
2607 30-05-2014 01:20:00 11.4 C 8.72 g/m*3 11.4 C 8.1 km/h
2608 30-05-2014 01:25:00 11.3 C 8.57 g/m*3 11.3 C 8.1 km/h
2609 30-05-2014 01:30:00 11.3 C 8.57 g/m*3 11.3 C 4.8 km/h
2610 30-05-2014 01:35:00 11.2 C 8.51 g/m*3 11.2 C 9.7 km/h
2611 30-05-2014 01:40:00 11.2 C 8.51 g/m*3 11.2 C 6.4 km/h
2612 30-05-2014 01:45:00 11.2 C 8.51 g/m*3 11.2 C 6.4 km/h
2613 30-05-2014 01:50:00 11.2 C 8.41 g/m*3 11.2 C 14.5 km/h
2614 30-05-2014 01:55:00 11.1 C 8.36 g/m*3 11.1 C 12.9 km/h
2615 30-05-2014 02:00:00 11.1 C 8.46 g/m*3 11.1 C 3.2 km/h
2616 30-05-2014 02:05:00 11.1 C 8.36 g/m*3 11.1 C 4.8 km/h
2617 30-05-2014 02:10:00 11.1 C 8.36 g/m*3 11.1 C 3.2 km/h
2618 30-05-2014 02:15:00 11.1 C 8.36 g/m*3 11.1 C 3.2 km/h
2619 30-05-2014 02:20:00 11.1 C 8.46 g/m*3 11.1 C 1.6 km/h
2620 30-05-2014 02:25:00 11.1 C 8.46 g/m*3 11.1 C 4.8 km/h
2621 30-05-2014 02:30:00 11.1 C 8.46 g/m*3 11.1 C 3.2 km/h
2622 30-05-2014 02:35:00 11.1 C 8.56 g/m*3 11.1 C 1.6 km/h
2623 30-05-2014 02:40:00 11.1 C 8.56 g/m*3 11.1 C 3.2 km/h
2624 30-05-2014 02:45:00 11.1 C 8.56 g/m*3 11.1 C 1.6 km/h
2625 30-05-2014 02:50:00 11.1 C 8.56 g/m*3 11.1 C 1.6 km/h
Sensor: Nr:Datum:Temp:Abs-Feuchte:Windchill:Wind:
Aussen-T/F 2626 30-05-2014 02:55:00 11.1 C 8.56 g/m*3 11.1 C 6.4 km/h
2627 30-05-2014 03:00:00 11.1 C 8.56 g/m*3 11.1 C 0 km/h
2628 30-05-2014 03:05:00 11 C 8.51 g/m*3 11 C 3.2 km/h
2629 30-05-2014 03:10:00 10.9 C 8.26 g/m*3 10.41 C 6.4 km/h
2630 30-05-2014 03:15:00 10.9 C 8.26 g/m*3 10.9 C 3.2 km/h
2631 30-05-2014 03:20:00 10.9 C 8.26 g/m*3 10.9 C 3.2 km/h
2632 30-05-2014 03:25:00 10.9 C 8.26 g/m*3 10.9 C 3.2 km/h
2633 30-05-2014 03:30:00 10.9 C 8.36 g/m*3 10.9 C 1.6 km/h
2634 30-05-2014 03:35:00 10.9 C 8.26 g/m*3 10.9 C 4.8 km/h
2635 30-05-2014 03:40:00 10.9 C 8.26 g/m*3 10.9 C 3.2 km/h
2636 30-05-2014 03:45:00 10.8 C 8.2 g/m*3 10.8 C 3.2 km/h
2637 30-05-2014 03:50:00 10.8 C 8.2 g/m*3 10.8 C 4.8 km/h
2638 30-05-2014 03:55:00 10.8 C 8.2 g/m*3 10.8 C 3.2 km/h
2639 30-05-2014 04:00:00 10.8 C 8.11 g/m*3 10.8 C 1.6 km/h
2640 30-05-2014 04:05:00 10.8 C 8.2 g/m*3 10.8 C 4.8 km/h
2641 30-05-2014 04:10:00 10.7 C 8.05 g/m*3 10.7 C 1.6 km/h
2642 30-05-2014 04:15:00 10.7 C 8.05 g/m*3 10.7 C 0 km/h
2643 30-05-2014 04:20:00 10.7 C 8.15 g/m*3 10.7 C 0 km/h
2644 30-05-2014 04:25:00 10.7 C 8.15 g/m*3 10.7 C 0 km/h
2645 30-05-2014 04:30:00 10.7 C 8.25 g/m*3 10.7 C 0 km/h
2646 30-05-2014 04:35:00 10.7 C 8.15 g/m*3 10.7 C 4.8 km/h
2647 30-05-2014 04:40:00 10.6 C 8 g/m*3 10.6 C 4.8 km/h
2648 30-05-2014 04:45:00 10.6 C 8.1 g/m*3 10.6 C 1.6 km/h
2649 30-05-2014 04:50:00 10.6 C 8 g/m*3 10.6 C 3.2 km/h
2650 30-05-2014 04:55:00 10.6 C 8 g/m*3 10.6 C 3.2 km/h
Sensor: Nr:Datum:Temp:Abs-Feuchte:Windchill:Wind:
Aussen-T/F 2651 30-05-2014 05:00:00 10.6 C 8.1 g/m*3 10.6 C 0 km/h
2652 30-05-2014 05:05:00 10.6 C 8 g/m*3 10.6 C 3.2 km/h
2653 30-05-2014 05:10:00 10.6 C 8.1 g/m*3 10.6 C 0 km/h
2654 30-05-2014 05:15:00 10.6 C 8.2 g/m*3 10.6 C 1.6 km/h
2655 30-05-2014 05:20:00 10.5 C 8.15 g/m*3 10.5 C 0 km/h
2656 30-05-2014 05:25:00 10.4 C 8.1 g/m*3 10.4 C 0 km/h
2657 30-05-2014 05:30:00 10.4 C 8 g/m*3 10.4 C 1.6 km/h
2658 30-05-2014 05:35:00 10.4 C 8.1 g/m*3 10.4 C 0 km/h
2659 30-05-2014 05:40:00 10.4 C 7.9 g/m*3 10.4 C 3.2 km/h
2660 30-05-2014 05:45:00 10.3 C 7.95 g/m*3 10.3 C 0 km/h
2661 30-05-2014 05:50:00 10.3 C 8.04 g/m*3 10.3 C 0 km/h
2662 30-05-2014 05:55:00 10.3 C 7.95 g/m*3 10.3 C 1.6 km/h
2663 30-05-2014 06:00:00 10.3 C 7.95 g/m*3 10.3 C 1.6 km/h
2664 30-05-2014 06:05:00 10.3 C 7.95 g/m*3 10.3 C 0 km/h
2665 30-05-2014 06:10:00 10.3 C 7.95 g/m*3 10.3 C 1.6 km/h
2666 30-05-2014 06:15:00 10.3 C 7.95 g/m*3 10.3 C 3.2 km/h
2667 30-05-2014 06:20:00 10.3 C 7.95 g/m*3 10.3 C 3.2 km/h
2668 30-05-2014 06:25:00 10.3 C 7.85 g/m*3 10.3 C 3.2 km/h
2669 30-05-2014 06:30:00 10.4 C 7.9 g/m*3 10.4 C 3.2 km/h
2670 30-05-2014 06:35:00 10.4 C 7.9 g/m*3 10.4 C 4.8 km/h
2671 30-05-2014 06:40:00 10.4 C 7.81 g/m*3 10.4 C 4.8 km/h
2672 30-05-2014 06:45:00 10.4 C 7.81 g/m*3 9.83 C 6.4 km/h
2673 30-05-2014 06:50:00 10.4 C 7.71 g/m*3 9.83 C 6.4 km/h
2674 30-05-2014 06:55:00 10.5 C 7.76 g/m*3 10.5 C 3.2 km/h
2675 30-05-2014 07:00:00 10.5 C 7.76 g/m*3 10.5 C 1.6 km/h
Sensor: Nr:Datum:Temp:Abs-Feuchte:Windchill:Wind:
Aussen-T/F 2676 30-05-2014 07:05:00 10.5 C 7.86 g/m*3 10.5 C 1.6 km/h
2677 30-05-2014 07:10:00 10.6 C 7.81 g/m*3 10.6 C 1.6 km/h
2678 30-05-2014 07:15:00 10.6 C 7.71 g/m*3 10.6 C 3.2 km/h
2679 30-05-2014 07:20:00 10.6 C 7.61 g/m*3 10.6 C 4.8 km/h
2680 30-05-2014 07:25:00 10.6 C 7.71 g/m*3 10.6 C 1.6 km/h
2681 30-05-2014 07:30:00 10.7 C 7.66 g/m*3 10.7 C 1.6 km/h
2682 30-05-2014 07:35:00 10.7 C 7.66 g/m*3 9.52 C 9.7 km/h
2683 30-05-2014 07:40:00 10.8 C 7.61 g/m*3 10.29 C 6.4 km/h
2684 30-05-2014 07:45:00 10.8 C 7.61 g/m*3 10.8 C 4.8 km/h
2685 30-05-2014 07:50:00 10.9 C 7.66 g/m*3 10.9 C 3.2 km/h
2686 30-05-2014 07:55:00 11 C 7.71 g/m*3 10.16 C 8.1 km/h
2687 30-05-2014 08:00:00 11.2 C 7.7 g/m*3 11.2 C 4.8 km/h
2688 30-05-2014 08:05:00 11.3 C 7.75 g/m*3 11.3 C 4.8 km/h
2689 30-05-2014 08:10:00 11.4 C 7.8 g/m*3 11.4 C 4.8 km/h
2690 30-05-2014 08:15:00 11.7 C 7.74 g/m*3 11.7 C 6.4 km/h
2691 30-05-2014 08:20:00 11.9 C 7.84 g/m*3 11.9 C 9.7 km/h
2692 30-05-2014 08:25:00 12 C 7.67 g/m*3 12 C 8.1 km/h
2693 30-05-2014 08:30:00 12.1 C 7.72 g/m*3 12.1 C 8.1 km/h
2694 30-05-2014 08:35:00 12.1 C 7.61 g/m*3 12.1 C 11.3 km/h
2695 30-05-2014 08:40:00 12 C 7.46 g/m*3 12 C 4.8 km/h
2696 30-05-2014 08:45:00 12.1 C 7.51 g/m*3 12.1 C 4.8 km/h
2697 30-05-2014 08:50:00 12.2 C 7.45 g/m*3 12.2 C 6.4 km/h
2698 30-05-2014 08:55:00 12.4 C 7.43 g/m*3 12.4 C 8.1 km/h
2699 30-05-2014 09:00:00 12.5 C 7.37 g/m*3 12.5 C 8.1 km/h
2700 30-05-2014 09:05:00 12.7 C 7.24 g/m*3 12.7 C 11.3 km/h
Sensor: Nr:Datum:Temp:Abs-Feuchte:Windchill:Wind:
Aussen-T/F 2701 30-05-2014 09:10:00 12.7 C 7.35 g/m*3 12.7 C 12.9 km/h
2702 30-05-2014 09:15:00 12.7 C 7.35 g/m*3 12.7 C 8.1 km/h
2703 30-05-2014 09:20:00 12.7 C 7.46 g/m*3 12.7 C 11.3 km/h
2704 30-05-2014 09:25:00 12.6 C 7.3 g/m*3 12.6 C 8.1 km/h
2705 30-05-2014 09:30:00 12.5 C 7.26 g/m*3 12.5 C 9.7 km/h
2706 30-05-2014 09:35:00 12.4 C 7.21 g/m*3 12.4 C 3.2 km/h
2707 30-05-2014 09:40:00 12.3 C 7.38 g/m*3 12.3 C 6.4 km/h
2708 30-05-2014 09:45:00 12.3 C 7.38 g/m*3 12.3 C 11.3 km/h
2709 30-05-2014 09:50:00 12.5 C 7.37 g/m*3 12.5 C 9.7 km/h
2710 30-05-2014 09:55:00 12.7 C 7.46 g/m*3 12.7 C 8.1 km/h
2711 30-05-2014 10:00:00 12.9 C 7.44 g/m*3 12.9 C 9.7 km/h
2712 30-05-2014 10:05:00 13.3 C 7.63 g/m*3 13.3 C 12.9 km/h
2713 30-05-2014 10:10:00 13.7 C 7.82 g/m*3 13.7 C 11.3 km/h
2714 30-05-2014 10:15:00 14 C 7.84 g/m*3 14 C 12.9 km/h
2715 30-05-2014 10:20:00 14.3 C 7.86 g/m*3 14.3 C 12.9 km/h
2716 30-05-2014 10:25:00 14.4 C 7.66 g/m*3 14.4 C 11.3 km/h
2717 30-05-2014 10:30:00 14.6 C 8.01 g/m*3 14.6 C 9.7 km/h
2718 30-05-2014 10:35:00 14.7 C 8.18 g/m*3 14.7 C 12.9 km/h
2719 30-05-2014 10:40:00 14.9 C 8.03 g/m*3 14.9 C 11.3 km/h
2720 30-05-2014 10:45:00 15.2 C 8.05 g/m*3 15.2 C 9.7 km/h
2721 30-05-2014 10:50:00 15.2 C 8.05 g/m*3 15.2 C 11.3 km/h
2722 30-05-2014 10:55:00 14.9 C 7.9 g/m*3 14.9 C 4.8 km/h
2723 30-05-2014 11:00:00 14.7 C 7.81 g/m*3 14.7 C 6.4 km/h
2724 30-05-2014 11:05:00 14.5 C 7.71 g/m*3 14.5 C 8.1 km/h
2725 30-05-2014 11:10:00 14.5 C 8.08 g/m*3 14.5 C 8.1 km/h
Sensor: Nr:Datum:Temp:Abs-Feuchte:Windchill:Wind:
Aussen-T/F 2726 30-05-2014 11:15:00 14.6 C 8.13 g/m*3 14.6 C 11.3 km/h
2727 30-05-2014 11:20:00 14.5 C 7.84 g/m*3 14.5 C 8.1 km/h
2728 30-05-2014 11:25:00 14.6 C 7.88 g/m*3 14.6 C 8.1 km/h
2729 30-05-2014 11:30:00 14.6 C 7.76 g/m*3 14.6 C 9.7 km/h
2730 30-05-2014 11:35:00 14.4 C 7.42 g/m*3 14.4 C 8.1 km/h
2731 30-05-2014 11:40:00 14.3 C 7.74 g/m*3 14.3 C 11.3 km/h
2732 30-05-2014 11:45:00 14.6 C 8.13 g/m*3 14.6 C 12.9 km/h
2733 30-05-2014 11:50:00 15.2 C 8.31 g/m*3 15.2 C 9.7 km/h
2734 30-05-2014 11:55:00 15.7 C 8.3 g/m*3 15.7 C 11.3 km/h
2735 30-05-2014 12:00:00 16.1 C 7.81 g/m*3 16.1 C 11.3 km/h
2736 30-05-2014 12:05:00 16 C 7.9 g/m*3 16 C 8.1 km/h
2737 30-05-2014 12:10:00 15.6 C 7.45 g/m*3 15.6 C 11.3 km/h
2738 30-05-2014 12:15:00 15.2 C 7.53 g/m*3 15.2 C 12.9 km/h
2739 30-05-2014 12:20:00 15.2 C 7.53 g/m*3 15.2 C 9.7 km/h
2740 30-05-2014 12:25:00 15.2 C 7.66 g/m*3 15.2 C 6.4 km/h
2741 30-05-2014 12:30:00 15.2 C 7.79 g/m*3 15.2 C 9.7 km/h
2742 30-05-2014 12:35:00 15.4 C 7.75 g/m*3 15.4 C 9.7 km/h
2743 30-05-2014 12:40:00 15.9 C 8.8 g/m*3 15.9 C 12.9 km/h
2744 30-05-2014 12:45:00 16.4 C 8.1 g/m*3 16.4 C 8.1 km/h
2745 30-05-2014 12:50:00 16.7 C 7.67 g/m*3 16.7 C 11.3 km/h
2746 30-05-2014 12:55:00 16.7 C 7.82 g/m*3 16.7 C 9.7 km/h
2747 30-05-2014 13:00:00 16.8 C 8.44 g/m*3 16.8 C 11.3 km/h
2748 30-05-2014 13:05:00 16.9 C 7.77 g/m*3 16.9 C 14.5 km/h
2749 30-05-2014 13:10:00 17.1 C 8.44 g/m*3 17.1 C 14.5 km/h
2750 30-05-2014 13:15:00 17.1 C 9.17 g/m*3 17.1 C 11.3 km/h
Sensor: Nr:Datum:Temp:Abs-Feuchte:Windchill:Wind:
Aussen-T/F 2751 30-05-2014 13:20:00 17.3 C 7.96 g/m*3 17.3 C 17.7 km/h
2752 30-05-2014 13:25:00 17.1 C 8.15 g/m*3 17.1 C 12.9 km/h
2753 30-05-2014 13:30:00 17.1 C 8.3 g/m*3 17.1 C 8.1 km/h
2754 30-05-2014 13:35:00 17.1 C 8.15 g/m*3 17.1 C 11.3 km/h
2755 30-05-2014 13:40:00 17.2 C 8.64 g/m*3 17.2 C 12.9 km/h
2756 30-05-2014 13:45:00 17.1 C 8.01 g/m*3 17.1 C 11.3 km/h
2757 30-05-2014 13:50:00 17.3 C 8.54 g/m*3 17.3 C 11.3 km/h
2758 30-05-2014 13:55:00 17.3 C 7.81 g/m*3 17.3 C 8.1 km/h
2759 30-05-2014 14:00:00 17.6 C 8.7 g/m*3 17.6 C 8.1 km/h
2760 30-05-2014 14:05:00 17.8 C 8.04 g/m*3 17.8 C 11.3 km/h
2761 30-05-2014 14:10:00 18 C 8.6 g/m*3 18 C 14.5 km/h
2762 30-05-2014 14:15:00 17.8 C 8.04 g/m*3 17.8 C 11.3 km/h
2763 30-05-2014 14:20:00 17.3 C 7.81 g/m*3 17.3 C 8.1 km/h
2764 30-05-2014 14:25:00 17 C 7.67 g/m*3 17 C 8.1 km/h
2765 30-05-2014 14:30:00 17.1 C 8.3 g/m*3 17.1 C 9.7 km/h
2766 30-05-2014 14:35:00 17.2 C 7.61 g/m*3 17.2 C 6.4 km/h
2767 30-05-2014 14:40:00 17.2 C 7.47 g/m*3 17.2 C 14.5 km/h
2768 30-05-2014 14:45:00 17.6 C 7.8 g/m*3 17.6 C 12.9 km/h
2769 30-05-2014 14:50:00 17.2 C 7.91 g/m*3 17.2 C 14.5 km/h
2770 30-05-2014 14:55:00 16.8 C 7.72 g/m*3 16.8 C 11.3 km/h
2771 30-05-2014 15:00:00 16.6 C 7.63 g/m*3 16.6 C 9.7 km/h
2772 30-05-2014 15:05:00 16.4 C 7.54 g/m*3 16.4 C 17.7 km/h
2773 30-05-2014 15:10:00 16.1 C 7.54 g/m*3 16.1 C 8.1 km/h
2774 30-05-2014 15:15:00 16 C 7.77 g/m*3 16 C 11.3 km/h
2775 30-05-2014 15:20:00 16.4 C 8.23 g/m*3 16.4 C 11.3 km/h
Sensor: Nr:Datum:Temp:Abs-Feuchte:Windchill:Wind:
Aussen-T/F 2776 30-05-2014 15:25:00 16.7 C 7.96 g/m*3 16.7 C 14.5 km/h
2777 30-05-2014 15:30:00 16.7 C 7.96 g/m*3 16.7 C 9.7 km/h
2778 30-05-2014 15:35:00 16.9 C 7.91 g/m*3 16.9 C 11.3 km/h
2779 30-05-2014 15:40:00 17.2 C 8.05 g/m*3 17.2 C 8.1 km/h
2780 30-05-2014 15:45:00 17.3 C 8.25 g/m*3 17.3 C 14.5 km/h
2781 30-05-2014 15:50:00 17.9 C 8.24 g/m*3 17.9 C 14.5 km/h
2782 30-05-2014 15:55:00 17.8 C 8.2 g/m*3 17.8 C 8.1 km/h
2783 30-05-2014 16:00:00 17.3 C 7.96 g/m*3 17.3 C 12.9 km/h
2784 30-05-2014 16:05:00 17 C 8.1 g/m*3 17 C 11.3 km/h
2785 30-05-2014 16:10:00 16.8 C 8.01 g/m*3 16.8 C 8.1 km/h
2786 30-05-2014 16:15:00 16.6 C 8.05 g/m*3 16.6 C 6.4 km/h
2787 30-05-2014 16:20:00 16.5 C 7.72 g/m*3 16.5 C 6.4 km/h
2788 30-05-2014 16:25:00 16.3 C 8.19 g/m*3 16.3 C 6.4 km/h
2789 30-05-2014 16:30:00 16.6 C 8.76 g/m*3 16.6 C 8.1 km/h
2790 30-05-2014 16:35:00 17.3 C 8.4 g/m*3 17.3 C 8.1 km/h
2791 30-05-2014 16:40:00 17.9 C 8.24 g/m*3 17.9 C 11.3 km/h
2792 30-05-2014 16:45:00 18 C 8.29 g/m*3 18 C 11.3 km/h
2793 30-05-2014 16:50:00 17.6 C 8.1 g/m*3 17.6 C 9.7 km/h
2794 30-05-2014 16:55:00 17.2 C 7.91 g/m*3 17.2 C 4.8 km/h
2795 30-05-2014 17:00:00 16.7 C 7.82 g/m*3 16.7 C 9.7 km/h
2796 30-05-2014 17:05:00 16.4 C 7.96 g/m*3 16.4 C 9.7 km/h
2797 30-05-2014 17:10:00 16.2 C 7.86 g/m*3 16.2 C 8.1 km/h
2798 30-05-2014 17:15:00 16.2 C 8 g/m*3 16.2 C 11.3 km/h
2799 30-05-2014 17:20:00 16.1 C 7.95 g/m*3 16.1 C 9.7 km/h
2800 30-05-2014 17:25:00 16.1 C 8.36 g/m*3 16.1 C 12.9 km/h
Sensor: Nr:Datum:Temp:Abs-Feuchte:Windchill:Wind:
Aussen-T/F 2801 30-05-2014 17:30:00 16.1 C 8.09 g/m*3 16.1 C 8.1 km/h
2802 30-05-2014 17:35:00 15.9 C 7.99 g/m*3 15.9 C 11.3 km/h
2803 30-05-2014 17:40:00 15.7 C 7.76 g/m*3 15.7 C 12.9 km/h
2804 30-05-2014 17:45:00 15.9 C 8.4 g/m*3 15.9 C 12.9 km/h
2805 30-05-2014 17:50:00 16.3 C 7.77 g/m*3 16.3 C 12.9 km/h
2806 30-05-2014 17:55:00 16.4 C 8.1 g/m*3 16.4 C 14.5 km/h
2807 30-05-2014 18:00:00 16.7 C 7.96 g/m*3 16.7 C 11.3 km/h
2808 30-05-2014 18:05:00 16.8 C 7.86 g/m*3 16.8 C 11.3 km/h
2809 30-05-2014 18:10:00 16.9 C 8.05 g/m*3 16.9 C 9.7 km/h
2810 30-05-2014 18:15:00 16.8 C 8.01 g/m*3 16.8 C 11.3 km/h
2811 30-05-2014 18:20:00 16.6 C 7.77 g/m*3 16.6 C 12.9 km/h
2812 30-05-2014 18:25:00 16.4 C 7.82 g/m*3 16.4 C 8.1 km/h
2813 30-05-2014 18:30:00 16.1 C 7.68 g/m*3 16.1 C 4.8 km/h
2814 30-05-2014 18:35:00 15.9 C 7.85 g/m*3 15.9 C 8.1 km/h
2815 30-05-2014 18:40:00 16 C 8.04 g/m*3 16 C 8.1 km/h
2816 30-05-2014 18:45:00 16.3 C 8.05 g/m*3 16.3 C 11.3 km/h
2817 30-05-2014 18:50:00 16.7 C 8.24 g/m*3 16.7 C 9.7 km/h
2818 30-05-2014 18:55:00 17 C 8.25 g/m*3 17 C 11.3 km/h
2819 30-05-2014 19:00:00 16.7 C 7.96 g/m*3 16.7 C 14.5 km/h
2820 30-05-2014 19:05:00 16.2 C 7.86 g/m*3 16.2 C 6.4 km/h
2821 30-05-2014 19:10:00 15.6 C 7.58 g/m*3 15.6 C 12.9 km/h
2822 30-05-2014 19:15:00 15.3 C 7.84 g/m*3 15.3 C 8.1 km/h
2823 30-05-2014 19:20:00 15.1 C 7.74 g/m*3 15.1 C 9.7 km/h
2824 30-05-2014 19:25:00 15 C 7.82 g/m*3 15 C 9.7 km/h
2825 30-05-2014 19:30:00 15.1 C 7.87 g/m*3 15.1 C 6.4 km/h
Sensor: Nr:Datum:Temp:Abs-Feuchte:Windchill:Wind:
Aussen-T/F 2826 30-05-2014 19:35:00 15.1 C 7.74 g/m*3 15.1 C 8.1 km/h
2827 30-05-2014 19:40:00 15 C 7.69 g/m*3 15 C 8.1 km/h
2828 30-05-2014 19:45:00 14.9 C 7.65 g/m*3 14.9 C 9.7 km/h
2829 30-05-2014 19:50:00 14.8 C 7.73 g/m*3 14.8 C 8.1 km/h
2830 30-05-2014 19:55:00 14.7 C 7.55 g/m*3 14.7 C 9.7 km/h
2831 30-05-2014 20:00:00 14.6 C 7.63 g/m*3 14.6 C 3.2 km/h
2832 30-05-2014 20:05:00 14.6 C 7.63 g/m*3 14.6 C 6.4 km/h
2833 30-05-2014 20:10:00 14.6 C 7.51 g/m*3 14.6 C 3.2 km/h
2834 30-05-2014 20:15:00 14.6 C 7.76 g/m*3 14.6 C 1.6 km/h
2835 30-05-2014 20:20:00 14.4 C 7.29 g/m*3 14.4 C 3.2 km/h
2836 30-05-2014 20:25:00 14.4 C 7.42 g/m*3 14.4 C 0 km/h
2837 30-05-2014 20:30:00 14.3 C 7.25 g/m*3 14.3 C 1.6 km/h
2838 30-05-2014 20:35:00 14.2 C 8.06 g/m*3 14.2 C 0 km/h
2839 30-05-2014 20:40:00 14.1 C 7.4 g/m*3 14.1 C 0 km/h
2840 30-05-2014 20:45:00 14 C 7.72 g/m*3 14 C 0 km/h
2841 30-05-2014 20:50:00 13.8 C 8.22 g/m*3 13.8 C 0 km/h
2842 30-05-2014 20:55:00 13.6 C 8.47 g/m*3 13.6 C 0 km/h
2843 30-05-2014 21:00:00 13.2 C 8.5 g/m*3 13.2 C 0 km/h
2844 30-05-2014 21:05:00 12.8 C 8.4 g/m*3 12.8 C 0 km/h
2845 30-05-2014 21:10:00 12.4 C 8.19 g/m*3 12.4 C 0 km/h
2846 30-05-2014 21:15:00 12.1 C 8.15 g/m*3 12.1 C 1.6 km/h
2847 30-05-2014 21:20:00 11.7 C 8.05 g/m*3 11.7 C 0 km/h
2848 30-05-2014 21:25:00 11.5 C 7.95 g/m*3 11.5 C 0 km/h
2849 30-05-2014 21:30:00 11.3 C 7.85 g/m*3 11.3 C 1.6 km/h
2850 30-05-2014 21:35:00 11.1 C 7.76 g/m*3 11.1 C 1.6 km/h
Sensor: Nr:Datum:Temp:Abs-Feuchte:Windchill:Wind:
Aussen-T/F 2851 30-05-2014 21:40:00 10.9 C 7.66 g/m*3 10.9 C 0 km/h
2852 30-05-2014 21:45:00 10.7 C 7.66 g/m*3 10.7 C 0 km/h
2853 30-05-2014 21:50:00 10.6 C 7.52 g/m*3 10.6 C 1.6 km/h
2854 30-05-2014 21:55:00 10.5 C 7.57 g/m*3 10.5 C 0 km/h
2855 30-05-2014 22:00:00 10.4 C 7.52 g/m*3 10.4 C 0 km/h
2856 30-05-2014 22:05:00 10.3 C 7.57 g/m*3 10.3 C 1.6 km/h
2857 30-05-2014 22:10:00 10.2 C 7.61 g/m*3 10.2 C 0 km/h
2858 30-05-2014 22:15:00 10.1 C 7.66 g/m*3 10.1 C 0 km/h
2859 30-05-2014 22:20:00 10.1 C 7.66 g/m*3 10.1 C 0 km/h
2860 30-05-2014 22:25:00 10 C 7.61 g/m*3 10 C 0 km/h
2861 30-05-2014 22:30:00 9.9 C 7.56 g/m*3 9.9 C 0 km/h
2862 30-05-2014 22:35:00 9.8 C 7.61 g/m*3 9.8 C 0 km/h
2863 30-05-2014 22:40:00 9.7 C 7.56 g/m*3 9.7 C 0 km/h
2864 30-05-2014 22:45:00 9.6 C 7.69 g/m*3 9.6 C 0 km/h
2865 30-05-2014 22:50:00 9.5 C 7.65 g/m*3 9.5 C 0 km/h
2866 30-05-2014 22:55:00 9.4 C 7.6 g/m*3 9.4 C 0 km/h
2867 30-05-2014 23:00:00 9.4 C 7.6 g/m*3 9.4 C 0 km/h
2868 30-05-2014 23:05:00 9.3 C 7.55 g/m*3 9.3 C 0 km/h
2869 30-05-2014 23:10:00 9.2 C 7.5 g/m*3 9.2 C 0 km/h
2870 30-05-2014 23:15:00 9.1 C 7.54 g/m*3 9.1 C 0 km/h
2871 30-05-2014 23:20:00 8.9 C 7.45 g/m*3 8.9 C 0 km/h
2872 30-05-2014 23:25:00 8.8 C 7.4 g/m*3 8.8 C 0 km/h
2873 30-05-2014 23:30:00 8.7 C 7.44 g/m*3 8.7 C 0 km/h
2874 30-05-2014 23:35:00 8.6 C 7.39 g/m*3 8.6 C 0 km/h
2875 30-05-2014 23:40:00 8.5 C 7.34 g/m*3 8.5 C 0 km/h
Sensor: Nr:Datum:Temp:Abs-Feuchte:Windchill:Wind:
Aussen-T/F 2876 30-05-2014 23:45:00 8.4 C 7.38 g/m*3 8.4 C 0 km/h
2877 30-05-2014 23:50:00 8.4 C 7.38 g/m*3 8.4 C 0 km/h
2878 30-05-2014 23:55:00 8.3 C 7.33 g/m*3 8.3 C 0 km/h
2879 31-05-2014 00:00:00 8.3 C 7.33 g/m*3 8.3 C 0 km/h
2880 31-05-2014 00:05:00 8.2 C 7.2 g/m*3 8.2 C 0 km/h
2881 31-05-2014 00:10:00 8.2 C 7.29 g/m*3 8.2 C 0 km/h
2882 31-05-2014 00:15:00 8.2 C 7.29 g/m*3 8.2 C 0 km/h
2883 31-05-2014 00:20:00 8.1 C 7.24 g/m*3 8.1 C 0 km/h
2884 31-05-2014 00:25:00 8 C 7.19 g/m*3 8 C 0 km/h
2885 31-05-2014 00:30:00 8 C 7.28 g/m*3 8 C 0 km/h
2886 31-05-2014 00:35:00 7.9 C 7.23 g/m*3 7.9 C 0 km/h
2887 31-05-2014 00:40:00 7.8 C 7.18 g/m*3 7.8 C 0 km/h
2888 31-05-2014 00:45:00 7.8 C 7.26 g/m*3 7.8 C 0 km/h
2889 31-05-2014 00:50:00 7.7 C 7.22 g/m*3 7.7 C 0 km/h
2890 31-05-2014 00:55:00 7.7 C 7.22 g/m*3 7.7 C 0 km/h
2891 31-05-2014 01:00:00 7.7 C 7.22 g/m*3 7.7 C 0 km/h
2892 31-05-2014 01:05:00 7.6 C 7.25 g/m*3 7.6 C 0 km/h
2893 31-05-2014 01:10:00 7.6 C 7.25 g/m*3 7.6 C 0 km/h
2894 31-05-2014 01:15:00 7.5 C 7.2 g/m*3 7.5 C 0 km/h
2895 31-05-2014 01:20:00 7.5 C 7.2 g/m*3 7.5 C 0 km/h
2896 31-05-2014 01:25:00 7.4 C 7.16 g/m*3 7.4 C 0 km/h
2897 31-05-2014 01:30:00 7.4 C 7.16 g/m*3 7.4 C 0 km/h
2898 31-05-2014 01:35:00 7.3 C 7.19 g/m*3 7.3 C 0 km/h
2899 31-05-2014 01:40:00 7.3 C 7.11 g/m*3 7.3 C 0 km/h
2900 31-05-2014 01:45:00 7.3 C 7.19 g/m*3 7.3 C 0 km/h
Sensor: Nr:Datum:Temp:Abs-Feuchte:Windchill:Wind:
Aussen-T/F 2901 31-05-2014 01:50:00 7.3 C 7.19 g/m*3 7.3 C 0 km/h
2902 31-05-2014 01:55:00 7.2 C 7.14 g/m*3 7.2 C 0 km/h
2903 31-05-2014 02:00:00 7.2 C 7.14 g/m*3 7.2 C 0 km/h
2904 31-05-2014 02:05:00 7.2 C 7.14 g/m*3 7.2 C 0 km/h
2905 31-05-2014 02:10:00 7.1 C 7.18 g/m*3 7.1 C 0 km/h
2906 31-05-2014 02:15:00 7.1 C 7.18 g/m*3 7.1 C 0 km/h
2907 31-05-2014 02:20:00 7 C 7.13 g/m*3 7 C 0 km/h
2908 31-05-2014 02:25:00 6.9 C 7.08 g/m*3 6.9 C 0 km/h
2909 31-05-2014 02:30:00 6.9 C 7.08 g/m*3 6.9 C 0 km/h
2910 31-05-2014 02:35:00 6.8 C 7.11 g/m*3 6.8 C 0 km/h
2911 31-05-2014 02:40:00 6.8 C 7.11 g/m*3 6.8 C 0 km/h
2912 31-05-2014 02:45:00 6.7 C 7.07 g/m*3 6.7 C 1.6 km/h
2913 31-05-2014 02:50:00 6.7 C 7.07 g/m*3 6.7 C 1.6 km/h
2914 31-05-2014 02:55:00 6.7 C 7.07 g/m*3 6.7 C 0 km/h
2915 31-05-2014 03:00:00 6.7 C 7.07 g/m*3 6.7 C 0 km/h
2916 31-05-2014 03:05:00 6.6 C 7.02 g/m*3 6.6 C 0 km/h
2917 31-05-2014 03:10:00 6.6 C 7.02 g/m*3 6.6 C 0 km/h
2918 31-05-2014 03:15:00 6.6 C 7.02 g/m*3 6.6 C 0 km/h
2919 31-05-2014 03:20:00 6.5 C 6.97 g/m*3 6.5 C 0 km/h
2920 31-05-2014 03:25:00 6.4 C 7 g/m*3 6.4 C 0 km/h
2921 31-05-2014 03:30:00 6.4 C 7 g/m*3 6.4 C 0 km/h
2922 31-05-2014 03:35:00 6.4 C 7 g/m*3 6.4 C 0 km/h
2923 31-05-2014 03:40:00 6.3 C 6.96 g/m*3 6.3 C 0 km/h
2924 31-05-2014 03:45:00 6.3 C 6.96 g/m*3 6.3 C 0 km/h
2925 31-05-2014 03:50:00 6.3 C 6.96 g/m*3 6.3 C 0 km/h
Sensor: Nr:Datum:Temp:Abs-Feuchte:Windchill:Wind:
Aussen-T/F 2926 31-05-2014 03:55:00 6.2 C 6.91 g/m*3 6.2 C 0 km/h
2927 31-05-2014 04:00:00 6.2 C 6.91 g/m*3 6.2 C 1.6 km/h
2928 31-05-2014 04:05:00 6.1 C 6.87 g/m*3 6.1 C 0 km/h
2929 31-05-2014 04:10:00 6.1 C 6.87 g/m*3 6.1 C 0 km/h
2930 31-05-2014 04:15:00 6.1 C 6.87 g/m*3 6.1 C 0 km/h
2931 31-05-2014 04:20:00 6 C 6.82 g/m*3 6 C 0 km/h
2932 31-05-2014 04:25:00 6 C 6.82 g/m*3 6 C 0 km/h
2933 31-05-2014 04:30:00 6 C 6.9 g/m*3 6 C 0 km/h
2934 31-05-2014 04:35:00 6 C 6.9 g/m*3 6 C 0 km/h
2935 31-05-2014 04:40:00 5.9 C 6.85 g/m*3 5.9 C 0 km/h
2936 31-05-2014 04:45:00 5.9 C 6.85 g/m*3 5.9 C 0 km/h
2937 31-05-2014 04:50:00 5.8 C 6.81 g/m*3 5.8 C 0 km/h
2938 31-05-2014 04:55:00 5.8 C 6.81 g/m*3 5.8 C 0 km/h
2939 31-05-2014 05:00:00 5.8 C 6.81 g/m*3 5.8 C 1.6 km/h
2940 31-05-2014 05:05:00 5.8 C 6.81 g/m*3 5.8 C 0 km/h
2941 31-05-2014 05:10:00 5.7 C 6.76 g/m*3 5.7 C 0 km/h
2942 31-05-2014 05:15:00 5.7 C 6.76 g/m*3 5.7 C 0 km/h
2943 31-05-2014 05:20:00 5.6 C 6.72 g/m*3 5.6 C 0 km/h
2944 31-05-2014 05:25:00 5.5 C 6.67 g/m*3 5.5 C 0 km/h
2945 31-05-2014 05:30:00 5.4 C 6.63 g/m*3 5.4 C 0 km/h
2946 31-05-2014 05:35:00 5.4 C 6.63 g/m*3 5.4 C 0 km/h
2947 31-05-2014 05:40:00 5.4 C 6.63 g/m*3 5.4 C 0 km/h
2948 31-05-2014 05:45:00 5.4 C 6.63 g/m*3 5.4 C 0 km/h
2949 31-05-2014 05:50:00 5.4 C 6.63 g/m*3 5.4 C 0 km/h
2950 31-05-2014 05:55:00 5.3 C 6.58 g/m*3 5.3 C 0 km/h
Sensor: Nr:Datum:Temp:Abs-Feuchte:Windchill:Wind:
Aussen-T/F 2951 31-05-2014 06:00:00 5.3 C 6.58 g/m*3 5.3 C 0 km/h
2952 31-05-2014 06:05:00 5.3 C 6.58 g/m*3 5.3 C 0 km/h
2953 31-05-2014 06:10:00 5.4 C 6.63 g/m*3 5.4 C 0 km/h
2954 31-05-2014 06:15:00 5.4 C 6.63 g/m*3 5.4 C 1.6 km/h
2955 31-05-2014 06:20:00 5.5 C 6.74 g/m*3 5.5 C 3.2 km/h
2956 31-05-2014 06:25:00 5.5 C 6.74 g/m*3 5.5 C 4.8 km/h
2957 31-05-2014 06:30:00 5.6 C 6.79 g/m*3 5.6 C 3.2 km/h
2958 31-05-2014 06:35:00 5.6 C 6.79 g/m*3 5.6 C 4.8 km/h
2959 31-05-2014 06:40:00 5.7 C 6.83 g/m*3 5.7 C 3.2 km/h
2960 31-05-2014 06:45:00 5.7 C 6.83 g/m*3 5.7 C 3.2 km/h
2961 31-05-2014 06:50:00 5.7 C 6.83 g/m*3 5.7 C 3.2 km/h
2962 31-05-2014 06:55:00 5.7 C 6.83 g/m*3 5.7 C 3.2 km/h
2963 31-05-2014 07:00:00 5.8 C 6.88 g/m*3 5.8 C 4.8 km/h
2964 31-05-2014 07:05:00 5.8 C 6.88 g/m*3 5.8 C 3.2 km/h
2965 31-05-2014 07:10:00 5.8 C 6.88 g/m*3 5.8 C 3.2 km/h
2966 31-05-2014 07:15:00 5.9 C 6.92 g/m*3 5.9 C 3.2 km/h
2967 31-05-2014 07:20:00 6 C 6.97 g/m*3 6 C 1.6 km/h
2968 31-05-2014 07:25:00 6.1 C 7.01 g/m*3 6.1 C 3.2 km/h
2969 31-05-2014 07:30:00 6.1 C 7.01 g/m*3 6.1 C 3.2 km/h
2970 31-05-2014 07:35:00 6.3 C 7.11 g/m*3 6.3 C 0 km/h
2971 31-05-2014 07:40:00 6.4 C 7.15 g/m*3 6.4 C 1.6 km/h
2972 31-05-2014 07:45:00 6.6 C 7.25 g/m*3 6.6 C 1.6 km/h
2973 31-05-2014 07:50:00 6.7 C 7.29 g/m*3 6.7 C 0 km/h
2974 31-05-2014 07:55:00 7 C 7.44 g/m*3 7 C 0 km/h
2975 31-05-2014 08:00:00 7.3 C 7.58 g/m*3 7.3 C 0 km/h
Sensor: Nr:Datum:Temp:Abs-Feuchte:Windchill:Wind:
Aussen-T/F 2976 31-05-2014 08:05:00 7.5 C 7.6 g/m*3 7.5 C 0 km/h
2977 31-05-2014 08:10:00 7.8 C 7.67 g/m*3 7.8 C 0 km/h
2978 31-05-2014 08:15:00 8.1 C 7.82 g/m*3 8.1 C 0 km/h
2979 31-05-2014 08:20:00 8.4 C 7.8 g/m*3 8.4 C 0 km/h
2980 31-05-2014 08:25:00 8.6 C 7.91 g/m*3 8.6 C 0 km/h
2981 31-05-2014 08:30:00 8.8 C 7.83 g/m*3 8.8 C 0 km/h
2982 31-05-2014 08:35:00 8.9 C 7.88 g/m*3 8.9 C 0 km/h
2983 31-05-2014 08:40:00 9.1 C 7.99 g/m*3 9.1 C 0 km/h
2984 31-05-2014 08:45:00 9.3 C 8.09 g/m*3 9.3 C 0 km/h
2985 31-05-2014 08:50:00 9.5 C 8.19 g/m*3 9.5 C 0 km/h
2986 31-05-2014 08:55:00 9.8 C 8.26 g/m*3 9.8 C 0 km/h
2987 31-05-2014 09:00:00 10.1 C 8.32 g/m*3 10.1 C 0 km/h
2988 31-05-2014 09:05:00 10.3 C 8.33 g/m*3 10.3 C 1.6 km/h
2989 31-05-2014 09:10:00 10.5 C 8.44 g/m*3 10.5 C 0 km/h
2990 31-05-2014 09:15:00 10.3 C 8.33 g/m*3 10.3 C 0 km/h
2991 31-05-2014 09:20:00 10.2 C 8.37 g/m*3 10.2 C 0 km/h
2992 31-05-2014 09:25:00 10.2 C 8.47 g/m*3 10.2 C 0 km/h
2993 31-05-2014 09:30:00 10.2 C 8.56 g/m*3 10.2 C 0 km/h
2994 31-05-2014 09:35:00 10.2 C 8.56 g/m*3 10.2 C 0 km/h
2995 31-05-2014 09:40:00 10.3 C 8.62 g/m*3 10.3 C 0 km/h
2996 31-05-2014 09:45:00 10.4 C 8.58 g/m*3 10.4 C 0 km/h
2997 31-05-2014 09:50:00 10.7 C 8.74 g/m*3 10.7 C 0 km/h
2998 31-05-2014 09:55:00 11.2 C 8.92 g/m*3 11.2 C 1.6 km/h
2999 31-05-2014 10:00:00 11.9 C 9.11 g/m*3 11.9 C 0 km/h
3000 31-05-2014 10:05:00 12.5 C 9.24 g/m*3 12.5 C 0 km/h
Sensor: Nr:Datum:Temp:Abs-Feuchte:Windchill:Wind:
Aussen-T/F 3001 31-05-2014 10:10:00 12.9 C 9.24 g/m*3 12.9 C 0 km/h
3002 31-05-2014 10:15:00 13.2 C 9.42 g/m*3 13.2 C 0 km/h
3003 31-05-2014 10:20:00 13.7 C 9.59 g/m*3 13.7 C 0 km/h
3004 31-05-2014 10:25:00 13.9 C 9.59 g/m*3 13.9 C 0 km/h
3005 31-05-2014 10:30:00 14.1 C 9.95 g/m*3 14.1 C 0 km/h
3006 31-05-2014 10:35:00 14.2 C 9.77 g/m*3 14.2 C 1.6 km/h
3007 31-05-2014 10:40:00 14.5 C 9.58 g/m*3 14.5 C 0 km/h
3008 31-05-2014 10:45:00 14.8 C 9.37 g/m*3 14.8 C 1.6 km/h
3009 31-05-2014 10:50:00 15.3 C 9.92 g/m*3 15.3 C 0 km/h
3010 31-05-2014 10:55:00 15.6 C 10.24 g/m*3 15.6 C 0 km/h
3011 31-05-2014 11:00:00 15.9 C 9.34 g/m*3 15.9 C 1.6 km/h
3012 31-05-2014 11:05:00 16.3 C 9.71 g/m*3 16.3 C 4.8 km/h
3013 31-05-2014 11:10:00 16.9 C 10.07 g/m*3 16.9 C 6.4 km/h
3014 31-05-2014 11:15:00 17.3 C 10.16 g/m*3 17.3 C 4.8 km/h
3015 31-05-2014 11:20:00 17.6 C 9.9 g/m*3 17.6 C 3.2 km/h
3016 31-05-2014 11:25:00 17.6 C 10.05 g/m*3 17.6 C 1.6 km/h
3017 31-05-2014 11:30:00 17.7 C 9.66 g/m*3 17.7 C 6.4 km/h
3018 31-05-2014 11:35:00 17.9 C 10.54 g/m*3 17.9 C 1.6 km/h
3019 31-05-2014 11:40:00 18 C 10.44 g/m*3 18 C 3.2 km/h
3020 31-05-2014 11:45:00 18.3 C 9.69 g/m*3 18.3 C 3.2 km/h
3021 31-05-2014 11:50:00 18.7 C 9.45 g/m*3 18.7 C 8.1 km/h
3022 31-05-2014 11:55:00 18.8 C 9.82 g/m*3 18.8 C 4.8 km/h
3023 31-05-2014 12:00:00 19.2 C 9.56 g/m*3 19.2 C 8.1 km/h
3024 31-05-2014 12:05:00 19.6 C 9.62 g/m*3 19.6 C 4.8 km/h
3025 31-05-2014 12:10:00 19.7 C 8.83 g/m*3 19.7 C 9.7 km/h
Sensor: Nr:Datum:Temp:Abs-Feuchte:Windchill:Wind:
Aussen-T/F 3026 31-05-2014 12:15:00 19.6 C 9.12 g/m*3 19.6 C 8.1 km/h
3027 31-05-2014 12:20:00 19.3 C 8.79 g/m*3 19.3 C 3.2 km/h
3028 31-05-2014 12:25:00 18.9 C 8.91 g/m*3 18.9 C 8.1 km/h
3029 31-05-2014 12:30:00 18.8 C 8.54 g/m*3 18.8 C 6.4 km/h
3030 31-05-2014 12:35:00 18.8 C 8.54 g/m*3 18.8 C 4.8 km/h
3031 31-05-2014 12:40:00 18.9 C 8.75 g/m*3 18.9 C 9.7 km/h
3032 31-05-2014 12:45:00 18.7 C 8.81 g/m*3 18.7 C 8.1 km/h
3033 31-05-2014 12:50:00 18.6 C 8.59 g/m*3 18.6 C 8.1 km/h
3034 31-05-2014 12:55:00 18.8 C 9.02 g/m*3 18.8 C 9.7 km/h
3035 31-05-2014 13:00:00 19.2 C 9.07 g/m*3 19.2 C 6.4 km/h
3036 31-05-2014 13:05:00 19.4 C 8.84 g/m*3 19.4 C 9.7 km/h
3037 31-05-2014 13:10:00 19.4 C 8.51 g/m*3 19.4 C 8.1 km/h
3038 31-05-2014 13:15:00 19.4 C 8.84 g/m*3 19.4 C 4.8 km/h
3039 31-05-2014 13:20:00 19.7 C 8.49 g/m*3 19.7 C 4.8 km/h
3040 31-05-2014 13:25:00 19.9 C 8.59 g/m*3 19.9 C 3.2 km/h
3041 31-05-2014 13:30:00 20.2 C 9.09 g/m*3 20.2 C 4.8 km/h
3042 31-05-2014 13:35:00 20.4 C 9.38 g/m*3 20.4 C 6.4 km/h
3043 31-05-2014 13:40:00 20.7 C 9.36 g/m*3 20.7 C 9.7 km/h
3044 31-05-2014 13:45:00 20.8 C 8.51 g/m*3 20.8 C 6.4 km/h
3045 31-05-2014 13:50:00 21.1 C 9.4 g/m*3 21.1 C 6.4 km/h
3046 31-05-2014 13:55:00 20.8 C 7.97 g/m*3 20.8 C 3.2 km/h
3047 31-05-2014 14:00:00 20.5 C 8.19 g/m*3 20.5 C 6.4 km/h
3048 31-05-2014 14:05:00 20.1 C 8.17 g/m*3 20.1 C 9.7 km/h
3049 31-05-2014 14:10:00 19.8 C 8.37 g/m*3 19.8 C 6.4 km/h
3050 31-05-2014 14:15:00 19.6 C 8.27 g/m*3 19.6 C 6.4 km/h
Sensor: Nr:Datum:Temp:Abs-Feuchte:Windchill:Wind:
Aussen-T/F 3051 31-05-2014 14:20:00 19.4 C 8.34 g/m*3 19.4 C 6.4 km/h
3052 31-05-2014 14:25:00 19.3 C 8.29 g/m*3 19.3 C 3.2 km/h
3053 31-05-2014 14:30:00 19.3 C 8.63 g/m*3 19.3 C 3.2 km/h
3054 31-05-2014 14:35:00 19.3 C 8.13 g/m*3 19.3 C 3.2 km/h
3055 31-05-2014 14:40:00 19.3 C 7.8 g/m*3 19.3 C 4.8 km/h
3056 31-05-2014 14:45:00 19.7 C 8.49 g/m*3 19.7 C 6.4 km/h
3057 31-05-2014 14:50:00 20.4 C 8.67 g/m*3 20.4 C 4.8 km/h
3058 31-05-2014 14:55:00 21 C 8.24 g/m*3 21 C 6.4 km/h
3059 31-05-2014 15:00:00 21.3 C 8.02 g/m*3 21.3 C 4.8 km/h
3060 31-05-2014 15:05:00 21.1 C 7.92 g/m*3 21.1 C 4.8 km/h
3061 31-05-2014 15:10:00 20.8 C 8.15 g/m*3 20.8 C 3.2 km/h
3062 31-05-2014 15:15:00 20.6 C 8.23 g/m*3 20.6 C 4.8 km/h
3063 31-05-2014 15:20:00 20.5 C 8.19 g/m*3 20.5 C 6.4 km/h
3064 31-05-2014 15:25:00 20.3 C 8.27 g/m*3 20.3 C 6.4 km/h
3065 31-05-2014 15:30:00 20.2 C 9.27 g/m*3 20.2 C 4.8 km/h
3066 31-05-2014 15:35:00 19.7 C 10.19 g/m*3 19.7 C 0 km/h
3067 31-05-2014 15:40:00 19.7 C 10.02 g/m*3 19.7 C 0 km/h
3068 31-05-2014 15:45:00 20.3 C 8.62 g/m*3 20.3 C 1.6 km/h
3069 31-05-2014 15:50:00 20.7 C 7.56 g/m*3 20.7 C 4.8 km/h
3070 31-05-2014 15:55:00 20.6 C 10.2 g/m*3 20.6 C 4.8 km/h
3071 31-05-2014 16:00:00 20.3 C 8.09 g/m*3 20.3 C 8.1 km/h
3072 31-05-2014 16:05:00 20.3 C 8.44 g/m*3 20.3 C 1.6 km/h
3073 31-05-2014 16:10:00 20.3 C 8.62 g/m*3 20.3 C 6.4 km/h
3074 31-05-2014 16:15:00 20.3 C 9.5 g/m*3 20.3 C 4.8 km/h
3075 31-05-2014 16:20:00 19.7 C 9.68 g/m*3 19.7 C 1.6 km/h
Sensor: Nr:Datum:Temp:Abs-Feuchte:Windchill:Wind:
Aussen-T/F 3076 31-05-2014 16:25:00 19.2 C 9.89 g/m*3 19.2 C 3.2 km/h
3077 31-05-2014 16:30:00 18.9 C 8.42 g/m*3 18.9 C 4.8 km/h
3078 31-05-2014 16:35:00 19.1 C 8.52 g/m*3 19.1 C 6.4 km/h
3079 31-05-2014 16:40:00 19.3 C 9.12 g/m*3 19.3 C 4.8 km/h
3080 31-05-2014 16:45:00 18.8 C 10.47 g/m*3 18.8 C 0 km/h
3081 31-05-2014 16:50:00 18.4 C 9.75 g/m*3 18.4 C 1.6 km/h
3082 31-05-2014 16:55:00 18.2 C 10.57 g/m*3 18.2 C 0 km/h
3083 31-05-2014 17:00:00 18 C 10.75 g/m*3 18 C 0 km/h
3084 31-05-2014 17:05:00 17.9 C 10.38 g/m*3 17.9 C 0 km/h
3085 31-05-2014 17:10:00 18.4 C 10.54 g/m*3 18.4 C 3.2 km/h
3086 31-05-2014 17:15:00 19.9 C 9.11 g/m*3 19.9 C 11.3 km/h
3087 31-05-2014 17:20:00 20.9 C 9.11 g/m*3 20.9 C 8.1 km/h
3088 31-05-2014 17:25:00 21.2 C 8.71 g/m*3 21.2 C 8.1 km/h
3089 31-05-2014 17:30:00 20.9 C 8.38 g/m*3 20.9 C 4.8 km/h
3090 31-05-2014 17:35:00 20.8 C 8.33 g/m*3 20.8 C 9.7 km/h
3091 31-05-2014 17:40:00 20.8 C 8.51 g/m*3 20.8 C 9.7 km/h
3092 31-05-2014 17:45:00 20.8 C 8.69 g/m*3 20.8 C 4.8 km/h
3093 31-05-2014 17:50:00 20.7 C 8.64 g/m*3 20.7 C 4.8 km/h
3094 31-05-2014 17:55:00 20.4 C 8.49 g/m*3 20.4 C 8.1 km/h
3095 31-05-2014 18:00:00 20.3 C 8.97 g/m*3 20.3 C 4.8 km/h
3096 31-05-2014 18:05:00 20.2 C 8.92 g/m*3 20.2 C 4.8 km/h
3097 31-05-2014 18:10:00 20.2 C 8.39 g/m*3 20.2 C 6.4 km/h
3098 31-05-2014 18:15:00 20.2 C 8.39 g/m*3 20.2 C 6.4 km/h
3099 31-05-2014 18:20:00 20.4 C 8.67 g/m*3 20.4 C 4.8 km/h
3100 31-05-2014 18:25:00 21 C 8.61 g/m*3 21 C 4.8 km/h
Sensor: Nr:Datum:Temp:Abs-Feuchte:Windchill:Wind:
Aussen-T/F 3101 31-05-2014 18:30:00 21.6 C 8.16 g/m*3 21.6 C 4.8 km/h
3102 31-05-2014 18:35:00 21.7 C 8.39 g/m*3 21.7 C 4.8 km/h
3103 31-05-2014 18:40:00 21.4 C 10.31 g/m*3 21.4 C 3.2 km/h
3104 31-05-2014 18:45:00 21.4 C 8.44 g/m*3 21.4 C 6.4 km/h
3105 31-05-2014 18:50:00 21.7 C 8.01 g/m*3 21.7 C 6.4 km/h
3106 31-05-2014 18:55:00 21.9 C 8.3 g/m*3 21.9 C 6.4 km/h
3107 31-05-2014 19:00:00 22.1 C 8.59 g/m*3 22.1 C 11.3 km/h
3108 31-05-2014 19:05:00 22 C 8.73 g/m*3 22 C 9.7 km/h
3109 31-05-2014 19:10:00 21.8 C 8.25 g/m*3 21.8 C 9.7 km/h
3110 31-05-2014 19:15:00 21.7 C 8.58 g/m*3 21.7 C 6.4 km/h
3111 31-05-2014 19:20:00 21.5 C 8.3 g/m*3 21.5 C 6.4 km/h
3112 31-05-2014 19:25:00 21.3 C 8.2 g/m*3 21.3 C 6.4 km/h
3113 31-05-2014 19:30:00 21 C 8.24 g/m*3 21 C 4.8 km/h
3114 31-05-2014 19:35:00 20.6 C 7.87 g/m*3 20.6 C 8.1 km/h
3115 31-05-2014 19:40:00 20.4 C 7.96 g/m*3 20.4 C 9.7 km/h
3116 31-05-2014 19:45:00 20.2 C 7.87 g/m*3 20.2 C 4.8 km/h
3117 31-05-2014 19:50:00 20.1 C 7.82 g/m*3 20.1 C 4.8 km/h
3118 31-05-2014 19:55:00 19.9 C 8.08 g/m*3 19.9 C 1.6 km/h
3119 31-05-2014 20:00:00 19.7 C 9.85 g/m*3 19.7 C 0 km/h
3120 31-05-2014 20:05:00 18.9 C 10.37 g/m*3 18.9 C 0 km/h
3121 31-05-2014 20:10:00 18.2 C 10.41 g/m*3 18.2 C 0 km/h
3122 31-05-2014 20:15:00 17.7 C 10.26 g/m*3 17.7 C 0 km/h
3123 31-05-2014 20:20:00 17.3 C 10.16 g/m*3 17.3 C 0 km/h
3124 31-05-2014 20:25:00 16.9 C 10.07 g/m*3 16.9 C 0 km/h
3125 31-05-2014 20:30:00 16.7 C 10.37 g/m*3 16.7 C 0 km/h
Sensor: Nr:Datum:Temp:Abs-Feuchte:Windchill:Wind:
Aussen-T/F 3126 31-05-2014 20:35:00 16.4 C 10.19 g/m*3 16.4 C 1.6 km/h
3127 31-05-2014 20:40:00 16.2 C 10.07 g/m*3 16.2 C 1.6 km/h
3128 31-05-2014 20:45:00 16 C 10.08 g/m*3 16 C 0 km/h
3129 31-05-2014 20:50:00 15.8 C 9.96 g/m*3 15.8 C 0 km/h
3130 31-05-2014 20:55:00 15.6 C 9.97 g/m*3 15.6 C 0 km/h
3131 31-05-2014 21:00:00 15.3 C 9.79 g/m*3 15.3 C 0 km/h
3132 31-05-2014 21:05:00 15.2 C 9.73 g/m*3 15.2 C 0 km/h
3133 31-05-2014 21:10:00 15 C 9.75 g/m*3 15 C 1.6 km/h
3134 31-05-2014 21:15:00 14.8 C 9.63 g/m*3 14.8 C 1.6 km/h
3135 31-05-2014 21:20:00 14.7 C 9.57 g/m*3 14.7 C 1.6 km/h
3136 31-05-2014 21:25:00 14.4 C 9.64 g/m*3 14.4 C 0 km/h
3137 31-05-2014 21:30:00 14.3 C 9.58 g/m*3 14.3 C 1.6 km/h
3138 31-05-2014 21:35:00 14.2 C 9.52 g/m*3 14.2 C 1.6 km/h
3139 31-05-2014 21:40:00 14.1 C 9.59 g/m*3 14.1 C 1.6 km/h
3140 31-05-2014 21:45:00 13.9 C 9.47 g/m*3 13.9 C 0 km/h
3141 31-05-2014 21:50:00 13.8 C 9.41 g/m*3 13.8 C 0 km/h
3142 31-05-2014 21:55:00 13.8 C 9.29 g/m*3 13.8 C 0 km/h
3143 31-05-2014 22:00:00 13.7 C 9.35 g/m*3 13.7 C 0 km/h
3144 31-05-2014 22:05:00 13.7 C 9.35 g/m*3 13.7 C 0 km/h
3145 31-05-2014 22:10:00 13.6 C 9.18 g/m*3 13.6 C 0 km/h
3146 31-05-2014 22:15:00 13.6 C 9.3 g/m*3 13.6 C 0 km/h
3147 31-05-2014 22:20:00 13.6 C 9.3 g/m*3 13.6 C 0 km/h
3148 31-05-2014 22:25:00 13.5 C 9.36 g/m*3 13.5 C 0 km/h
3149 31-05-2014 22:30:00 13.5 C 9.24 g/m*3 13.5 C 0 km/h
3150 31-05-2014 22:35:00 13.5 C 9.36 g/m*3 13.5 C 0 km/h
Sensor: Nr:Datum:Temp:Abs-Feuchte:Windchill:Wind:
Aussen-T/F 3151 31-05-2014 22:40:00 13.4 C 9.42 g/m*3 13.4 C 0 km/h
3152 31-05-2014 22:45:00 13.4 C 9.53 g/m*3 13.4 C 0 km/h
3153 31-05-2014 22:50:00 13.4 C 9.3 g/m*3 13.4 C 0 km/h
3154 31-05-2014 22:55:00 13.4 C 9.18 g/m*3 13.4 C 0 km/h
3155 31-05-2014 23:00:00 13.4 C 9.18 g/m*3 13.4 C 0 km/h
3156 31-05-2014 23:05:00 13.4 C 9.18 g/m*3 13.4 C 0 km/h
3157 31-05-2014 23:10:00 13.3 C 9.13 g/m*3 13.3 C 0 km/h
3158 31-05-2014 23:15:00 13.3 C 9.13 g/m*3 13.3 C 0 km/h
3159 31-05-2014 23:20:00 13.3 C 9.24 g/m*3 13.3 C 0 km/h
3160 31-05-2014 23:25:00 13.3 C 9.24 g/m*3 13.3 C 0 km/h
3161 31-05-2014 23:30:00 13.2 C 9.3 g/m*3 13.2 C 0 km/h
3162 31-05-2014 23:35:00 13.1 C 9.36 g/m*3 13.1 C 0 km/h
3163 31-05-2014 23:40:00 13 C 9.19 g/m*3 13 C 0 km/h
3164 31-05-2014 23:45:00 12.9 C 9.13 g/m*3 12.9 C 0 km/h
3165 31-05-2014 23:50:00 12.8 C 9.07 g/m*3 12.8 C 0 km/h
3166 31-05-2014 23:55:00 12.7 C 9.13 g/m*3 12.7 C 0 km/h
3167 01-06-2014 00:00:00 12.6 C 8.96 g/m*3 12.6 C 0 km/h
3168 01-06-2014 00:05:00 12.4 C 8.96 g/m*3 12.4 C 0 km/h
3169 01-06-2014 00:10:00 12.4 C 8.96 g/m*3 12.4 C 0 km/h
3170 01-06-2014 00:15:00 12.4 C 8.96 g/m*3 12.4 C 0 km/h
3171 01-06-2014 00:20:00 12.4 C 9.07 g/m*3 12.4 C 0 km/h
3172 01-06-2014 00:25:00 12.3 C 8.9 g/m*3 12.3 C 0 km/h
3173 01-06-2014 00:30:00 12.4 C 9.07 g/m*3 12.4 C 0 km/h
3174 01-06-2014 00:35:00 12.4 C 9.07 g/m*3 12.4 C 0 km/h
3175 01-06-2014 00:40:00 12.4 C 9.07 g/m*3 12.4 C 0 km/h
Sensor: Nr:Datum:Temp:Abs-Feuchte:Windchill:Wind:
Aussen-T/F 3176 01-06-2014 00:45:00 12.4 C 9.07 g/m*3 12.4 C 0 km/h
3177 01-06-2014 00:50:00 12.4 C 8.96 g/m*3 12.4 C 0 km/h
3178 01-06-2014 00:55:00 12.3 C 8.9 g/m*3 12.3 C 0 km/h
3179 01-06-2014 01:00:00 12.3 C 8.9 g/m*3 12.3 C 3.2 km/h
3180 01-06-2014 01:05:00 12.3 C 8.9 g/m*3 12.3 C 0 km/h
3181 01-06-2014 01:10:00 12.2 C 8.96 g/m*3 12.2 C 0 km/h
3182 01-06-2014 01:15:00 12.2 C 8.96 g/m*3 12.2 C 0 km/h
3183 01-06-2014 01:20:00 12.2 C 8.96 g/m*3 12.2 C 0 km/h
3184 01-06-2014 01:25:00 12.3 C 9.01 g/m*3 12.3 C 0 km/h
3185 01-06-2014 01:30:00 12.3 C 9.01 g/m*3 12.3 C 0 km/h
3186 01-06-2014 01:35:00 12.3 C 9.01 g/m*3 12.3 C 0 km/h
3187 01-06-2014 01:40:00 12.2 C 8.96 g/m*3 12.2 C 0 km/h
3188 01-06-2014 01:45:00 12.1 C 9.01 g/m*3 12.1 C 0 km/h
3189 01-06-2014 01:50:00 12.1 C 9.01 g/m*3 12.1 C 0 km/h
3190 01-06-2014 01:55:00 12 C 8.85 g/m*3 12 C 0 km/h
3191 01-06-2014 02:00:00 11.9 C 8.9 g/m*3 11.9 C 1.6 km/h
3192 01-06-2014 02:05:00 11.8 C 8.84 g/m*3 11.8 C 0 km/h
3193 01-06-2014 02:10:00 11.8 C 8.84 g/m*3 11.8 C 0 km/h
3194 01-06-2014 02:15:00 11.7 C 8.79 g/m*3 11.7 C 0 km/h
3195 01-06-2014 02:20:00 11.6 C 8.83 g/m*3 11.6 C 0 km/h
3196 01-06-2014 02:25:00 11.5 C 8.78 g/m*3 11.5 C 0 km/h
3197 01-06-2014 02:30:00 11.4 C 8.72 g/m*3 11.4 C 0 km/h
3198 01-06-2014 02:35:00 11.3 C 8.67 g/m*3 11.3 C 0 km/h
3199 01-06-2014 02:40:00 11.3 C 8.67 g/m*3 11.3 C 0 km/h
3200 01-06-2014 02:45:00 11.2 C 8.62 g/m*3 11.2 C 0 km/h
Sensor: Nr:Datum:Temp:Abs-Feuchte:Windchill:Wind:
Aussen-T/F 3201 01-06-2014 02:50:00 11.1 C 8.56 g/m*3 11.1 C 0 km/h
3202 01-06-2014 02:55:00 11 C 8.51 g/m*3 11 C 0 km/h
3203 01-06-2014 03:00:00 10.9 C 8.45 g/m*3 10.9 C 0 km/h
3204 01-06-2014 03:05:00 10.8 C 8.5 g/m*3 10.8 C 0 km/h
3205 01-06-2014 03:10:00 10.6 C 8.49 g/m*3 10.6 C 0 km/h
3206 01-06-2014 03:15:00 10.5 C 8.34 g/m*3 10.5 C 0 km/h
3207 01-06-2014 03:20:00 10.4 C 8.38 g/m*3 10.4 C 0 km/h
3208 01-06-2014 03:25:00 10.3 C 8.33 g/m*3 10.3 C 0 km/h
3209 01-06-2014 03:30:00 10.3 C 8.43 g/m*3 10.3 C 0 km/h
3210 01-06-2014 03:35:00 10.3 C 8.43 g/m*3 10.3 C 0 km/h
3211 01-06-2014 03:40:00 10.3 C 8.43 g/m*3 10.3 C 1.6 km/h
3212 01-06-2014 03:45:00 10.4 C 8.48 g/m*3 10.4 C 1.6 km/h
3213 01-06-2014 03:50:00 10.4 C 8.48 g/m*3 10.4 C 0 km/h
3214 01-06-2014 03:55:00 10.4 C 8.48 g/m*3 10.4 C 0 km/h